Provisional Data: Little Mehoopany Creek near North Mehoopany, PA


Please select a monitoring station.
Please select start date.
Please select start date.

Toggle Unit: C/F Toggle Unit: C/F
Sample Time Temperature (C) Temperature (F) Specific Conductivity (mS/cm) pH   Turbidity (NTU+) DO (mg/L)
1/12/2021 12:00:00 AM 0.98 33.764 0.071 6.95 64.79 14.4
1/12/2021 12:15:00 AM 0.99 33.782 0.071 6.95 64.78 14.42
1/12/2021 12:30:00 AM 1 33.8 0.071 6.95 64.77 14.39
1/12/2021 12:45:00 AM 1 33.8 0.071 6.95 64.81 14.4
1/12/2021 1:00:00 AM 1.01 33.818 0.071 6.96 64.79 14.38
1/12/2021 1:15:00 AM 1.01 33.818 0.071 6.97 64.79 14.39
1/12/2021 1:30:00 AM 1.03 33.854 0.071 6.93 64.78 14.37
1/12/2021 1:45:00 AM 1.02 33.836 0.07 6.95 64.8 14.39
1/12/2021 2:00:00 AM 1.01 33.818 0.07 6.94 64.81 14.4
1/12/2021 2:15:00 AM 1.01 33.818 0.07 6.95 64.83 14.39
1/12/2021 2:30:00 AM 0.99 33.782 0.07 6.95 64.78 14.4
1/12/2021 2:45:00 AM 0.99 33.782 0.07 6.95 64.84 14.39
1/12/2021 3:00:00 AM 0.98 33.764 0.07 6.95 64.83 14.39
1/12/2021 3:15:00 AM 0.97 33.746 0.07 6.96 64.81 14.41
1/12/2021 3:30:00 AM 0.97 33.746 0.07 6.95 64.79 14.41
1/12/2021 3:45:00 AM 0.97 33.746 0.07 6.96 64.84 14.4
1/12/2021 4:00:00 AM 0.98 33.764 0.07 6.95 64.84 14.41
1/12/2021 4:15:00 AM 0.96 33.728 0.07 6.95 64.83 14.41
1/12/2021 4:30:00 AM 0.97 33.746 0.07 6.95 64.84 14.4
1/12/2021 4:45:00 AM 0.98 33.764 0.07 6.95 64.78 14.41
1/12/2021 5:00:00 AM 0.97 33.746 0.07 6.95 64.8 14.39
1/12/2021 5:15:00 AM 0.95 33.71 0.07 6.95 64.79 14.41
1/12/2021 5:30:00 AM 0.94 33.692 0.07 6.95 64.78 14.42
1/12/2021 5:45:00 AM 0.93 33.674 0.07 6.95 64.73 14.43
1/12/2021 6:00:00 AM 0.94 33.692 0.07 6.95 64.84 14.4
1/12/2021 6:15:00 AM 0.91 33.638 0.07 6.95 64.86 14.44
1/12/2021 6:30:00 AM 0.91 33.638 0.07 6.95 64.74 14.42
1/12/2021 6:45:00 AM 0.9 33.62 0.07 6.95 64.69 14.42
1/12/2021 7:00:00 AM 0.89 33.602 0.07 6.95 64.69 14.45
1/12/2021 7:15:00 AM 0.86 33.548 0.07 6.95 64.64 14.44
1/12/2021 7:30:00 AM 0.83 33.494 0.071 6.95 64.66 14.46
1/12/2021 7:45:00 AM 0.81 33.458 0.071 6.95 64.69 14.49
1/12/2021 8:00:00 AM 0.8 33.44 0.07 6.95 64.68 14.49
1/12/2021 8:15:00 AM 0.81 33.458 0.071 6.95 64.67 14.51
1/12/2021 8:30:00 AM 0.84 33.512 0.071 6.95 64.73 14.53
1/12/2021 8:45:00 AM 0.85 33.53 0.071 6.95 64.71 14.52
1/12/2021 9:00:00 AM 0.88 33.584 0.071 6.95 64.68 14.53
1/12/2021 9:15:00 AM 0.9 33.62 0.071 6.95 64.69 14.54
1/12/2021 9:30:00 AM 0.95 33.71 0.071 6.95 64.68 14.52
1/12/2021 9:45:00 AM 1.03 33.854 0.071 6.96 64.68 14.51
1/12/2021 10:00:00 AM 1.09 33.962 0.071 6.96 64.68 14.48
1/12/2021 10:15:00 AM 1.17 34.106 0.071 6.96 64.73 14.48
1/12/2021 10:30:00 AM 1.25 34.25 0.071 6.96 64.67 14.46
1/12/2021 10:45:00 AM 1.36 34.448 0.071 6.97 64.63 14.39
1/12/2021 11:00:00 AM 1.42 34.556 0.072 6.97 64.6 14.39
1/12/2021 11:15:00 AM 1.5 34.7 0.072 6.94 64.59 14.31
1/12/2021 11:30:00 AM 1.57 34.826 0.073 6.96 64.51 14.3
1/12/2021 11:45:00 AM 1.65 34.97 0.073 6.96 64.56 14.28
1/12/2021 12:00:00 PM 1.73 35.114 0.073 6.96 64.52 14.24
1/12/2021 12:15:00 PM 1.8 35.24 0.074 6.96 64.54 14.21
1/12/2021 12:30:00 PM 1.87 35.366 0.074 6.97 64.58 14.19
1/12/2021 12:45:00 PM 1.95 35.51 0.074 6.96 64.64 14.16
1/12/2021 1:00:00 PM 2.03 35.654 0.075 6.97 64.69 14.12
1/12/2021 1:15:00 PM 2.12 35.816 0.075 6.97 64.76 14.09
1/12/2021 1:30:00 PM 2.21 35.978 0.075 6.98 64.77 14.05
1/12/2021 1:45:00 PM 2.28 36.104 0.075 6.95 64.76 14.01
1/12/2021 2:00:00 PM 2.34 36.212 0.075 6.96 64.85 13.99
1/12/2021 2:15:00 PM 2.4 36.32 0.075 6.96 64.82 13.93
1/12/2021 2:30:00 PM 2.45 36.41 0.075 6.98 64.87 13.92
1/12/2021 2:45:00 PM 2.49 36.482 0.076 6.96 64.84 13.89
1/12/2021 3:00:00 PM 2.51 36.518 0.076 6.97 64.8 13.89
1/12/2021 3:15:00 PM 2.51 36.518 0.076 6.96 64.81 13.89
1/12/2021 3:30:00 PM 2.52 36.536 0.076 6.97 64.83 13.86
1/12/2021 3:45:00 PM 2.53 36.554 0.076 6.94 64.77 13.86
1/12/2021 4:00:00 PM 2.54 36.572 0.076 6.96 64.81 13.84
1/12/2021 4:15:00 PM 2.54 36.572 0.076 6.97 64.72 13.82
1/12/2021 4:30:00 PM 2.53 36.554 0.076 6.95 64.78 13.81
1/12/2021 4:45:00 PM 2.51 36.518 0.076 6.96 64.73 13.81
1/12/2021 5:00:00 PM 2.5 36.5 0.076 6.96 64.75 13.8
1/12/2021 5:15:00 PM 2.47 36.446 0.077 6.97 64.66 13.79
1/12/2021 5:30:00 PM 2.45 36.41 0.077 6.95 64.67 13.78
1/12/2021 5:45:00 PM 2.42 36.356 0.077 6.95 64.62 13.8
1/12/2021 6:00:00 PM 2.38 36.284 0.077 6.96 64.64 13.81
1/12/2021 6:15:00 PM 2.36 36.248 0.077 6.95 64.59 13.83
1/12/2021 6:30:00 PM 2.32 36.176 0.077 6.94 64.57 13.84
1/12/2021 6:45:00 PM 2.29 36.122 0.077 6.94 64.55 13.85
1/12/2021 7:00:00 PM 2.26 36.068 0.077 6.95 64.51 13.85
1/12/2021 7:15:00 PM 2.24 36.032 0.077 6.94 64.56 13.87
1/12/2021 7:30:00 PM 2.22 35.996 0.078 6.94 64.51 13.89
1/12/2021 7:45:00 PM 2.19 35.942 0.078 6.95 64.47 13.89
1/12/2021 8:00:00 PM 2.18 35.924 0.078 6.95 64.47 13.9
1/12/2021 8:15:00 PM 2.17 35.906 0.078 6.95 64.48 13.88
1/12/2021 8:30:00 PM 2.15 35.87 0.078 6.95 64.46 13.91
1/12/2021 8:45:00 PM 2.13 35.834 0.078 6.95 64.46 13.92
1/12/2021 9:00:00 PM 2.12 35.816 0.078 6.95 64.47 13.92
1/12/2021 9:15:00 PM 2.12 35.816 0.078 6.95 64.44 13.9
1/12/2021 9:30:00 PM 2.11 35.798 0.079 6.95 64.44 13.93
1/12/2021 9:45:00 PM 2.1 35.78 0.079 6.95 64.48 13.92
1/12/2021 10:00:00 PM 2.09 35.762 0.079 6.95 64.45 13.94
1/12/2021 10:15:00 PM 2.09 35.762 0.079 6.95 64.39 13.93
1/12/2021 10:30:00 PM 2.1 35.78 0.079 6.95 64.41 13.93
1/12/2021 10:45:00 PM 2.08 35.744 0.079 6.95 64.36 13.95
1/12/2021 11:00:00 PM 2.08 35.744 0.079 6.95 64.38 13.95
1/12/2021 11:15:00 PM 2.07 35.726 0.079 6.95 64.4 13.94
1/12/2021 11:30:00 PM 2.07 35.726 0.079 6.96 64.37 13.94
1/12/2021 11:45:00 PM 2.07 35.726 0.079 6.95 64.36 13.93
1/13/2021 12:00:00 AM 2.06 35.708 0.08 6.95 64.32 13.94
1/13/2021 12:15:00 AM 2.06 35.708 0.08 6.95 64.34 13.95
1/13/2021 12:30:00 AM 2.06 35.708 0.08 6.95 64.32 13.94
1/13/2021 12:45:00 AM 2.06 35.708 0.08 6.95 64.32 13.93
1/13/2021 1:00:00 AM 2.06 35.708 0.08 6.95 64.31 13.94
1/13/2021 1:15:00 AM 2.06 35.708 0.08 6.95 64.28 13.94
1/13/2021 1:30:00 AM 2.05 35.69 0.08 6.95 64.25 13.94
1/13/2021 1:45:00 AM 2.04 35.672 0.08 6.95 64.32 13.94
1/13/2021 2:00:00 AM 2.05 35.69 0.08 6.95 64.29 13.94
1/13/2021 2:15:00 AM 2.04 35.672 0.08 6.95 64.26 13.94
1/13/2021 2:30:00 AM 2.05 35.69 0.081 6.95 64.3 13.92
1/13/2021 2:45:00 AM 2.04 35.672 0.081 6.95 64.23 13.94
1/13/2021 3:00:00 AM 2.04 35.672 0.081 6.95 64.3 13.93
1/13/2021 3:15:00 AM 2.04 35.672 0.081 6.95 64.28 13.94
1/13/2021 3:30:00 AM 2.04 35.672 0.081 6.95 64.29 13.93
1/13/2021 3:45:00 AM 2.04 35.672 0.081 6.95 64.22 13.94
1/13/2021 4:00:00 AM 2.04 35.672 0.081 6.95 64.26 13.93
1/13/2021 4:15:00 AM 2.04 35.672 0.081 6.95 64.27 13.92
1/13/2021 4:30:00 AM 2.04 35.672 0.081 6.95 64.26 13.91
1/13/2021 4:45:00 AM 2.03 35.654 0.081 6.95 64.29 13.9
1/13/2021 5:00:00 AM 2.04 35.672 0.081 6.95 64.27 13.93
1/13/2021 5:15:00 AM 2.03 35.654 0.081 6.95 64.28 13.94
1/13/2021 5:30:00 AM 2.03 35.654 0.081 6.95 64.3 13.93
1/13/2021 5:45:00 AM 2.03 35.654 0.081 6.95 64.27 13.93
1/13/2021 6:00:00 AM 2.03 35.654 0.081 6.95 64.26 13.94
1/13/2021 6:15:00 AM 2.02 35.636 0.082 6.95 64.22 13.94
1/13/2021 6:30:00 AM 2.02 35.636 0.081 6.94 64.21 13.94
1/13/2021 6:45:00 AM 2.02 35.636 0.081 6.95 64.23 13.93
1/13/2021 7:00:00 AM 2.02 35.636 0.081 6.95 64.24 13.91
1/13/2021 7:15:00 AM 2.01 35.618 0.082 6.94 64.25 13.93
1/13/2021 7:30:00 AM 2.01 35.618 0.081 6.94 64.25 13.93
1/13/2021 7:45:00 AM 2.01 35.618 0.082 6.95 64.19 13.94
1/13/2021 8:00:00 AM 2.01 35.618 0.082 6.94 64.23 13.95
1/13/2021 8:15:00 AM 2.01 35.618 0.082 6.94 64.24 13.95
1/13/2021 8:30:00 AM 2.02 35.636 0.082 6.95 64.24 13.96
1/13/2021 8:45:00 AM 2.03 35.654 0.082 6.95 64.28 13.96
1/13/2021 9:00:00 AM 2.04 35.672 0.083 6.95 64.32 13.95
1/13/2021 9:15:00 AM 2.05 35.69 0.083 6.95 64.25 13.98
1/13/2021 9:30:00 AM 2.09 35.762 0.083 6.95 64.31 13.98
1/13/2021 9:45:00 AM 2.12 35.816 0.083 6.95 64.33 13.97
1/13/2021 10:00:00 AM 2.14 35.852 0.083 6.95 64.34 13.97
1/13/2021 10:15:00 AM 2.16 35.888 0.083 6.95 64.38 13.98
1/13/2021 10:30:00 AM 2.2 35.96 0.083 6.95 64.38 13.95
1/13/2021 10:45:00 AM 2.23 36.014 0.083 6.95 64.34 13.93
1/13/2021 11:00:00 AM 2.26 36.068 0.083 6.96 64.4 13.94
1/13/2021 11:15:00 AM 2.3 36.14 0.083 6.95 64.35 13.89
1/13/2021 11:30:00 AM 2.33 36.194 0.083 6.95 64.39 13.89
1/13/2021 11:45:00 AM 2.35 36.23 0.083 6.95 64.41 13.88
1/13/2021 12:00:00 PM 2.37 36.266 0.083 6.96 64.39 13.88
1/13/2021 12:15:00 PM 2.4 36.32 0.083 6.95 64.43 13.86
1/13/2021 12:30:00 PM 2.42 36.356 0.083 6.95 64.46 13.83
1/13/2021 12:45:00 PM 2.44 36.392 0.083 6.95 64.41 13.83
1/13/2021 1:00:00 PM 2.47 36.446 0.083 6.95 64.4 13.82
1/13/2021 1:15:00 PM 2.5 36.5 0.083 6.95 64.39 13.83
1/13/2021 1:30:00 PM 2.52 36.536 0.083 6.95 64.4 13.8
1/13/2021 1:45:00 PM 2.55 36.59 0.083 6.95 64.44 13.8
1/13/2021 2:00:00 PM 2.59 36.662 0.083 6.95 64.47 13.76
1/13/2021 2:15:00 PM 2.65 36.77 0.083 6.95 64.51 13.71
1/13/2021 2:30:00 PM 2.67 36.806 0.083 6.95 64.57 13.74
1/13/2021 2:45:00 PM 2.7 36.86 0.083 6.95 64.66 13.73
1/13/2021 3:00:00 PM 2.73 36.914 0.083 6.95 64.69 13.66
1/13/2021 3:15:00 PM 2.74 36.932 0.084 6.95 64.61 13.67
1/13/2021 3:30:00 PM 2.75 36.95 0.084 6.95 64.62 13.67
1/13/2021 3:45:00 PM 2.75 36.95 0.084 6.95 64.56 13.66
1/13/2021 4:00:00 PM 2.75 36.95 0.084 6.96 64.56 13.66
1/13/2021 4:15:00 PM 2.76 36.968 0.084 6.95 64.57 13.66
1/13/2021 4:30:00 PM 2.75 36.95 0.084 6.92 64.6 13.65
1/13/2021 4:45:00 PM 2.75 36.95 0.085 6.95 64.56 13.62
1/13/2021 5:00:00 PM 2.72 36.896 0.085 6.95 64.49 13.6
1/13/2021 5:15:00 PM 2.69 36.842 0.085 6.95 64.49 13.59
1/13/2021 5:30:00 PM 2.66 36.788 0.085 6.95 64.43 13.61
1/13/2021 5:45:00 PM 2.62 36.716 0.085 6.96 64.4 13.64
1/13/2021 6:00:00 PM 2.58 36.644 0.085 6.94 64.35 13.62
1/13/2021 6:15:00 PM 2.54 36.572 0.085 6.96 64.33 13.61
1/13/2021 6:30:00 PM 2.49 36.482 0.086 6.95 64.3 13.66
1/13/2021 6:45:00 PM 2.46 36.428 0.085 6.95 64.29 13.66
1/13/2021 7:00:00 PM 2.43 36.374 0.086 6.88 64.23 13.64
1/13/2021 7:15:00 PM 2.39 36.302 0.086 6.94 64.15 13.69
1/13/2021 7:30:00 PM 2.37 36.266 0.086 6.95 64.12 13.7
1/13/2021 7:45:00 PM 2.34 36.212 0.086 6.92 64.09 13.73
1/13/2021 8:00:00 PM 2.31 36.158 0.086 6.94 64.01 13.71
1/13/2021 8:15:00 PM 2.3 36.14 0.086 6.94 64.01 13.72
1/13/2021 8:30:00 PM 2.28 36.104 0.086 6.94 63.99 13.73
1/13/2021 8:45:00 PM 2.27 36.086 0.087 6.95 64.01 13.73
1/13/2021 9:00:00 PM 2.25 36.05 0.086 6.95 63.99 13.74
1/13/2021 9:15:00 PM 2.24 36.032 0.086 6.96 64.02 13.75
1/13/2021 9:30:00 PM 2.22 35.996 0.086 6.95 64.03 13.75
1/13/2021 9:45:00 PM 2.21 35.978 0.087 6.91 64.03 13.77
1/13/2021 10:00:00 PM 2.2 35.96 0.087 6.96 64.04 13.76
1/13/2021 10:15:00 PM 2.19 35.942 0.087 6.88 64.01 13.76
1/13/2021 10:30:00 PM 2.17 35.906 0.087 6.95 64.01 13.76
1/13/2021 10:45:00 PM 2.17 35.906 0.088 6.96 64.04 13.77
1/13/2021 11:00:00 PM 2.16 35.888 0.087 6.9 64.03 13.78
1/13/2021 11:15:00 PM 2.15 35.87 0.088 6.96 64.03 13.78
1/13/2021 11:30:00 PM 2.14 35.852 0.088 6.95 64.03 13.79
1/13/2021 11:45:00 PM 2.15 35.87 0.088 6.88 64.01 13.8
1/14/2021 12:00:00 AM 2.15 35.87 0.088 6.94 64.03 13.77
1/14/2021 12:15:00 AM 2.13 35.834 0.088 6.96 63.99 13.79
1/14/2021 12:30:00 AM 2.11 35.798 0.088 6.89 64.02 13.78
1/14/2021 12:45:00 AM 2.11 35.798 0.088 6.96 63.99 13.8
1/14/2021 1:00:00 AM 2.11 35.798 0.088 6.94 64.03 13.79
1/14/2021 1:15:00 AM 2.12 35.816 0.089 6.94 64.06 13.8
1/14/2021 1:30:00 AM 2.12 35.816 0.089 6.94 64.03 13.8
1/14/2021 1:45:00 AM 2.12 35.816 0.089 6.94 64.04 13.81
1/14/2021 2:00:00 AM 2.13 35.834 0.089 6.94 64.01 13.79
1/14/2021 2:15:00 AM 2.14 35.852 0.089 6.94 64.04 13.77
1/14/2021 2:30:00 AM 2.14 35.852 0.089 6.94 64.04 13.77
1/14/2021 2:45:00 AM 2.16 35.888 0.089 6.94 63.99 13.78
1/14/2021 3:00:00 AM 2.16 35.888 0.089 6.96 63.99 13.77
1/14/2021 3:15:00 AM 2.16 35.888 0.089 6.95 64.02 13.79
1/14/2021 3:30:00 AM 2.17 35.906 0.089 6.91 63.99 13.77
1/14/2021 3:45:00 AM 2.17 35.906 0.09 6.94 63.99 13.77
1/14/2021 4:00:00 AM 2.19 35.942 0.09 6.96 63.99 13.75
1/14/2021 4:15:00 AM 2.18 35.924 0.089 6.91 64.02 13.77
1/14/2021 4:30:00 AM 2.2 35.96 0.09 6.94 64.04 13.75
1/14/2021 4:45:00 AM 2.2 35.96 0.09 6.95 64.02 13.76
1/14/2021 5:00:00 AM 2.2 35.96 0.09 6.93 64.03 13.75
1/14/2021 5:15:00 AM 2.2 35.96 0.09 6.95 64.01 13.75
1/14/2021 5:30:00 AM 2.2 35.96 0.09 6.96 64.03 13.76
1/14/2021 5:45:00 AM 2.21 35.978 0.09 6.89 64.05 13.76
1/14/2021 6:00:00 AM 2.22 35.996 0.09 6.96 64.05 13.74
1/14/2021 6:15:00 AM 2.23 36.014 0.09 6.95 64.04 13.74
1/14/2021 6:30:00 AM 2.23 36.014 0.09 6.94 63.97 13.75
1/14/2021 6:45:00 AM 2.24 36.032 0.091 6.9 64 13.73
1/14/2021 7:00:00 AM 2.24 36.032 0.091 6.94 63.99 13.73
1/14/2021 7:15:00 AM 2.24 36.032 0.09 6.94 64.02 13.74
1/14/2021 7:30:00 AM 2.25 36.05 0.091 6.96 64.09 13.73
1/14/2021 7:45:00 AM 2.24 36.032 0.091 6.9 64.06 13.75
1/14/2021 8:00:00 AM 2.24 36.032 0.091 6.94 64.09 13.75
1/14/2021 8:15:00 AM 2.24 36.032 0.091 6.93 64.12 13.74
1/14/2021 8:30:00 AM 2.24 36.032 0.091 6.94 64.12 13.76
1/14/2021 8:45:00 AM 2.23 36.014 0.091 6.94 64.09 13.78
1/14/2021 9:00:00 AM 2.23 36.014 0.091 6.96 64.1 13.8
1/14/2021 9:15:00 AM 2.23 36.014 0.091 6.86 64.13 13.82
1/14/2021 9:30:00 AM 2.25 36.05 0.091 6.96 64.16 13.83
1/14/2021 9:45:00 AM 2.3 36.14 0.092 6.96 64.14 13.81
1/14/2021 10:00:00 AM 2.35 36.23 0.092 6.94 64.12 13.82
1/14/2021 10:15:00 AM 2.41 36.338 0.092 6.9 64.11 13.81
1/14/2021 10:30:00 AM 2.47 36.446 0.092 6.96 64.17 13.79
1/14/2021 10:45:00 AM 2.53 36.554 0.091 6.86 64.18 13.78
1/14/2021 11:00:00 AM 2.59 36.662 0.092 6.96 64.18 13.74
1/14/2021 11:15:00 AM 2.65 36.77 0.091 6.96 64.17 13.72
1/14/2021 11:30:00 AM 2.7 36.86 0.092 6.96 64.16 13.71
1/14/2021 11:45:00 AM 2.76 36.968 0.092 6.93 64.14 13.67
1/14/2021 12:00:00 PM 2.83 37.094 0.093 6.95 64.07 13.66
1/14/2021 12:15:00 PM 2.91 37.238 0.093 6.97 64.1 13.63
1/14/2021 12:30:00 PM 2.98 37.364 0.093 6.92 64.05 13.58
1/14/2021 12:45:00 PM 3.06 37.508 0.094 6.94 64.1 13.54
1/14/2021 1:00:00 PM 3.16 37.688 0.093 6.97 64.26 13.52
1/14/2021 1:15:00 PM 3.23 37.814 0.094 6.96 64.19 13.49
1/14/2021 1:30:00 PM 3.32 37.976 0.093 6.96 64.32 13.46
1/14/2021 1:45:00 PM 3.38 38.084 0.093 6.9 64.33 13.43
1/14/2021 2:00:00 PM 3.42 38.156 0.093 6.97 64.3 13.4
1/14/2021 2:15:00 PM 3.47 38.246 0.094 6.87 64.37 13.36
1/14/2021 2:30:00 PM 3.52 38.336 0.094 6.97 64.45 13.35
1/14/2021 2:45:00 PM 3.56 38.408 0.094 6.88 64.81 13.33
1/14/2021 3:00:00 PM 3.57 38.426 0.094 6.97 64.78 13.33
1/14/2021 3:15:00 PM 3.59 38.462 0.094 6.89 64.79 13.31
1/14/2021 3:30:00 PM 3.6 38.48 0.094 6.95 64.87 13.31
1/14/2021 3:45:00 PM 3.62 38.516 0.094 6.95 64.84 13.32
1/14/2021 4:00:00 PM 3.62 38.516 0.095 6.95 64.8 13.28
1/14/2021 4:15:00 PM 3.62 38.516 0.095 6.95 64.92 13.28
1/14/2021 4:30:00 PM 3.63 38.534 0.095 6.95 64.83 13.26
1/14/2021 4:45:00 PM 3.61 38.498 0.096 6.95 64.79 13.26
1/14/2021 5:00:00 PM 3.58 38.444 0.096 6.94 64.67 13.26
1/14/2021 5:15:00 PM 3.56 38.408 0.096 6.95 64.65 13.24
1/14/2021 5:30:00 PM 3.53 38.354 0.096 6.96 64.62 13.26
1/14/2021 5:45:00 PM 3.51 38.318 0.096 6.91 64.51 13.24
1/14/2021 6:00:00 PM 3.49 38.282 0.097 6.96 64.51 13.25
1/14/2021 6:15:00 PM 3.47 38.246 0.096 6.86 64.51 13.26
1/14/2021 6:30:00 PM 3.45 38.21 0.097 6.96 64.49 13.29
1/14/2021 6:45:00 PM 3.43 38.174 0.097 6.84 64.52 13.28
1/14/2021 7:00:00 PM 3.4 38.12 0.098 6.95 64.45 13.3
1/14/2021 7:15:00 PM 3.39 38.102 0.098 6.91 64.45 13.3
1/14/2021 7:30:00 PM 3.37 38.066 0.098 6.93 64.47 13.31
1/14/2021 7:45:00 PM 3.35 38.03 0.099 6.93 64.48 13.33
1/14/2021 8:00:00 PM 3.33 37.994 0.099 6.93 64.44 13.33
1/14/2021 8:15:00 PM 3.32 37.976 0.099 6.93 64.44 13.31
1/14/2021 8:30:00 PM 3.3 37.94 0.099 6.93 64.33 13.35
1/14/2021 8:45:00 PM 3.28 37.904 0.099 6.93 64.37 13.35
1/14/2021 9:00:00 PM 3.27 37.886 0.099 6.93 64.45 13.32
1/14/2021 9:15:00 PM 3.26 37.868 0.099 6.95 64.43 13.35
1/14/2021 9:30:00 PM 3.24 37.832 0.1 6.95 64.42 13.35
1/14/2021 9:45:00 PM 3.23 37.814 0.1 6.95 64.47 13.38
1/14/2021 10:00:00 PM 3.24 37.832 0.101 6.93 64.5 13.36
1/14/2021 10:15:00 PM 3.21 37.778 0.1 6.93 64.44 13.39
1/14/2021 10:30:00 PM 3.2 37.76 0.101 6.95 64.47 13.37
1/14/2021 10:45:00 PM 3.19 37.742 0.101 6.87 64.41 13.39
1/14/2021 11:00:00 PM 3.18 37.724 0.1 6.93 64.42 13.4
1/14/2021 11:15:00 PM 3.18 37.724 0.1 6.93 64.42 13.41
1/14/2021 11:30:00 PM 3.17 37.706 0.101 6.93 64.43 13.42
1/14/2021 11:45:00 PM 3.17 37.706 0.101 6.93 64.43 13.42
1/15/2021 12:00:00 AM 3.17 37.706 0.101 6.93 64.5 13.4
1/15/2021 12:15:00 AM 3.16 37.688 0.101 6.93 64.47 13.4
1/15/2021 12:30:00 AM 3.15 37.67 0.101 6.95 64.45 13.42
1/15/2021 12:45:00 AM 3.14 37.652 0.101 6.86 64.44 13.42
1/15/2021 1:00:00 AM 3.15 37.67 0.101 6.95 64.39 13.41
1/15/2021 1:15:00 AM 3.13 37.634 0.101 6.94 64.41 13.41
1/15/2021 1:30:00 AM 3.13 37.634 0.101 6.88 64.45 13.42
1/15/2021 1:45:00 AM 3.11 37.598 0.101 6.95 64.4 13.43
1/15/2021 2:00:00 AM 3.1 37.58 0.101 6.95 64.43 13.44
1/15/2021 2:15:00 AM 3.09 37.562 0.1 6.96 64.4 13.44
1/15/2021 2:30:00 AM 3.08 37.544 0.101 6.95 64.38 13.47
1/15/2021 2:45:00 AM 3.06 37.508 0.101 6.94 64.35 13.46
1/15/2021 3:00:00 AM 3.03 37.454 0.101 6.86 64.33 13.46
1/15/2021 3:15:00 AM 3 37.4 0.101 6.95 64.33 13.46
1/15/2021 3:30:00 AM 2.96 37.328 0.101 6.9 64.26 13.49
1/15/2021 3:45:00 AM 2.92 37.256 0.101 6.93 64.36 13.5
1/15/2021 4:00:00 AM 2.89 37.202 0.101 6.95 64.25 13.5
1/15/2021 4:15:00 AM 2.87 37.166 0.101 6.93 64.14 13.5
1/15/2021 4:30:00 AM 2.84 37.112 0.101 6.94 64.17 13.51
1/15/2021 4:45:00 AM 2.83 37.094 0.101 6.92 64.11 13.54
1/15/2021 5:00:00 AM 2.82 37.076 0.101 6.95 64.17 13.55
1/15/2021 5:15:00 AM 2.83 37.094 0.101 6.87 64.11 13.52
1/15/2021 5:30:00 AM 2.8 37.04 0.101 6.95 64.08 13.56
1/15/2021 5:45:00 AM 2.78 37.004 0.101 6.88 64.14 13.54
1/15/2021 6:00:00 AM 2.77 36.986 0.101 6.93 64.08 13.55
1/15/2021 6:15:00 AM 2.75 36.95 0.101 6.93 64.12 13.56
1/15/2021 6:30:00 AM 2.73 36.914 0.101 6.95 64.1 13.57
1/15/2021 6:45:00 AM 2.7 36.86 0.101 6.93 64.13 13.53
1/15/2021 7:00:00 AM 2.63 36.734 0.101 6.96 64.16 13.61
1/15/2021 7:15:00 AM 2.61 36.698 0.101 6.83 64.18 13.62
1/15/2021 7:30:00 AM 2.59 36.662 0.101 6.94 64.14 13.62
1/15/2021 7:45:00 AM 2.56 36.608 0.101 6.93 64.13 13.64
1/15/2021 8:00:00 AM 2.54 36.572 0.101 6.95 64.1 13.65
1/15/2021 8:15:00 AM 2.53 36.554 0.101 6.94 64.12 13.68
1/15/2021 8:30:00 AM 2.51 36.518 0.101 6.95 64.17 13.72
1/15/2021 8:45:00 AM 2.51 36.518 0.102 6.85 64.15 13.71
1/15/2021 9:00:00 AM 2.51 36.518 0.102 6.96 64.15 13.75
1/15/2021 9:15:00 AM 2.51 36.518 0.102 6.96 64.18 13.73
1/15/2021 9:30:00 AM 2.53 36.554 0.102 6.85 64.15 13.76
1/15/2021 9:45:00 AM 2.56 36.608 0.102 6.95 64.13 13.75
1/15/2021 10:00:00 AM 2.6 36.68 0.103 6.96 64.08 13.75
1/15/2021 10:15:00 AM 2.64 36.752 0.102 6.95 64.1 13.75
1/15/2021 10:30:00 AM 2.7 36.86 0.103 6.96 64.11 13.74
1/15/2021 10:45:00 AM 2.75 36.95 0.103 6.95 64.14 13.72
1/15/2021 11:00:00 AM 2.82 37.076 0.103 6.96 64.12 13.69
1/15/2021 11:15:00 AM 2.9 37.22 0.103 6.96 64.19 13.69
1/15/2021 11:30:00 AM 3.02 37.436 0.103 6.96 64.36 13.61
1/15/2021 11:45:00 AM 3.09 37.562 0.104 6.97 64.43 13.6
1/15/2021 12:00:00 PM 3.15 37.67 0.105 6.98 64.41 13.54
1/15/2021 12:15:00 PM 3.2 37.76 0.105 6.97 64.47 13.51
1/15/2021 12:30:00 PM 3.27 37.886 0.105 6.91 64.54 13.49
1/15/2021 12:45:00 PM 3.33 37.994 0.106 6.95 64.58 13.46
1/15/2021 1:00:00 PM 3.37 38.066 0.106 6.97 64.64 13.42
1/15/2021 1:15:00 PM 3.41 38.138 0.106 6.94 64.73 13.43
1/15/2021 1:30:00 PM 3.45 38.21 0.107 6.95 64.74 13.4
1/15/2021 1:45:00 PM 3.47 38.246 0.107 6.95 64.67 13.39
1/15/2021 2:00:00 PM 3.5 38.3 0.107 6.94 64.63 13.36
1/15/2021 2:15:00 PM 3.53 38.354 0.108 6.95 64.66 13.34
1/15/2021 2:30:00 PM 3.54 38.372 0.108 6.95 64.6 13.33
1/15/2021 2:45:00 PM 3.56 38.408 0.109 6.94 64.66 13.31
1/15/2021 3:00:00 PM 3.55 38.39 0.109 6.94 64.58 13.3
1/15/2021 3:15:00 PM 3.56 38.408 0.109 6.95 64.83 13.27
1/15/2021 3:30:00 PM 3.53 38.354 0.109 6.95 64.71 13.29
1/15/2021 3:45:00 PM 3.53 38.354 0.109 6.95 64.93 13.29
1/15/2021 4:00:00 PM 3.53 38.354 0.109 6.87 64.7 13.25
1/15/2021 4:15:00 PM 3.52 38.336 0.109 6.93 64.73 13.22
1/15/2021 4:30:00 PM 3.52 38.336 0.11 6.93 64.74 13.26
1/15/2021 4:45:00 PM 3.5 38.3 0.109 6.93 64.68 13.26
1/15/2021 5:00:00 PM 3.49 38.282 0.11 6.93 64.62 13.26
1/15/2021 5:15:00 PM 3.47 38.246 0.11 6.93 64.6 13.27
1/15/2021 5:30:00 PM 3.47 38.246 0.11 6.94 64.7 13.25
1/15/2021 5:45:00 PM 3.47 38.246 0.11 6.93 64.9 13.26
1/15/2021 6:00:00 PM 3.47 38.246 0.11 6.93 64.85 13.25
1/15/2021 6:15:00 PM 3.48 38.264 0.11 6.93 64.79 13.24
1/15/2021 6:30:00 PM 3.48 38.264 0.11 6.93 64.8 13.23
1/15/2021 6:45:00 PM 3.49 38.282 0.11 6.93 64.82 13.23
1/15/2021 7:00:00 PM 3.51 38.318 0.111 6.93 64.77 13.23
1/15/2021 7:15:00 PM 3.51 38.318 0.111 6.93 64.86 13.22
1/15/2021 7:30:00 PM 3.52 38.336 0.111 6.94 64.84 13.22
1/15/2021 7:45:00 PM 3.53 38.354 0.11 6.93 64.83 13.22
1/15/2021 8:00:00 PM 3.55 38.39 0.11 6.94 64.88 13.2
1/15/2021 8:15:00 PM 3.56 38.408 0.11 6.95 64.84 13.21
1/15/2021 8:30:00 PM 3.58 38.444 0.11 6.95 64.78 13.2
1/15/2021 8:45:00 PM 3.59 38.462 0.11 6.88 64.79 13.18
1/15/2021 9:00:00 PM 3.6 38.48 0.11 6.93 64.72 13.2
1/15/2021 9:15:00 PM 3.6 38.48 0.11 6.93 64.75 13.19
1/15/2021 9:30:00 PM 3.62 38.516 0.11 6.93 64.81 13.17
1/15/2021 9:45:00 PM 3.61 38.498 0.11 6.94 64.77 13.18
1/15/2021 10:00:00 PM 3.63 38.534 0.11 6.94 64.82 13.17
1/15/2021 10:15:00 PM 3.63 38.534 0.11 6.96 64.72 13.16
1/15/2021 10:30:00 PM 3.62 38.516 0.11 6.86 64.7 13.19
1/15/2021 10:45:00 PM 3.64 38.552 0.109 6.93 64.72 13.18
1/15/2021 11:00:00 PM 3.65 38.57 0.11 6.95 64.71 13.15
1/15/2021 11:15:00 PM 3.64 38.552 0.11 6.92 64.77 13.17
1/15/2021 11:30:00 PM 3.63 38.534 0.111 6.93 65 13.17
1/15/2021 11:45:00 PM 3.63 38.534 0.11 6.93 64.9 13.18
1/16/2021 12:00:00 AM 3.63 38.534 0.11 6.93 64.94 13.17
1/16/2021 12:15:00 AM 3.62 38.516 0.109 6.93 64.86 13.18
1/16/2021 12:30:00 AM 3.61 38.498 0.11 6.94 64.77 13.19
1/16/2021 12:45:00 AM 3.61 38.498 0.11 6.93 64.76 13.19
1/16/2021 1:00:00 AM 3.6 38.48 0.111 6.94 64.66 13.21
1/16/2021 1:15:00 AM 3.59 38.462 0.11 6.95 64.68 13.2
1/16/2021 1:30:00 AM 3.56 38.408 0.11 6.95 64.52 13.21
1/16/2021 1:45:00 AM 3.54 38.372 0.11 6.97 64.53 13.23
1/16/2021 2:00:00 AM 3.51 38.318 0.11 6.92 64.47 13.25
1/16/2021 2:15:00 AM 3.49 38.282 0.11 6.94 65.24 13.25
1/16/2021 2:30:00 AM 3.46 38.228 0.111 6.95 64.47 13.27
1/16/2021 2:45:00 AM 3.45 38.21 0.113 6.94 64.2 13.25
1/16/2021 3:00:00 AM 3.43 38.174 0.114 6.93 64.1 13.27
1/16/2021 3:15:00 AM 3.4 38.12 0.116 6.93 64.21 13.3
1/16/2021 3:30:00 AM 3.39 38.102 0.117 6.93 64.11 13.26
1/16/2021 3:45:00 AM 3.36 38.048 0.116 6.92 63.99 13.29
1/16/2021 4:00:00 AM 3.33 37.994 0.116 6.93 63.91 13.28
1/16/2021 4:15:00 AM 3.26 37.868 0.114 6.92 63.87 13.31
1/16/2021 4:30:00 AM 3.2 37.76 0.114 6.92 63.81 13.31
1/16/2021 4:45:00 AM 3.16 37.688 0.114 6.95 63.8 13.35
1/16/2021 5:00:00 AM 3.11 37.598 0.113 6.83 63.81 13.35
1/16/2021 5:15:00 AM 3.06 37.508 0.111 6.95 63.79 13.37
1/16/2021 5:30:00 AM 3.05 37.49 0.111 6.87 63.8 13.38
1/16/2021 5:45:00 AM 3.02 37.436 0.11 6.95 63.75 13.4
1/16/2021 6:00:00 AM 2.99 37.382 0.11 6.94 63.73 13.42
1/16/2021 6:15:00 AM 2.97 37.346 0.11 6.95 63.76 13.44
1/16/2021 6:30:00 AM 2.95 37.31 0.109 6.96 63.74 13.46
1/16/2021 6:45:00 AM 2.92 37.256 0.109 6.96 63.73 13.47
1/16/2021 7:00:00 AM 2.9 37.22 0.109 6.96 63.72 13.45
1/16/2021 7:15:00 AM 2.88 37.184 0.109 6.96 63.73 13.48
1/16/2021 7:30:00 AM 2.86 37.148 0.108 6.96 63.74 13.46
1/16/2021 7:45:00 AM 2.84 37.112 0.108 6.96 63.74 13.5
1/16/2021 8:00:00 AM 2.85 37.13 0.108 6.97 63.75 13.49
1/16/2021 8:15:00 AM 2.87 37.166 0.107 6.96 63.72 13.48
1/16/2021 8:30:00 AM 2.88 37.184 0.107 6.94 63.65 13.51
1/16/2021 8:45:00 AM 2.93 37.274 0.107 6.94 63.74 13.49
1/16/2021 9:00:00 AM 2.94 37.292 0.107 6.93 63.82 13.48
1/16/2021 9:15:00 AM 2.98 37.364 0.107 6.95 63.87 13.47
1/16/2021 9:30:00 AM 3.02 37.436 0.106 6.96 63.87 13.45
1/16/2021 9:45:00 AM 3.05 37.49 0.106 6.97 63.89 13.45
1/16/2021 10:00:00 AM 3.1 37.58 0.106 6.95 63.89 13.42
1/16/2021 10:15:00 AM 3.12 37.616 0.106 7 63.99 13.43
1/16/2021 10:30:00 AM 3.14 37.652 0.105 6.98 64.03 13.43
1/16/2021 10:45:00 AM 3.16 37.688 0.105 6.96 63.99 13.43
1/16/2021 11:00:00 AM 3.19 37.742 0.105 6.95 64.02 13.41
1/16/2021 11:15:00 AM 3.22 37.796 0.105 6.94 64.04 13.42
1/16/2021 11:30:00 AM 3.28 37.904 0.105 6.97 64.16 13.39
1/16/2021 11:45:00 AM 3.3 37.94 0.105 6.96 64.16 13.38
1/16/2021 12:00:00 PM 3.33 37.994 0.104 6.97 64.12 13.36
1/16/2021 12:15:00 PM 3.34 38.012 0.104 6.98 64.17 13.36
1/16/2021 12:30:00 PM 3.33 37.994 0.104 6.97 64.14 13.35
1/16/2021 12:45:00 PM 3.34 38.012 0.103 6.99 64.18 13.34
1/16/2021 1:00:00 PM 3.32 37.976 0.102 6.96 64.07 13.34
1/16/2021 1:15:00 PM 3.33 37.994 0.102 6.97 64.09 13.33
1/16/2021 1:30:00 PM 3.34 38.012 0.102 6.97 64.14 13.34
1/16/2021 1:45:00 PM 3.36 38.048 0.102 6.98 64.15 13.33
1/16/2021 2:00:00 PM 3.39 38.102 0.102 6.98 64.17 13.32
1/16/2021 2:15:00 PM 3.41 38.138 0.101 6.98 64.16 13.32
1/16/2021 2:30:00 PM 3.43 38.174 0.102 6.98 64.21 13.31
1/16/2021 2:45:00 PM 3.43 38.174 0.102 6.98 64.15 13.3
1/16/2021 3:00:00 PM 3.42 38.156 0.102 6.98 64.11 13.31
1/16/2021 3:15:00 PM 3.41 38.138 0.102 6.97 64.14 13.32
1/16/2021 3:30:00 PM 3.4 38.12 0.102 6.97 64.01 13.31
1/16/2021 3:45:00 PM 3.38 38.084 0.101 6.97 64.03 13.32
1/16/2021 4:00:00 PM 3.38 38.084 0.101 6.97 63.97 13.31
1/16/2021 4:15:00 PM 3.36 38.048 0.1 6.97 63.93 13.32
1/16/2021 4:30:00 PM 3.33 37.994 0.1 6.97 64 13.33
1/16/2021 4:45:00 PM 3.3 37.94 0.1 6.97 64.02 13.33
1/16/2021 5:00:00 PM 3.28 37.904 0.1 6.95 63.99 13.36
1/16/2021 5:15:00 PM 3.25 37.85 0.1 6.96 63.93 13.35
1/16/2021 5:30:00 PM 3.22 37.796 0.1 6.96 63.98 13.36
1/16/2021 5:45:00 PM 3.18 37.724 0.099 6.96 63.88 13.37
1/16/2021 6:00:00 PM 3.14 37.652 0.099 6.96 63.92 13.37
1/16/2021 6:15:00 PM 3.11 37.598 0.099 6.96 63.88 13.39
1/16/2021 6:30:00 PM 3.07 37.526 0.099 6.95 63.93 13.4
1/16/2021 6:45:00 PM 3.03 37.454 0.098 6.95 63.87 13.43
1/16/2021 7:00:00 PM 3 37.4 0.098 6.94 63.85 13.43
1/16/2021 7:15:00 PM 2.98 37.364 0.098 6.95 63.92 13.44
1/16/2021 7:30:00 PM 2.95 37.31 0.098 6.94 63.9 13.46
1/16/2021 7:45:00 PM 2.92 37.256 0.098 6.94 63.88 13.47
1/16/2021 8:00:00 PM 2.89 37.202 0.098 6.94 63.95 13.48
1/16/2021 8:15:00 PM 2.86 37.148 0.098 6.94 63.83 13.49
1/16/2021 8:30:00 PM 2.84 37.112 0.098 6.95 63.83 13.5
1/16/2021 8:45:00 PM 2.82 37.076 0.098 6.95 63.81 13.5
1/16/2021 9:00:00 PM 2.8 37.04 0.098 6.95 63.76 13.5
1/16/2021 9:15:00 PM 2.77 36.986 0.099 6.95 63.78 13.52
1/16/2021 9:30:00 PM 2.75 36.95 0.099 6.95 63.79 13.52
1/16/2021 9:45:00 PM 2.73 36.914 0.099 6.96 63.76 13.54
1/16/2021 10:00:00 PM 2.71 36.878 0.099 6.96 63.75 13.54
1/16/2021 10:15:00 PM 2.7 36.86 0.1 6.96 63.72 13.54
1/16/2021 10:30:00 PM 2.68 36.824 0.1 6.96 63.76 13.61
1/16/2021 10:45:00 PM 2.66 36.788 0.1 6.96 63.76 13.57
1/16/2021 11:00:00 PM 2.64 36.752 0.101 6.96 63.74 13.57
1/16/2021 11:15:00 PM 2.62 36.716 0.101 6.96 63.75 13.56
1/16/2021 11:30:00 PM 2.6 36.68 0.102 6.96 63.77 13.58
1/16/2021 11:45:00 PM 2.58 36.644 0.102 6.97 63.78 13.58
1/17/2021 12:00:00 AM 2.56 36.608 0.102 6.97 63.7 13.6
1/17/2021 12:15:00 AM 2.54 36.572 0.103 6.97 63.69 13.61
1/17/2021 12:30:00 AM 2.52 36.536 0.103 6.97 63.73 13.61
1/17/2021 12:45:00 AM 2.51 36.518 0.103 6.98 63.71 13.62
1/17/2021 1:00:00 AM 2.5 36.5 0.104 6.98 63.7 13.64
1/17/2021 1:15:00 AM 2.5 36.5 0.104 6.98 63.71 13.64
1/17/2021 1:30:00 AM 2.5 36.5 0.104 6.97 63.7 13.68
1/17/2021 1:45:00 AM 2.51 36.518 0.104 6.97 63.68 13.66
1/17/2021 2:00:00 AM 2.53 36.554 0.104 6.98 63.65 13.65
1/17/2021 2:15:00 AM 2.54 36.572 0.104 6.98 63.68 13.64
1/17/2021 2:30:00 AM 2.55 36.59 0.104 6.97 63.7 13.68
1/17/2021 2:45:00 AM 2.55 36.59 0.105 6.99 63.65 13.63
1/17/2021 3:00:00 AM 2.55 36.59 0.105 7 63.68 13.64
1/17/2021 3:15:00 AM 2.56 36.608 0.105 6.93 63.63 13.63
1/17/2021 3:30:00 AM 2.56 36.608 0.105 6.99 63.64 13.63
1/17/2021 3:45:00 AM 2.57 36.626 0.105 6.98 63.66 13.63
1/17/2021 4:00:00 AM 2.58 36.644 0.104 6.97 63.67 13.65
1/17/2021 4:15:00 AM 2.59 36.662 0.104 6.98 63.68 13.64
1/17/2021 4:30:00 AM 2.59 36.662 0.104 6.99 63.71 13.63
1/17/2021 4:45:00 AM 2.6 36.68 0.104 6.97 63.71 13.66
1/17/2021 5:00:00 AM 2.6 36.68 0.105 6.98 63.72 13.63
1/17/2021 5:15:00 AM 2.59 36.662 0.105 6.98 63.72 13.63
1/17/2021 5:30:00 AM 2.59 36.662 0.105 6.97 63.74 13.64
1/17/2021 5:45:00 AM 2.58 36.644 0.105 6.97 63.72 13.64
1/17/2021 6:00:00 AM 2.59 36.662 0.105 6.97 63.72 13.66
1/17/2021 6:15:00 AM 2.59 36.662 0.105 6.96 63.65 13.71
1/17/2021 6:30:00 AM 2.6 36.68 0.105 6.99 63.72 13.65
1/17/2021 6:45:00 AM 2.61 36.698 0.105 6.96 63.77 13.64
1/17/2021 7:00:00 AM 2.61 36.698 0.105 6.97 63.78 13.64
1/17/2021 7:15:00 AM 2.61 36.698 0.105 6.96 63.75 13.66
1/17/2021 7:30:00 AM 2.62 36.716 0.105 6.97 63.72 13.62
1/17/2021 7:45:00 AM 2.62 36.716 0.105 6.96 63.77 13.65
1/17/2021 8:00:00 AM 2.63 36.734 0.105 6.96 63.76 13.66
1/17/2021 8:15:00 AM 2.64 36.752 0.105 6.95 63.75 13.66
1/17/2021 8:30:00 AM 2.65 36.77 0.105 6.96 63.79 13.65
1/17/2021 8:45:00 AM 2.68 36.824 0.105 6.96 63.8 13.68
1/17/2021 9:00:00 AM 2.71 36.878 0.105 6.95 63.8 13.65
1/17/2021 9:15:00 AM 2.74 36.932 0.105 6.95 63.87 13.65
1/17/2021 9:30:00 AM 2.76 36.968 0.105 6.96 63.87 13.63
1/17/2021 9:45:00 AM 2.79 37.022 0.105 6.95 63.88 13.65
1/17/2021 10:00:00 AM 2.82 37.076 0.105 6.95 63.96 13.64
1/17/2021 10:15:00 AM 2.85 37.13 0.105 6.95 63.97 13.6
1/17/2021 10:30:00 AM 2.89 37.202 0.105 6.95 64.02 13.61
1/17/2021 10:45:00 AM 2.91 37.238 0.104 6.94 64.06 13.59
1/17/2021 11:00:00 AM 2.93 37.274 0.104 6.94 64.1 13.6
1/17/2021 11:15:00 AM 2.96 37.328 0.104 6.93 64.07 13.59
1/17/2021 11:30:00 AM 2.99 37.382 0.104 6.94 64.05 13.61
1/17/2021 11:45:00 AM 3.05 37.49 0.104 6.93 64.09 13.54
1/17/2021 12:00:00 PM 3.09 37.562 0.104 6.95 64.07 13.54
1/17/2021 12:15:00 PM 3.13 37.634 0.104 6.95 64.11 13.5
1/17/2021 12:30:00 PM 3.17 37.706 0.104 6.93 64.1 13.53
1/17/2021 12:45:00 PM 3.22 37.796 0.104 6.93 64.14 13.49
1/17/2021 1:00:00 PM 3.26 37.868 0.104 6.92 64.18 13.45
1/17/2021 1:15:00 PM 3.3 37.94 0.104 6.93 64.24 13.46
1/17/2021 1:30:00 PM 3.34 38.012 0.104 6.93 64.27 13.46
1/17/2021 1:45:00 PM 3.37 38.066 0.103 6.93 64.25 13.43
1/17/2021 2:00:00 PM 3.41 38.138 0.103 6.92 64.36 13.43
1/17/2021 2:15:00 PM 3.44 38.192 0.103 6.93 64.33 13.44
1/17/2021 2:30:00 PM 3.47 38.246 0.103 6.94 64.26 13.4
1/17/2021 2:45:00 PM 3.48 38.264 0.103 6.93 64.31 13.38
1/17/2021 3:00:00 PM 3.5 38.3 0.103 6.94 64.35 13.37
1/17/2021 3:15:00 PM 3.49 38.282 0.103 6.92 64.37 13.39
1/17/2021 3:30:00 PM 3.49 38.282 0.103 6.94 64.39 13.4
1/17/2021 3:45:00 PM 3.49 38.282 0.103 6.93 64.47 13.39
1/17/2021 4:00:00 PM 3.48 38.264 0.103 6.92 64.45 13.39
1/17/2021 4:15:00 PM 3.46 38.228 0.103 6.92 64.42 13.41
1/17/2021 4:30:00 PM 3.44 38.192 0.102 6.93 64.45 13.37
1/17/2021 4:45:00 PM 3.42 38.156 0.103 6.93 64.48 13.4
1/17/2021 5:00:00 PM 3.4 38.12 0.103 6.95 64.52 13.4
1/17/2021 5:15:00 PM 3.38 38.084 0.103 6.84 64.5 13.42
1/17/2021 5:30:00 PM 3.36 38.048 0.103 6.94 64.6 13.41
1/17/2021 5:45:00 PM 3.34 38.012 0.103 6.94 64.59 13.42
1/17/2021 6:00:00 PM 3.32 37.976 0.103 6.95 64.59 13.43
1/17/2021 6:15:00 PM 3.29 37.922 0.103 6.97 64.56 13.44
1/17/2021 6:30:00 PM 3.27 37.886 0.103 6.92 64.53 13.46
1/17/2021 6:45:00 PM 3.24 37.832 0.103 6.96 64.56 13.44
1/17/2021 7:00:00 PM 3.22 37.796 0.103 6.96 64.5 13.46
1/17/2021 7:15:00 PM 3.2 37.76 0.103 6.98 64.5 13.46
1/17/2021 7:30:00 PM 3.18 37.724 0.103 6.96 64.54 13.49
1/17/2021 7:45:00 PM 3.15 37.67 0.103 6.89 64.48 13.49
1/17/2021 8:00:00 PM 3.14 37.652 0.103 6.97 64.59 13.48
1/17/2021 8:15:00 PM 3.12 37.616 0.103 6.97 64.6 13.48
1/17/2021 8:30:00 PM 3.1 37.58 0.103 6.98 64.55 13.5
1/17/2021 8:45:00 PM 3.09 37.562 0.103 6.99 64.56 13.49
1/17/2021 9:00:00 PM 3.08 37.544 0.103 6.99 64.54 13.49
1/17/2021 9:15:00 PM 3.06 37.508 0.104 6.95 64.53 13.51
1/17/2021 9:30:00 PM 3.05 37.49 0.104 6.97 64.57 13.52
1/17/2021 9:45:00 PM 3.03 37.454 0.104 6.99 64.56 13.5
1/17/2021 10:00:00 PM 3.03 37.454 0.104 6.99 64.53 13.52
1/17/2021 10:15:00 PM 3.01 37.418 0.104 6.98 64.47 13.53
1/17/2021 10:30:00 PM 3.01 37.418 0.104 7.01 64.56 13.5
1/17/2021 10:45:00 PM 2.99 37.382 0.104 6.94 64.52 13.53
1/17/2021 11:00:00 PM 2.98 37.364 0.104 6.98 64.59 13.54
1/17/2021 11:15:00 PM 2.97 37.346 0.104 6.94 64.49 13.53
1/17/2021 11:30:00 PM 2.97 37.346 0.104 6.96 64.43 13.53
1/17/2021 11:45:00 PM 2.96 37.328 0.104 6.94 64.47 13.53
1/18/2021 12:00:00 AM 2.95 37.31 0.105 6.95 64.43 13.52
1/18/2021 12:15:00 AM 2.95 37.31 0.104 6.93 64.43 13.53
1/18/2021 12:30:00 AM 2.94 37.292 0.104 6.92 64.53 13.54
1/18/2021 12:45:00 AM 2.92 37.256 0.104 6.97 64.55 13.54
1/18/2021 1:00:00 AM 2.89 37.202 0.104 6.94 64.43 13.56
1/18/2021 1:15:00 AM 2.86 37.148 0.104 6.94 64.45 13.57
1/18/2021 1:30:00 AM 2.83 37.094 0.104 6.9 64.43 13.58
1/18/2021 1:45:00 AM 2.81 37.058 0.105 6.94 64.42 13.59
1/18/2021 2:00:00 AM 2.78 37.004 0.104 6.86 64.54 13.6
1/18/2021 2:15:00 AM 2.76 36.968 0.104 6.95 64.6 13.6
1/18/2021 2:30:00 AM 2.74 36.932 0.104 6.92 64.56 13.63
1/18/2021 2:45:00 AM 2.72 36.896 0.104 6.92 64.56 13.62
1/18/2021 3:00:00 AM 2.69 36.842 0.104 6.93 64.57 13.65
1/18/2021 3:15:00 AM 2.66 36.788 0.104 6.91 64.56 13.64
1/18/2021 3:30:00 AM 2.64 36.752 0.104 6.92 64.56 13.65
1/18/2021 3:45:00 AM 2.63 36.734 0.104 6.93 64.49 13.65
1/18/2021 4:00:00 AM 2.63 36.734 0.104 6.93 64.54 13.66
1/18/2021 4:15:00 AM 2.63 36.734 0.104 6.93 64.53 13.65
1/18/2021 4:30:00 AM 2.64 36.752 0.104 6.97 64.51 13.65
1/18/2021 4:45:00 AM 2.65 36.77 0.104 6.96 64.54 13.64
1/18/2021 5:00:00 AM 2.65 36.77 0.104 6.91 64.49 13.63
1/18/2021 5:15:00 AM 2.66 36.788 0.104 6.95 64.46 13.63
1/18/2021 5:30:00 AM 2.66 36.788 0.104 6.91 64.47 13.62
1/18/2021 5:45:00 AM 2.65 36.77 0.104 6.93 64.41 13.64
1/18/2021 6:00:00 AM 2.65 36.77 0.104 6.89 64.44 13.64
1/18/2021 6:15:00 AM 2.64 36.752 0.104 6.9 64.38 13.62
1/18/2021 6:30:00 AM 2.64 36.752 0.104 6.93 64.36 13.65
1/18/2021 6:45:00 AM 2.65 36.77 0.104 6.95 64.31 13.63
1/18/2021 7:00:00 AM 2.65 36.77 0.104 6.96 64.3 13.64
1/18/2021 7:15:00 AM 2.64 36.752 0.104 6.95 64.31 13.63
1/18/2021 7:30:00 AM 2.64 36.752 0.104 6.95 64.3 13.63
1/18/2021 7:45:00 AM 2.63 36.734 0.104 6.94 64.34 13.64
1/18/2021 8:00:00 AM 2.63 36.734 0.104 6.93 64.32 13.65
1/18/2021 8:15:00 AM 2.64 36.752 0.104 6.93 64.32 13.64
1/18/2021 8:30:00 AM 2.66 36.788 0.104 6.93 64.29 13.66
1/18/2021 8:45:00 AM 2.69 36.842 0.104 6.95 64.29 13.63
1/18/2021 9:00:00 AM 2.71 36.878 0.104 6.96 64.28 13.64
1/18/2021 9:15:00 AM 2.76 36.968 0.105 6.95 64.26 13.61
1/18/2021 9:30:00 AM 2.8 37.04 0.105 6.95 64.29 13.62
1/18/2021 9:45:00 AM 2.84 37.112 0.105 6.97 64.33 13.61
1/18/2021 10:00:00 AM 2.91 37.238 0.105 6.96 64.45 13.6
1/18/2021 10:15:00 AM 2.95 37.31 0.105 6.94 64.57 13.58
1/18/2021 10:30:00 AM 2.99 37.382 0.105 6.95 64.63 13.56
1/18/2021 10:45:00 AM 3.04 37.472 0.105 6.96 64.72 13.54
1/18/2021 11:00:00 AM 3.09 37.562 0.105 6.93 64.74 13.51
1/18/2021 11:15:00 AM 3.14 37.652 0.105 6.96 64.76 13.5
1/18/2021 11:30:00 AM 3.22 37.796 0.105 6.96 64.96 13.48
1/18/2021 11:45:00 AM 3.28 37.904 0.105 6.98 65.06 13.45
1/18/2021 12:00:00 PM 3.33 37.994 0.106 6.99 65.07 13.43
1/18/2021 12:15:00 PM 3.39 38.102 0.106 6.98 65.07 13.42
1/18/2021 12:30:00 PM 3.45 38.21 0.106 6.96 65.24 13.39
1/18/2021 12:45:00 PM 3.49 38.282 0.106 6.99 65.23 13.38
1/18/2021 1:00:00 PM 3.57 38.426 0.106 6.99 65.58 13.35
1/18/2021 1:15:00 PM 3.56 38.408 0.106 6.98 65.19 13.32
1/18/2021 1:30:00 PM 3.59 38.462 0.106 6.98 65.14 13.3
1/18/2021 1:45:00 PM 3.58 38.444 0.106 6.97 65.16 13.28
1/18/2021 2:00:00 PM 3.52 38.336 0.106 6.96 65.02 13.3
1/18/2021 2:15:00 PM 3.46 38.228 0.106 6.98 65 13.33
1/18/2021 2:30:00 PM 3.46 38.228 0.106 6.97 65.08 13.35
1/18/2021 2:45:00 PM 3.43 38.174 0.106 6.99 65.13 13.37
1/18/2021 3:00:00 PM 3.42 38.156 0.106 7 65.16 13.36
1/18/2021 3:15:00 PM 3.41 38.138 0.106 7 65.13 13.37
1/18/2021 3:30:00 PM 3.42 38.156 0.106 7 65.04 13.37
1/18/2021 3:45:00 PM 3.44 38.192 0.106 7 65.08 13.38
1/18/2021 4:00:00 PM 3.44 38.192 0.106 7.01 65.06 13.37
1/18/2021 4:15:00 PM 3.44 38.192 0.106 7.01 65.04 13.37
1/18/2021 4:30:00 PM 3.44 38.192 0.106 7 65.07 13.37
1/18/2021 4:45:00 PM 3.43 38.174 0.106 7.01 65.09 13.37
1/18/2021 5:00:00 PM 3.4 38.12 0.106 7.01 65.03 13.37
1/18/2021 5:15:00 PM 3.37 38.066 0.106 7 64.99 13.38
1/18/2021 5:30:00 PM 3.31 37.958 0.106 6.99 64.9 13.41
1/18/2021 5:45:00 PM 3.25 37.85 0.106 7 64.88 13.42
1/18/2021 6:00:00 PM 3.21 37.778 0.106 6.99 64.86 13.45
1/18/2021 6:15:00 PM 3.15 37.67 0.105 6.99 64.83 13.46
1/18/2021 6:30:00 PM 3.1 37.58 0.106 6.99 64.74 13.48
1/18/2021 6:45:00 PM 3.05 37.49 0.105 6.99 64.7 13.5
1/18/2021 7:00:00 PM 3.01 37.418 0.105 6.99 64.7 13.52
1/18/2021 7:15:00 PM 3 37.4 0.105 7 64.64 13.54
1/18/2021 7:30:00 PM 2.99 37.382 0.105 6.97 64.58 13.53
1/18/2021 7:45:00 PM 2.97 37.346 0.105 6.98 64.57 13.55
1/18/2021 8:00:00 PM 2.95 37.31 0.105 6.99 64.51 13.55
1/18/2021 8:15:00 PM 2.94 37.292 0.105 6.99 64.53 13.55
1/18/2021 8:30:00 PM 2.93 37.274 0.105 6.98 64.52 13.57
1/18/2021 8:45:00 PM 2.92 37.256 0.106 6.99 64.53 13.58
1/18/2021 9:00:00 PM 2.9 37.22 0.105 6.98 64.51 13.59
1/18/2021 9:15:00 PM 2.9 37.22 0.106 6.99 64.42 13.59
1/18/2021 9:30:00 PM 2.89 37.202 0.106 6.98 64.44 13.6
1/18/2021 9:45:00 PM 2.87 37.166 0.106 6.99 64.56 13.59
1/18/2021 10:00:00 PM 2.85 37.13 0.105 6.98 64.48 13.61
1/18/2021 10:15:00 PM 2.84 37.112 0.105 6.98 64.47 13.62
1/18/2021 10:30:00 PM 2.83 37.094 0.106 6.98 64.49 13.62
1/18/2021 10:45:00 PM 2.82 37.076 0.105 6.98 64.52 13.62
1/18/2021 11:00:00 PM 2.83 37.094 0.105 6.98 64.52 13.63
1/18/2021 11:15:00 PM 2.82 37.076 0.105 6.98 64.49 13.63
1/18/2021 11:30:00 PM 2.82 37.076 0.105 6.98 64.53 13.62
1/18/2021 11:45:00 PM 2.82 37.076 0.105 6.98 64.56 13.64
1/19/2021 12:00:00 AM 2.81 37.058 0.105 6.98 64.51 13.63
1/19/2021 12:15:00 AM 2.8 37.04 0.106 6.98 64.49 13.63
1/19/2021 12:30:00 AM 2.78 37.004 0.105 6.98 64.53 13.64
1/19/2021 12:45:00 AM 2.78 37.004 0.105 6.98 64.56 13.62
1/19/2021 1:00:00 AM 2.75 36.95 0.105 6.98 64.5 13.65
1/19/2021 1:15:00 AM 2.73 36.914 0.105 6.98 64.48 13.67
1/19/2021 1:30:00 AM 2.73 36.914 0.105 6.97 64.49 13.67
1/19/2021 1:45:00 AM 2.71 36.878 0.105 6.97 64.48 13.66
1/19/2021 2:00:00 AM 2.7 36.86 0.105 6.97 64.49 13.68
1/19/2021 2:15:00 AM 2.7 36.86 0.105 6.98 64.51 13.69
1/19/2021 2:30:00 AM 2.7 36.86 0.105 6.98 64.46 13.69
1/19/2021 2:45:00 AM 2.7 36.86 0.106 6.98 64.45 13.69
1/19/2021 3:00:00 AM 2.7 36.86 0.106 6.98 64.52 13.68
1/19/2021 3:15:00 AM 2.7 36.86 0.105 6.98 64.56 13.67
1/19/2021 3:30:00 AM 2.7 36.86 0.106 6.98 64.51 13.68
1/19/2021 3:45:00 AM 2.7 36.86 0.106 6.98 64.5 13.68
1/19/2021 4:00:00 AM 2.7 36.86 0.105 6.98 64.51 13.68
1/19/2021 4:15:00 AM 2.68 36.824 0.105 6.98 64.53 13.68
1/19/2021 4:30:00 AM 2.67 36.806 0.105 6.97 64.55 13.7
1/19/2021 4:45:00 AM 2.65 36.77 0.105 6.98 64.53 13.7
1/19/2021 5:00:00 AM 2.64 36.752 0.106 6.98 64.54 13.73
1/19/2021 5:15:00 AM 2.63 36.734 0.106 6.97 64.55 13.72
1/19/2021 5:30:00 AM 2.63 36.734 0.106 6.97 64.54 13.72
1/19/2021 5:45:00 AM 2.62 36.716 0.105 6.97 64.56 13.73
1/19/2021 6:00:00 AM 2.61 36.698 0.106 6.98 64.58 13.74
1/19/2021 6:15:00 AM 2.6 36.68 0.105 6.98 64.55 13.74
1/19/2021 6:30:00 AM 2.59 36.662 0.105 6.98 64.53 13.75
1/19/2021 6:45:00 AM 2.58 36.644 0.105 6.99 64.5 13.77
1/19/2021 7:00:00 AM 2.57 36.626 0.105 6.99 64.47 13.76
1/19/2021 7:15:00 AM 2.56 36.608 0.105 6.98 64.48 13.77
1/19/2021 7:30:00 AM 2.55 36.59 0.105 6.99 64.48 13.76
1/19/2021 7:45:00 AM 2.54 36.572 0.105 6.98 64.45 13.78
1/19/2021 8:00:00 AM 2.53 36.554 0.106 6.98 64.46 13.79
1/19/2021 8:15:00 AM 2.53 36.554 0.106 6.99 64.47 13.79
1/19/2021 8:30:00 AM 2.55 36.59 0.106 6.99 64.55 13.79
1/19/2021 8:45:00 AM 2.57 36.626 0.106 7 64.43 13.8
1/19/2021 9:00:00 AM 2.6 36.68 0.106 6.98 64.48 13.78
1/19/2021 9:15:00 AM 2.63 36.734 0.106 6.99 64.55 13.78
1/19/2021 9:30:00 AM 2.66 36.788 0.106 7.01 64.59 13.79
1/19/2021 9:45:00 AM 2.69 36.842 0.106 6.99 64.55 13.78
1/19/2021 10:00:00 AM 2.73 36.914 0.106 7 64.58 13.78
1/19/2021 10:15:00 AM 2.79 37.022 0.105 7 64.67 13.75
1/19/2021 10:30:00 AM 2.84 37.112 0.105 6.98 64.61 13.74
1/19/2021 10:45:00 AM 2.89 37.202 0.105 7.01 64.55 13.72
1/19/2021 11:00:00 AM 2.96 37.328 0.105 6.94 64.5 13.7
1/19/2021 11:15:00 AM 3.01 37.418 0.105 7 64.52 13.66
1/19/2021 11:30:00 AM 3.06 37.508 0.105 6.99 64.56 13.66
1/19/2021 11:45:00 AM 3.12 37.616 0.105 6.97 64.56 13.63
1/19/2021 12:00:00 PM 3.15 37.67 0.105 6.98 64.52 13.61
1/19/2021 12:15:00 PM 3.18 37.724 0.105 7 64.51 13.6
1/19/2021 12:30:00 PM 3.21 37.778 0.105 6.99 64.6 13.58
1/19/2021 12:45:00 PM 3.25 37.85 0.105 6.98 64.63 13.55
1/19/2021 1:00:00 PM 3.26 37.868 0.105 6.97 64.57 13.56
1/19/2021 1:15:00 PM 3.3 37.94 0.105 6.97 64.58 13.55
1/19/2021 1:30:00 PM 3.34 38.012 0.105 6.95 64.61 13.55
1/19/2021 1:45:00 PM 3.38 38.084 0.105 6.97 64.61 13.52
1/19/2021 2:00:00 PM 3.41 38.138 0.104 6.96 64.6 13.52
1/19/2021 2:15:00 PM 3.48 38.264 0.105 6.97 64.76 13.49
1/19/2021 2:30:00 PM 3.46 38.228 0.104 6.95 64.72 13.52
1/19/2021 2:45:00 PM 3.49 38.282 0.105 6.96 64.74 13.48
1/19/2021 3:00:00 PM 3.51 38.318 0.104 6.93 64.7 13.48
1/19/2021 3:15:00 PM 3.51 38.318 0.104 6.93 64.73 13.47
1/19/2021 3:30:00 PM 3.52 38.336 0.104 6.92 64.8 13.45
1/19/2021 3:45:00 PM 3.53 38.354 0.104 6.91 64.78 13.46
1/19/2021 4:00:00 PM 3.51 38.318 0.104 6.94 64.75 13.45
1/19/2021 4:15:00 PM 3.47 38.246 0.104 6.91 64.66 13.45
1/19/2021 4:30:00 PM 3.42 38.156 0.104 6.94 64.55 13.47
1/19/2021 4:45:00 PM 3.38 38.084 0.105 6.91 64.53 13.46
1/19/2021 5:00:00 PM 3.32 37.976 0.104 6.91 64.52 13.49
1/19/2021 5:15:00 PM 3.28 37.904 0.104 6.91 64.46 13.47
1/19/2021 5:30:00 PM 3.23 37.814 0.104 6.9 64.5 13.5
1/19/2021 5:45:00 PM 3.17 37.706 0.104 6.92 64.43 13.53
1/19/2021 6:00:00 PM 3.13 37.634 0.105 6.9 64.43 13.55
1/19/2021 6:15:00 PM 3.11 37.598 0.105 6.89 64.38 13.55
1/19/2021 6:30:00 PM 3.08 37.544 0.105 6.89 64.39 13.58
1/19/2021 6:45:00 PM 3.05 37.49 0.105 6.89 64.39 13.58
1/19/2021 7:00:00 PM 3.04 37.472 0.105 6.89 64.44 13.59
1/19/2021 7:15:00 PM 3 37.4 0.105 6.89 64.42 13.61
1/19/2021 7:30:00 PM 2.97 37.346 0.105 6.91 64.61 13.61
1/19/2021 7:45:00 PM 2.95 37.31 0.105 6.9 64.68 13.61
1/19/2021 8:00:00 PM 2.93 37.274 0.106 6.9 64.54 13.63
1/19/2021 8:15:00 PM 2.92 37.256 0.106 6.84 64.56 13.62
1/19/2021 8:30:00 PM 2.89 37.202 0.106 6.88 64.53 13.63
1/19/2021 8:45:00 PM 2.87 37.166 0.106 6.89 64.5 13.65
1/19/2021 9:00:00 PM 2.87 37.166 0.105 6.88 64.5 13.65
1/19/2021 9:15:00 PM 2.84 37.112 0.105 6.89 64.42 13.66
1/19/2021 9:30:00 PM 2.82 37.076 0.105 6.89 64.46 13.67
1/19/2021 9:45:00 PM 2.8 37.04 0.105 6.89 64.41 13.66
1/19/2021 10:00:00 PM 2.77 36.986 0.105 6.89 64.44 13.66
1/19/2021 10:15:00 PM 2.76 36.968 0.105 6.88 64.37 13.69
1/19/2021 10:30:00 PM 2.75 36.95 0.105 6.89 64.34 13.67
1/19/2021 10:45:00 PM 2.73 36.914 0.105 6.89 64.41 13.68
1/19/2021 11:00:00 PM 2.72 36.896 0.105 6.88 64.56 13.69
1/19/2021 11:15:00 PM 2.71 36.878 0.105 6.88 64.51 13.68
1/19/2021 11:30:00 PM 2.7 36.86 0.105 6.88 64.5 13.68
1/19/2021 11:45:00 PM 2.69 36.842 0.105 6.89 64.51 13.67
1/20/2021 12:00:00 AM 2.68 36.824 0.105 6.88 64.5 13.68
1/20/2021 12:15:00 AM 2.67 36.806 0.105 6.88 64.46 13.69
1/20/2021 12:30:00 AM 2.67 36.806 0.105 6.88 64.46 13.67
1/20/2021 12:45:00 AM 2.64 36.752 0.105 6.88 64.53 13.69
1/20/2021 1:00:00 AM 2.65 36.77 0.105 6.88 64.53 13.67
1/20/2021 1:15:00 AM 2.64 36.752 0.105 6.88 64.48 13.69
1/20/2021 1:30:00 AM 2.63 36.734 0.105 6.87 64.45 13.68
1/20/2021 1:45:00 AM 2.62 36.716 0.105 6.88 64.38 13.68
1/20/2021 2:00:00 AM 2.63 36.734 0.105 6.87 64.3 13.68
1/20/2021 2:15:00 AM 2.62 36.716 0.105 6.88 64.32 13.68
1/20/2021 2:30:00 AM 2.62 36.716 0.105 6.87 64.26 13.68
1/20/2021 2:45:00 AM 2.62 36.716 0.105 6.88 64.26 13.67
1/20/2021 3:00:00 AM 2.62 36.716 0.105 6.89 64.28 13.65
1/20/2021 3:15:00 AM 2.62 36.716 0.105 6.87 64.28 13.67
1/20/2021 3:30:00 AM 2.64 36.752 0.106 6.87 64.38 13.67
1/20/2021 3:45:00 AM 2.66 36.788 0.106 6.87 64.34 13.65
1/20/2021 4:00:00 AM 2.65 36.77 0.106 6.87 64.32 13.66
1/20/2021 4:15:00 AM 2.64 36.752 0.106 6.87 64.34 13.65
1/20/2021 4:30:00 AM 2.64 36.752 0.106 6.88 64.36 13.65
1/20/2021 4:45:00 AM 2.63 36.734 0.106 6.87 64.28 13.66
1/20/2021 5:00:00 AM 2.64 36.752 0.106 6.88 64.29 13.64
1/20/2021 5:15:00 AM 2.64 36.752 0.106 6.87 64.23 13.64
1/20/2021 5:30:00 AM 2.62 36.716 0.106 6.88 64.25 13.66
1/20/2021 5:45:00 AM 2.63 36.734 0.106 6.88 64.25 13.65
1/20/2021 6:00:00 AM 2.63 36.734 0.106 6.87 64.3 13.65
1/20/2021 6:15:00 AM 2.63 36.734 0.106 6.87 64.31 13.64
1/20/2021 6:30:00 AM 2.62 36.716 0.106 6.9 64.27 13.63
1/20/2021 6:45:00 AM 2.61 36.698 0.105 6.88 64.22 13.63
1/20/2021 7:00:00 AM 2.6 36.68 0.106 6.88 64.27 13.65
1/20/2021 7:15:00 AM 2.59 36.662 0.105 6.87 64.28 13.65
1/20/2021 7:30:00 AM 2.57 36.626 0.105 6.89 64.28 13.67
1/20/2021 7:45:00 AM 2.5 36.5 0.105 6.85 64.22 13.68
1/20/2021 8:00:00 AM 2.5 36.5 0.105 6.87 64.22 13.72
1/20/2021 8:15:00 AM 2.5 36.5 0.105 6.88 64.24 13.73
1/20/2021 8:30:00 AM 2.5 36.5 0.105 6.87 64.19 13.74
1/20/2021 8:45:00 AM 2.51 36.518 0.106 6.88 64.12 13.77
1/20/2021 9:00:00 AM 2.48 36.464 0.106 6.88 64.15 13.8
1/20/2021 9:15:00 AM 2.46 36.428 0.105 6.88 64.07 13.8
1/20/2021 9:30:00 AM 2.48 36.464 0.105 6.88 64.14 13.8
1/20/2021 9:45:00 AM 2.48 36.464 0.106 6.89 64.11 13.81
1/20/2021 10:00:00 AM 2.49 36.482 0.106 6.88 64.12 13.83
1/20/2021 10:15:00 AM 2.5 36.5 0.106 6.89 64.14 13.8
1/20/2021 10:30:00 AM 2.51 36.518 0.106 6.89 64.11 13.82
1/20/2021 10:45:00 AM 2.54 36.572 0.106 6.91 64.16 13.84
1/20/2021 11:00:00 AM 2.59 36.662 0.106 6.87 64.08 13.83
1/20/2021 11:15:00 AM 2.57 36.626 0.106 6.91 64.04 13.83
1/20/2021 11:30:00 AM 2.64 36.752 0.106 6.84 64.11 13.81
1/20/2021 11:45:00 AM 2.67 36.806 0.106 6.9 64.1 13.79
1/20/2021 12:00:00 PM 2.61 36.698 0.106 6.9 64.21 13.81
1/20/2021 12:15:00 PM 2.58 36.644 0.106 6.9 64.13 13.81
1/20/2021 12:30:00 PM 2.58 36.644 0.106 6.9 64.03 13.82
1/20/2021 12:45:00 PM 2.62 36.716 0.106 6.9 64.13 13.8
1/20/2021 1:00:00 PM 2.65 36.77 0.106 6.89 64.11 13.78
1/20/2021 1:15:00 PM 2.66 36.788 0.106 6.9 64.03 13.78
1/20/2021 1:30:00 PM 2.65 36.77 0.105 6.9 64.03 13.79
1/20/2021 1:45:00 PM 2.67 36.806 0.105 6.9 64.08 13.79
1/20/2021 2:00:00 PM 2.68 36.824 0.105 6.9 64.07 13.79
1/20/2021 2:15:00 PM 2.64 36.752 0.105 6.9 64.12 13.75
1/20/2021 2:30:00 PM 2.62 36.716 0.105 6.91 64.14 13.79
1/20/2021 2:45:00 PM 2.61 36.698 0.105 6.91 64.12 13.79
1/20/2021 3:00:00 PM 2.57 36.626 0.105 6.91 64.08 13.82
1/20/2021 3:15:00 PM 2.57 36.626 0.105 6.9 64.1 13.82
1/20/2021 3:30:00 PM 2.58 36.644 0.105 6.91 64.14 13.83
1/20/2021 3:45:00 PM 2.56 36.608 0.105 6.91 64.06 13.82
1/20/2021 4:00:00 PM 2.53 36.554 0.105 6.91 64.02 13.83
1/20/2021 4:15:00 PM 2.51 36.518 0.105 6.91 64.06 13.84
1/20/2021 4:30:00 PM 2.5 36.5 0.105 6.91 64.13 13.82
1/20/2021 4:45:00 PM 2.47 36.446 0.105 6.93 64.04 13.83
1/20/2021 5:00:00 PM 2.4 36.32 0.105 6.93 64.06 13.83
1/20/2021 5:15:00 PM 2.36 36.248 0.105 6.89 64.1 13.83
1/20/2021 5:30:00 PM 2.3 36.14 0.105 6.91 64.07 13.82
1/20/2021 5:45:00 PM 2.25 36.05 0.105 6.91 64.1 13.85
1/20/2021 6:00:00 PM 2.2 35.96 0.105 6.91 64.1 13.87
1/20/2021 6:15:00 PM 2.18 35.924 0.106 6.9 64.14 13.89
1/20/2021 6:30:00 PM 2.11 35.798 0.105 6.91 64.24 13.9
1/20/2021 6:45:00 PM 2.07 35.726 0.105 6.9 64.19 13.93
1/20/2021 7:00:00 PM 2.04 35.672 0.105 6.91 64.29 13.94
1/20/2021 7:15:00 PM 2 35.6 0.105 6.91 64.22 13.96
1/20/2021 7:30:00 PM 1.99 35.582 0.105 6.91 64.2 13.96
1/20/2021 7:45:00 PM 1.94 35.492 0.105 6.91 64.28 13.96
1/20/2021 8:00:00 PM 1.91 35.438 0.105 6.91 64.26 13.98
1/20/2021 8:15:00 PM 1.89 35.402 0.105 6.91 64.29 13.99
1/20/2021 8:30:00 PM 1.85 35.33 0.107 6.91 64.33 14.01
1/20/2021 8:45:00 PM 1.86 35.348 0.107 6.91 64.33 13.99
1/20/2021 9:00:00 PM 1.83 35.294 0.107 6.91 64.3 14.02
1/20/2021 9:15:00 PM 1.81 35.258 0.107 6.91 64.3 14.03
1/20/2021 9:30:00 PM 1.78 35.204 0.107 6.91 64.31 14.02
1/20/2021 9:45:00 PM 1.77 35.186 0.107 6.92 64.31 14.05
1/20/2021 10:00:00 PM 1.75 35.15 0.107 6.91 64.3 14.06
1/20/2021 10:15:00 PM 1.74 35.132 0.107 6.92 64.33 14.07
1/20/2021 10:30:00 PM 1.7 35.06 0.107 6.92 64.31 14.09
1/20/2021 10:45:00 PM 1.7 35.06 0.107 6.92 64.36 14.09
1/20/2021 11:00:00 PM 1.66 34.988 0.107 6.92 64.33 14.08
1/20/2021 11:15:00 PM 1.62 34.916 0.107 6.92 64.37 14.1
1/20/2021 11:30:00 PM 1.59 34.862 0.107 6.91 64.35 14.11
1/20/2021 11:45:00 PM 1.57 34.826 0.107 6.92 64.34 14.12
1/21/2021 12:00:00 AM 1.54 34.772 0.107 6.92 64.37 14.13
1/21/2021 12:15:00 AM 1.49 34.682 0.107 6.92 64.35 14.16
1/21/2021 12:30:00 AM 1.46 34.628 0.107 6.91 64.31 14.15
1/21/2021 12:45:00 AM 1.41 34.538 0.107 6.92 64.28 14.16
1/21/2021 1:00:00 AM 1.38 34.484 0.107 6.92 64.23 14.16
1/21/2021 1:15:00 AM 1.33 34.394 0.107 6.92 64.33 14.16
1/21/2021 1:30:00 AM 1.26 34.268 0.107 6.93 64.3 14.2
1/21/2021 1:45:00 AM 1.25 34.25 0.107 6.92 64.25 14.22
1/21/2021 2:00:00 AM 1.21 34.178 0.107 6.92 64.29 14.22
1/21/2021 2:15:00 AM 1.19 34.142 0.107 6.92 64.31 14.24
1/21/2021 2:30:00 AM 1.14 34.052 0.107 6.93 64.37 14.24
1/21/2021 2:45:00 AM 1.12 34.016 0.108 6.9 64.35 14.24
1/21/2021 3:00:00 AM 1.06 33.908 0.107 6.93 64.41 14.28
1/21/2021 3:15:00 AM 1.03 33.854 0.108 6.91 64.38 14.29
1/21/2021 3:30:00 AM 0.99 33.782 0.107 6.92 64.43 14.29
1/21/2021 3:45:00 AM 0.95 33.71 0.108 6.92 64.47 14.3
1/21/2021 4:00:00 AM 0.92 33.656 0.108 6.93 64.51 14.31
1/21/2021 4:15:00 AM 0.89 33.602 0.107 6.93 64.56 14.33
1/21/2021 4:30:00 AM 0.88 33.584 0.108 6.93 64.58 14.31
1/21/2021 4:45:00 AM 0.87 33.566 0.108 6.93 64.6 14.33
1/21/2021 5:00:00 AM 0.81 33.458 0.107 6.93 64.57 14.35
1/21/2021 5:15:00 AM 0.8 33.44 0.108 6.93 64.61 14.36
1/21/2021 5:30:00 AM 0.82 33.476 0.108 6.92 64.62 14.32
1/21/2021 5:45:00 AM 0.83 33.494 0.108 6.92 64.62 14.31
1/21/2021 6:00:00 AM 0.84 33.512 0.108 6.92 64.67 14.31
1/21/2021 6:15:00 AM 0.85 33.53 0.108 6.93 64.65 14.33
1/21/2021 6:30:00 AM 0.88 33.584 0.108 6.92 64.65 14.31
1/21/2021 6:45:00 AM 0.88 33.584 0.108 6.92 64.68 14.28
1/21/2021 7:00:00 AM 0.9 33.62 0.108 6.92 64.77 14.28
1/21/2021 7:15:00 AM 0.92 33.656 0.108 6.92 64.7 14.28
1/21/2021 7:30:00 AM 0.96 33.728 0.108 6.93 64.69 14.24
1/21/2021 7:45:00 AM 0.97 33.746 0.108 6.93 64.72 14.24
1/21/2021 8:00:00 AM 1.01 33.818 0.108 6.94 64.72 14.25
1/21/2021 8:15:00 AM 1.05 33.89 0.108 6.93 64.72 14.24
1/21/2021 8:30:00 AM 1.06 33.908 0.107 6.94 64.74 14.25
1/21/2021 8:45:00 AM 1.1 33.98 0.108 6.94 64.73 14.23
1/21/2021 9:00:00 AM 1.11 33.998 0.107 6.94 64.72 14.26
1/21/2021 9:15:00 AM 1.16 34.088 0.108 6.94 64.77 14.25
1/21/2021 9:30:00 AM 1.21 34.178 0.107 6.94 64.76 14.22
1/21/2021 9:45:00 AM 1.26 34.268 0.108 6.94 64.79 14.2
1/21/2021 10:00:00 AM 1.31 34.358 0.107 6.94 64.72 14.16
1/21/2021 10:15:00 AM 1.37 34.466 0.107 6.96 64.71 14.16
1/21/2021 10:30:00 AM 1.43 34.574 0.108 6.93 64.68 14.14
1/21/2021 10:45:00 AM 1.49 34.682 0.107 6.95 64.64 14.11
1/21/2021 11:00:00 AM 1.56 34.808 0.107 6.96 64.64 14.11
1/21/2021 11:15:00 AM 1.65 34.97 0.107 6.97 64.66 14.07
1/21/2021 11:30:00 AM 1.73 35.114 0.107 6.98 64.65 14.03
1/21/2021 11:45:00 AM 1.8 35.24 0.107 6.88 64.62 13.99
1/21/2021 12:00:00 PM 1.87 35.366 0.107 6.97 64.58 13.96
1/21/2021 12:15:00 PM 1.97 35.546 0.107 6.98 64.61 13.92
1/21/2021 12:30:00 PM 2.05 35.69 0.107 6.98 64.55 13.89
1/21/2021 12:45:00 PM 2.18 35.924 0.107 6.96 64.51 13.88
1/21/2021 1:00:00 PM 2.3 36.14 0.107 6.95 64.55 13.83
1/21/2021 1:15:00 PM 2.38 36.284 0.107 6.89 64.52 13.77
1/21/2021 1:30:00 PM 2.42 36.356 0.107 6.96 64.52 13.74
1/21/2021 1:45:00 PM 2.5 36.5 0.107 6.97 64.6 13.72
1/21/2021 2:00:00 PM 2.57 36.626 0.107 6.96 64.57 13.68
1/21/2021 2:15:00 PM 2.64 36.752 0.107 6.96 64.89 13.64
1/21/2021 2:30:00 PM 2.68 36.824 0.107 6.96 64.92 13.62
1/21/2021 2:45:00 PM 2.72 36.896 0.107 6.96 64.96 13.59
1/21/2021 3:00:00 PM 2.77 36.986 0.107 6.96 65.03 13.58
1/21/2021 3:15:00 PM 2.85 37.13 0.107 6.96 65.25 13.54
1/21/2021 3:30:00 PM 2.89 37.202 0.107 6.96 65.34 13.49
1/21/2021 3:45:00 PM 2.89 37.202 0.107 6.96 65.4 13.5
1/21/2021 4:00:00 PM 2.9 37.22 0.107 6.96 65.31 13.47
1/21/2021 4:15:00 PM 2.88 37.184 0.107 6.96 65.26 13.48
1/21/2021 4:30:00 PM 2.85 37.13 0.107 6.96 65.09 13.47
1/21/2021 4:45:00 PM 2.83 37.094 0.107 6.95 65.04 13.46
1/21/2021 5:00:00 PM 2.77 36.986 0.107 6.95 65 13.49
1/21/2021 5:15:00 PM 2.71 36.878 0.107 6.94 64.93 13.49
1/21/2021 5:30:00 PM 2.64 36.752 0.107 6.94 64.9 13.51
1/21/2021 5:45:00 PM 2.58 36.644 0.107 6.94 64.95 13.52
1/21/2021 6:00:00 PM 2.52 36.536 0.107 6.93 64.87 13.56
1/21/2021 6:15:00 PM 2.45 36.41 0.107 6.93 64.89 13.55
1/21/2021 6:30:00 PM 2.41 36.338 0.107 6.93 64.77 13.58
1/21/2021 6:45:00 PM 2.36 36.248 0.107 6.93 64.73 13.6
1/21/2021 7:00:00 PM 2.31 36.158 0.107 6.93 64.74 13.59
1/21/2021 7:15:00 PM 2.27 36.086 0.107 6.93 64.69 13.63
1/21/2021 7:30:00 PM 2.25 36.05 0.107 6.92 64.73 13.64
1/21/2021 7:45:00 PM 2.25 36.05 0.107 6.92 64.75 13.66
1/21/2021 8:00:00 PM 2.23 36.014 0.107 6.92 64.72 13.67
1/21/2021 8:15:00 PM 2.25 36.05 0.107 6.93 64.71 13.65
1/21/2021 8:30:00 PM 2.25 36.05 0.107 6.93 64.73 13.65
1/21/2021 8:45:00 PM 2.25 36.05 0.107 6.93 64.66 13.64
1/21/2021 9:00:00 PM 2.26 36.068 0.107 6.93 64.7 13.64
1/21/2021 9:15:00 PM 2.27 36.086 0.107 6.93 64.67 13.63
1/21/2021 9:30:00 PM 2.25 36.05 0.107 6.91 64.61 13.65
1/21/2021 9:45:00 PM 2.26 36.068 0.107 6.95 64.61 13.63
1/21/2021 10:00:00 PM 2.28 36.104 0.107 6.91 64.65 13.63
1/21/2021 10:15:00 PM 2.27 36.086 0.107 6.93 64.61 13.65
1/21/2021 10:30:00 PM 2.26 36.068 0.107 6.94 64.64 13.63
1/21/2021 10:45:00 PM 2.24 36.032 0.108 6.87 64.64 13.65
1/21/2021 11:00:00 PM 2.22 35.996 0.108 6.93 64.62 13.64
1/21/2021 11:15:00 PM 2.23 36.014 0.108 6.95 64.65 13.63
1/21/2021 11:30:00 PM 2.23 36.014 0.108 6.95 64.63 13.65
1/21/2021 11:45:00 PM 2.23 36.014 0.108 6.94 64.67 13.64
1/22/2021 12:00:00 AM 2.23 36.014 0.108 6.92 64.66 13.65
1/22/2021 12:15:00 AM 2.24 36.032 0.108 6.94 64.74 13.67
1/22/2021 12:30:00 AM 2.23 36.014 0.108 6.93 64.7 13.65
1/22/2021 12:45:00 AM 2.23 36.014 0.108 6.93 64.69 13.65
1/22/2021 1:00:00 AM 2.24 36.032 0.108 6.93 64.7 13.64
1/22/2021 1:15:00 AM 2.26 36.068 0.108 6.93 64.69 13.65
1/22/2021 1:30:00 AM 2.25 36.05 0.108 6.92 64.61 13.66
1/22/2021 1:45:00 AM 2.22 35.996 0.108 6.93 64.57 13.68
1/22/2021 2:00:00 AM 2.22 35.996 0.108 6.94 64.61 13.66
1/22/2021 2:15:00 AM 2.24 36.032 0.108 6.9 64.63 13.66
1/22/2021 2:30:00 AM 2.24 36.032 0.108 6.93 64.69 13.65
1/22/2021 2:45:00 AM 2.23 36.014 0.108 6.93 64.61 13.65
1/22/2021 3:00:00 AM 2.23 36.014 0.108 6.92 64.58 13.65
1/22/2021 3:15:00 AM 2.22 35.996 0.108 6.92 64.67 13.69
1/22/2021 3:30:00 AM 2.22 35.996 0.108 6.93 64.69 13.69
1/22/2021 3:45:00 AM 2.23 36.014 0.108 6.92 64.69 13.66
1/22/2021 4:00:00 AM 2.2 35.96 0.108 6.93 64.68 13.67
1/22/2021 4:15:00 AM 2.19 35.942 0.108 6.92 64.64 13.67
1/22/2021 4:30:00 AM 2.19 35.942 0.108 6.92 64.59 13.68
1/22/2021 4:45:00 AM 2.2 35.96 0.108 6.92 64.61 13.69
1/22/2021 5:00:00 AM 2.2 35.96 0.108 6.92 64.67 13.68
1/22/2021 5:15:00 AM 2.22 35.996 0.108 6.92 64.58 13.67
1/22/2021 5:30:00 AM 2.23 36.014 0.108 6.92 64.52 13.67
1/22/2021 5:45:00 AM 2.24 36.032 0.108 6.91 64.57 13.66
1/22/2021 6:00:00 AM 2.23 36.014 0.108 6.92 64.6 13.64
1/22/2021 6:15:00 AM 2.27 36.086 0.109 6.93 64.57 13.64
1/22/2021 6:30:00 AM 2.26 36.068 0.108 6.91 64.55 13.65
1/22/2021 6:45:00 AM 2.28 36.104 0.108 6.91 64.58 13.65
1/22/2021 7:00:00 AM 2.28 36.104 0.108 6.92 64.57 13.64
1/22/2021 7:15:00 AM 2.29 36.122 0.108 6.9 64.54 13.65
1/22/2021 7:30:00 AM 2.3 36.14 0.108 6.92 64.56 13.65
1/22/2021 7:45:00 AM 2.32 36.176 0.108 6.91 64.6 13.65
1/22/2021 8:00:00 AM 2.31 36.158 0.108 6.92 64.75 13.67
1/22/2021 8:15:00 AM 2.33 36.194 0.108 6.91 64.72 13.68
1/22/2021 8:30:00 AM 2.36 36.248 0.109 6.92 64.79 13.68
1/22/2021 8:45:00 AM 2.37 36.266 0.108 6.92 64.81 13.68
1/22/2021 9:00:00 AM 2.39 36.302 0.108 6.93 64.83 13.69
1/22/2021 9:15:00 AM 2.42 36.356 0.108 6.91 64.82 13.7
1/22/2021 9:30:00 AM 2.46 36.428 0.108 6.95 64.87 13.7
1/22/2021 9:45:00 AM 2.51 36.518 0.108 6.94 64.88 13.71
1/22/2021 10:00:00 AM 2.55 36.59 0.108 6.93 64.88 13.69
1/22/2021 10:15:00 AM 2.6 36.68 0.108 6.92 64.91 13.69
1/22/2021 10:30:00 AM 2.67 36.806 0.108 6.91 64.96 13.68
1/22/2021 10:45:00 AM 2.73 36.914 0.109 6.92 64.94 13.66
1/22/2021 11:00:00 AM 2.79 37.022 0.108 6.92 65.15 13.64
1/22/2021 11:15:00 AM 2.81 37.058 0.108 6.93 65.1 13.61
1/22/2021 11:30:00 AM 2.89 37.202 0.108 6.93 65.18 13.59
1/22/2021 11:45:00 AM 3.01 37.418 0.108 6.92 65.23 13.57
1/22/2021 12:00:00 PM 3.08 37.544 0.108 6.92 65.44 13.54
1/22/2021 12:15:00 PM 3.12 37.616 0.108 6.92 65.53 13.51
1/22/2021 12:30:00 PM 3.21 37.778 0.108 6.92 65.71 13.47
1/22/2021 12:45:00 PM 3.22 37.796 0.109 6.9 65.69 13.45
1/22/2021 1:00:00 PM 3.27 37.886 0.108 6.91 65.73 13.45
1/22/2021 1:15:00 PM 3.25 37.85 0.108 6.91 65.74 13.42
1/22/2021 1:30:00 PM 3.26 37.868 0.108 6.91 65.73 13.41
1/22/2021 1:45:00 PM 3.28 37.904 0.108 6.91 65.69 13.41
1/22/2021 2:00:00 PM 3.28 37.904 0.108 6.91 65.75 13.39
1/22/2021 2:15:00 PM 3.26 37.868 0.108 6.91 65.72 13.4
1/22/2021 2:30:00 PM 3.27 37.886 0.108 6.9 65.72 13.41
1/22/2021 2:45:00 PM 3.26 37.868 0.108 6.91 65.76 13.41
1/22/2021 3:00:00 PM 3.26 37.868 0.108 6.9 65.74 13.43
1/22/2021 3:15:00 PM 3.23 37.814 0.108 6.91 65.68 13.42
1/22/2021 3:30:00 PM 3.22 37.796 0.108 6.91 65.69 13.44
1/22/2021 3:45:00 PM 3.2 37.76 0.108 6.91 65.67 13.44
1/22/2021 4:00:00 PM 3.21 37.778 0.108 6.91 65.59 13.46
1/22/2021 4:15:00 PM 3.19 37.742 0.108 6.9 65.55 13.42
1/22/2021 4:30:00 PM 3.17 37.706 0.108 6.9 65.6 13.4
1/22/2021 4:45:00 PM 3.17 37.706 0.108 6.89 65.61 13.4
1/22/2021 5:00:00 PM 3.13 37.634 0.108 6.9 65.61 13.41
1/22/2021 5:15:00 PM 3.06 37.508 0.108 6.9 65.61 13.43
1/22/2021 5:30:00 PM 3.03 37.454 0.108 6.9 65.72 13.42
1/22/2021 5:45:00 PM 2.98 37.364 0.108 6.9 65.68 13.45
1/22/2021 6:00:00 PM 2.91 37.238 0.108 6.9 65.57 13.46
1/22/2021 6:15:00 PM 2.89 37.202 0.108 6.92 65.54 13.47
1/22/2021 6:30:00 PM 2.85 37.13 0.108 6.91 65.57 13.49
1/22/2021 6:45:00 PM 2.81 37.058 0.108 6.89 65.63 13.52
1/22/2021 7:00:00 PM 2.78 37.004 0.109 6.9 65.58 13.53
1/22/2021 7:15:00 PM 2.74 36.932 0.109 6.89 65.51 13.55
1/22/2021 7:30:00 PM 2.72 36.896 0.109 6.9 65.47 13.55
1/22/2021 7:45:00 PM 2.67 36.806 0.109 6.9 65.27 13.56
1/22/2021 8:00:00 PM 2.62 36.716 0.109 6.89 65.25 13.59
1/22/2021 8:15:00 PM 2.59 36.662 0.109 6.89 65.1 13.61
1/22/2021 8:30:00 PM 2.56 36.608 0.109 6.9 65.07 13.63
1/22/2021 8:45:00 PM 2.52 36.536 0.109 6.9 65.02 13.62
1/22/2021 9:00:00 PM 2.48 36.464 0.109 6.9 65 13.64
1/22/2021 9:15:00 PM 2.42 36.356 0.109 6.9 64.92 13.67
1/22/2021 9:30:00 PM 2.39 36.302 0.109 6.89 64.87 13.7
1/22/2021 9:45:00 PM 2.37 36.266 0.109 6.89 64.88 13.71
1/22/2021 10:00:00 PM 2.32 36.176 0.109 6.9 64.88 13.72
1/22/2021 10:15:00 PM 2.28 36.104 0.109 6.89 64.68 13.74
1/22/2021 10:30:00 PM 2.22 35.996 0.109 6.89 64.56 13.75
1/22/2021 10:45:00 PM 2.16 35.888 0.109 6.89 64.49 13.8
1/22/2021 11:00:00 PM 2.1 35.78 0.109 6.89 64.52 13.82
1/22/2021 11:15:00 PM 2.04 35.672 0.109 6.89 64.5 13.85
1/22/2021 11:30:00 PM 2 35.6 0.109 6.9 64.45 13.83
1/22/2021 11:45:00 PM 1.95 35.51 0.109 6.9 64.28 13.9
1/23/2021 12:00:00 AM 1.89 35.402 0.109 6.89 64.22 13.91
1/23/2021 12:15:00 AM 1.86 35.348 0.109 6.9 64.21 13.91
1/23/2021 12:30:00 AM 1.8 35.24 0.109 6.89 64.26 13.97
1/23/2021 12:45:00 AM 1.76 35.168 0.109 6.9 64.28 13.96
1/23/2021 1:00:00 AM 1.71 35.078 0.109 6.9 64.24 13.98
1/23/2021 1:15:00 AM 1.68 35.024 0.109 6.9 64.22 13.98
1/23/2021 1:30:00 AM 1.61 34.898 0.109 6.86 64.24 14.02
1/23/2021 1:45:00 AM 1.56 34.808 0.109 6.9 64.27 14.04
1/23/2021 2:00:00 AM 1.52 34.736 0.109 6.9 64.3 14.07
1/23/2021 2:15:00 AM 1.45 34.61 0.11 6.89 64.34 14.09
1/23/2021 2:30:00 AM 1.34 34.412 0.109 6.91 64.38 14.13
1/23/2021 2:45:00 AM 1.29 34.322 0.11 6.89 64.3 14.15
1/23/2021 3:00:00 AM 1.26 34.268 0.11 6.9 64.33 14.15
1/23/2021 3:15:00 AM 1.22 34.196 0.11 6.89 64.31 14.21
1/23/2021 3:30:00 AM 1.14 34.052 0.11 6.9 64.34 14.23
1/23/2021 3:45:00 AM 1.08 33.944 0.11 6.9 64.33 14.27
1/23/2021 4:00:00 AM 1.05 33.89 0.11 6.9 64.35 14.27
1/23/2021 4:15:00 AM 1.01 33.818 0.11 6.9 64.35 14.28
1/23/2021 4:30:00 AM 0.98 33.764 0.11 6.91 64.39 14.3
1/23/2021 4:45:00 AM 0.92 33.656 0.11 6.89 64.73 14.33
1/23/2021 5:00:00 AM 0.89 33.602 0.11 6.89 64.54 14.32
1/23/2021 5:15:00 AM 0.82 33.476 0.11 6.9 64.54 14.37
1/23/2021 5:30:00 AM 0.81 33.458 0.11 6.89 64.54 14.39
1/23/2021 5:45:00 AM 0.76 33.368 0.11 6.9 64.56 14.4
1/23/2021 6:00:00 AM 0.72 33.296 0.11 6.91 64.61 14.39
1/23/2021 6:15:00 AM 0.69 33.242 0.11 6.92 64.57 14.43
1/23/2021 6:30:00 AM 0.65 33.17 0.11 6.91 64.55 14.42
1/23/2021 6:45:00 AM 0.63 33.134 0.11 6.91 64.58 14.45
1/23/2021 7:00:00 AM 0.61 33.098 0.11 6.91 64.65 14.47
1/23/2021 7:15:00 AM 0.56 33.008 0.11 6.91 64.48 14.49
1/23/2021 7:30:00 AM 0.53 32.954 0.11 6.88 64.52 14.52
1/23/2021 7:45:00 AM 0.51 32.918 0.11 6.91 64.47 14.54
1/23/2021 8:00:00 AM 0.5 32.9 0.11 6.9 64.42 14.58
1/23/2021 8:15:00 AM 0.51 32.918 0.11 6.9 64.44 14.58
1/23/2021 8:30:00 AM 0.51 32.918 0.11 6.91 64.35 14.64
1/23/2021 8:45:00 AM 0.51 32.918 0.11 6.91 64.38 14.64
1/23/2021 9:00:00 AM 0.51 32.918 0.11 6.91 64.33 14.65
1/23/2021 9:15:00 AM 0.54 32.972 0.11 6.91 64.27 14.65
1/23/2021 9:30:00 AM 0.54 32.972 0.11 6.91 64.37 14.67
1/23/2021 9:45:00 AM 0.56 33.008 0.11 6.92 64.42 14.68
1/23/2021 10:00:00 AM 0.59 33.062 0.11 6.91 64.49 14.7
1/23/2021 10:15:00 AM 0.7 33.26 0.11 6.91 64.47 14.66
1/23/2021 10:30:00 AM 0.67 33.206 0.11 6.92 64.43 14.69
1/23/2021 10:45:00 AM 0.69 33.242 0.11 6.93 64.44 14.67
1/23/2021 11:00:00 AM 0.69 33.242 0.11 6.93 64.44 14.67
1/23/2021 11:15:00 AM 0.81 33.458 0.11 6.92 64.45 14.65
1/23/2021 11:30:00 AM 0.83 33.494 0.11 6.93 64.35 14.63
1/23/2021 11:45:00 AM 0.87 33.566 0.11 6.94 64.4 14.6
1/23/2021 12:00:00 PM 0.89 33.602 0.11 6.93 64.46 14.61
1/23/2021 12:15:00 PM 0.94 33.692 0.11 6.93 64.46 14.57
1/23/2021 12:30:00 PM 1.03 33.854 0.11 6.94 64.47 14.54
1/23/2021 12:45:00 PM 1.04 33.872 0.109 6.94 64.39 14.53
1/23/2021 1:00:00 PM 1.05 33.89 0.109 6.95 64.29 14.53
1/23/2021 1:15:00 PM 1.15 34.07 0.109 6.94 64.41 14.49
1/23/2021 1:30:00 PM 1.19 34.142 0.109 6.94 64.4 14.48
1/23/2021 1:45:00 PM 1.21 34.178 0.109 6.94 64.45 14.46
1/23/2021 2:00:00 PM 1.28 34.304 0.109 6.94 64.33 14.44
1/23/2021 2:15:00 PM 1.35 34.43 0.109 6.92 64.39 14.41
1/23/2021 2:30:00 PM 1.34 34.412 0.109 6.93 64.44 14.41
1/23/2021 2:45:00 PM 1.31 34.358 0.109 6.93 64.5 14.41
1/23/2021 3:00:00 PM 1.26 34.268 0.109 6.94 64.6 14.4
1/23/2021 3:15:00 PM 1.23 34.214 0.109 6.94 64.47 14.39
1/23/2021 3:30:00 PM 1.17 34.106 0.109 6.95 64.45 14.42
1/23/2021 3:45:00 PM 1.15 34.07 0.109 6.95 64.39 14.42
1/23/2021 4:00:00 PM 1.12 34.016 0.109 6.93 64.45 14.39
1/23/2021 4:15:00 PM 1.11 33.998 0.109 6.93 64.36 14.44
1/23/2021 4:30:00 PM 1.11 33.998 0.109 6.94 64.37 14.41
1/23/2021 4:45:00 PM 1.09 33.962 0.109 6.95 64.34 14.42
1/23/2021 5:00:00 PM 1.06 33.908 0.109 6.91 64.37 14.4
1/23/2021 5:15:00 PM 1.03 33.854 0.11 6.93 64.4 14.43
1/23/2021 5:30:00 PM 0.96 33.728 0.109 6.93 64.37 14.43
1/23/2021 5:45:00 PM 0.9 33.62 0.11 6.94 64.34 14.44
1/23/2021 6:00:00 PM 0.84 33.512 0.11 6.93 64.38 14.46
1/23/2021 6:15:00 PM 0.79 33.422 0.11 6.93 64.31 14.5
1/23/2021 6:30:00 PM 0.76 33.368 0.11 6.93 64.33 14.48
1/23/2021 6:45:00 PM 0.69 33.242 0.11 6.93 64.36 14.51
1/23/2021 7:00:00 PM 0.65 33.17 0.11 6.92 64.39 14.51
1/23/2021 7:15:00 PM 0.6 33.08 0.11 6.92 64.32 14.55
1/23/2021 7:30:00 PM 0.56 33.008 0.11 6.93 64.32 14.55
1/23/2021 7:45:00 PM 0.53 32.954 0.11 6.92 64.31 14.58
1/23/2021 8:00:00 PM 0.53 32.954 0.11 6.92 64.39 14.6
1/23/2021 8:15:00 PM 0.52 32.936 0.11 6.92 64.37 14.6
1/23/2021 8:30:00 PM 0.51 32.918 0.11 6.92 64.35 14.6
1/23/2021 8:45:00 PM 0.48 32.864 0.11 6.93 64.36 14.62
1/23/2021 9:00:00 PM 0.46 32.828 0.11 6.93 64.29 14.62
1/23/2021 9:15:00 PM 0.48 32.864 0.11 6.95 64.33 14.6
1/23/2021 9:30:00 PM 0.46 32.828 0.11 6.94 64.33 14.63
1/23/2021 9:45:00 PM 0.42 32.756 0.11 6.93 64.31 14.64
1/23/2021 10:00:00 PM 0.42 32.756 0.11 6.87 64.33 14.65
1/23/2021 10:15:00 PM 0.41 32.738 0.11 6.95 64.36 14.65
1/23/2021 10:30:00 PM 0.4 32.72 0.11 6.95 64.34 14.66
1/23/2021 10:45:00 PM 0.39 32.702 0.11 6.94 64.39 14.64
1/23/2021 11:00:00 PM 0.38 32.684 0.11 6.94 64.38 14.65
1/23/2021 11:15:00 PM 0.36 32.648 0.11 6.92 64.37 14.68
1/23/2021 11:30:00 PM 0.35 32.63 0.111 6.91 64.4 14.66
1/23/2021 11:45:00 PM 0.3 32.54 0.111 6.87 64.34 14.69
1/24/2021 12:00:00 AM 0.31 32.558 0.111 6.94 64.28 14.69
1/24/2021 12:15:00 AM 0.28 32.504 0.111 6.87 64.26 14.71
1/24/2021 12:30:00 AM 0.25 32.45 0.111 6.92 64.28 14.7
1/24/2021 12:45:00 AM 0.22 32.396 0.111 6.93 64.27 14.71
1/24/2021 1:00:00 AM 0.2 32.36 0.111 6.91 64.23 14.71
1/24/2021 1:15:00 AM 0.17 32.306 0.111 6.92 64.18 14.75
1/24/2021 1:30:00 AM 0.16 32.288 0.111 6.92 64.2 14.75
1/24/2021 1:45:00 AM 0.15 32.27 0.111 6.93 64.28 14.75
1/24/2021 2:00:00 AM 0.15 32.27 0.111 6.93 64.21 14.77
1/24/2021 2:15:00 AM 0.12 32.216 0.111 6.93 64.23 14.76
1/24/2021 2:30:00 AM 0.14 32.252 0.111 6.95 64.26 14.77
1/24/2021 2:45:00 AM 0.12 32.216 0.111 6.93 64.19 14.78
1/24/2021 3:00:00 AM 0.14 32.252 0.111 6.93 64.24 14.78
1/24/2021 3:15:00 AM 0.1 32.18 0.111 6.93 64.17 14.81
1/24/2021 3:30:00 AM 0.11 32.198 0.111 6.94 64.23 14.79
1/24/2021 3:45:00 AM 0.11 32.198 0.111 6.91 64.29 14.77
1/24/2021 4:00:00 AM 0.07 32.126 0.111 6.93 64.23 14.81
1/24/2021 4:15:00 AM 0.07 32.126 0.112 6.94 64.12 14.81
1/24/2021 4:30:00 AM 0.05 32.09 0.112 6.94 64.16 14.82
1/24/2021 4:45:00 AM 0.05 32.09 0.111 6.94 64.21 14.85
1/24/2021 5:00:00 AM 0.03 32.054 0.111 6.94 64.15 14.87
1/24/2021 5:15:00 AM 0.04 32.072 0.112 6.95 64.18 14.88
1/24/2021 5:30:00 AM 0.03 32.054 0.112 6.96 64.15 14.88
1/24/2021 5:45:00 AM 0.01 32.018 0.112 6.96 64.22 14.9
1/24/2021 6:00:00 AM 0.02 32.036 0.112 6.95 64.2 14.89
1/24/2021 6:15:00 AM 0.02 32.036 0.112 6.95 64.17 14.9
1/24/2021 6:30:00 AM 0.03 32.054 0.112 6.96 64.14 14.89
1/24/2021 6:45:00 AM 0.02 32.036 0.112 6.96 64.12 14.91
1/24/2021 7:00:00 AM 0.04 32.072 0.112 6.96 64.09 14.87
1/24/2021 7:15:00 AM 0.02 32.036 0.112 6.95 64.1 14.9
1/24/2021 7:30:00 AM 0.02 32.036 0.112 6.96 64.07 14.91
1/24/2021 7:45:00 AM 0.01 32.018 0.112 6.95 64.08 14.93
1/24/2021 8:00:00 AM 0.01 32.018 0.112 6.96 64.08 14.95
1/24/2021 8:15:00 AM 0 32 0.112 6.96 64.09 14.98
1/24/2021 8:30:00 AM 0.02 32.036 0.112 6.96 64.07 14.99
1/24/2021 8:45:00 AM 0.02 32.036 0.112 6.95 64.01 14.99
1/24/2021 9:00:00 AM 0.05 32.09 0.112 6.97 64.09 14.99
1/24/2021 9:15:00 AM 0.05 32.09 0.112 6.98 64.12 15.01
1/24/2021 9:30:00 AM 0.05 32.09 0.112 6.97 64.12 14.98
1/24/2021 9:45:00 AM 0.06 32.108 0.112 7 64.12 14.99
1/24/2021 10:00:00 AM 0.1 32.18 0.112 6.98 64.07 14.97
1/24/2021 10:15:00 AM 0.16 32.288 0.112 6.95 64.04 14.95
1/24/2021 10:30:00 AM 0.24 32.432 0.112 6.97 63.97 14.94
1/24/2021 10:45:00 AM 0.33 32.594 0.112 6.98 63.87 14.86
1/24/2021 11:00:00 AM 0.36 32.648 0.112 6.98 63.91 14.87
1/24/2021 11:15:00 AM 0.36 32.648 0.112 6.98 63.88 14.88
1/24/2021 11:30:00 AM 0.4 32.72 0.112 6.99 63.9 14.86
1/24/2021 11:45:00 AM 0.37 32.666 0.112 7 63.91 14.86
1/24/2021 12:00:00 PM 0.44 32.792 0.112 6.95 63.94 14.87
1/24/2021 12:15:00 PM 0.43 32.774 0.111 6.98 63.84 14.83
1/24/2021 12:30:00 PM 0.47 32.846 0.112 6.99 63.94 14.83
1/24/2021 12:45:00 PM 0.46 32.828 0.111 6.99 63.99 14.8
1/24/2021 1:00:00 PM 0.47 32.846 0.111 6.98 63.93 14.76
1/24/2021 1:15:00 PM 0.5 32.9 0.111 6.96 63.94 14.78
1/24/2021 1:30:00 PM 0.56 33.008 0.111 6.98 63.92 14.75
1/24/2021 1:45:00 PM 0.57 33.026 0.111 6.98 63.8 14.75
1/24/2021 2:00:00 PM 0.6 33.08 0.111 6.96 63.74 14.73
1/24/2021 2:15:00 PM 0.65 33.17 0.111 6.97 63.8 14.7
1/24/2021 2:30:00 PM 0.7 33.26 0.111 6.97 63.84 14.68
1/24/2021 2:45:00 PM 0.74 33.332 0.111 6.97 63.79 14.66
1/24/2021 3:00:00 PM 0.77 33.386 0.11 6.97 63.8 14.66
1/24/2021 3:15:00 PM 0.79 33.422 0.11 6.95 63.83 14.64
1/24/2021 3:30:00 PM 0.83 33.494 0.111 6.98 63.78 14.62
1/24/2021 3:45:00 PM 0.83 33.494 0.11 6.92 63.75 14.59
1/24/2021 4:00:00 PM 0.84 33.512 0.11 6.98 63.76 14.61
1/24/2021 4:15:00 PM 0.87 33.566 0.11 6.94 63.77 14.59
1/24/2021 4:30:00 PM 0.88 33.584 0.111 6.94 63.77 14.56
1/24/2021 4:45:00 PM 0.85 33.53 0.111 6.95 63.96 14.52
1/24/2021 5:00:00 PM 0.82 33.476 0.111 6.97 63.94 14.52
1/24/2021 5:15:00 PM 0.77 33.386 0.111 6.96 63.95 14.56
1/24/2021 5:30:00 PM 0.74 33.332 0.111 6.94 63.97 14.53
1/24/2021 5:45:00 PM 0.68 33.224 0.111 6.95 63.9 14.55
1/24/2021 6:00:00 PM 0.65 33.17 0.111 6.95 63.85 14.53
1/24/2021 6:15:00 PM 0.6 33.08 0.112 6.94 63.9 14.58
1/24/2021 6:30:00 PM 0.59 33.062 0.112 6.95 63.86 14.55
1/24/2021 6:45:00 PM 0.57 33.026 0.112 6.94 63.78 14.57
1/24/2021 7:00:00 PM 0.55 32.99 0.112 6.96 63.8 14.58
1/24/2021 7:15:00 PM 0.52 32.936 0.112 6.91 63.8 14.59
1/24/2021 7:30:00 PM 0.51 32.918 0.112 6.93 63.8 14.6
1/24/2021 7:45:00 PM 0.47 32.846 0.112 6.96 63.73 14.62
1/24/2021 8:00:00 PM 0.45 32.81 0.112 6.87 63.78 14.62
1/24/2021 8:15:00 PM 0.44 32.792 0.112 6.94 63.77 14.61
1/24/2021 8:30:00 PM 0.41 32.738 0.112 6.93 63.72 14.61
1/24/2021 8:45:00 PM 0.38 32.684 0.112 6.94 63.7 14.65
1/24/2021 9:00:00 PM 0.35 32.63 0.112 6.95 63.68 14.65
1/24/2021 9:15:00 PM 0.33 32.594 0.112 6.87 63.66 14.66
1/24/2021 9:30:00 PM 0.32 32.576 0.112 6.94 63.63 14.64
1/24/2021 9:45:00 PM 0.3 32.54 0.112 6.94 63.65 14.65
1/24/2021 10:00:00 PM 0.27 32.486 0.112 6.94 63.63 14.68
1/24/2021 10:15:00 PM 0.26 32.468 0.112 6.93 63.61 14.69
1/24/2021 10:30:00 PM 0.24 32.432 0.112 6.94 63.58 14.71
1/24/2021 10:45:00 PM 0.22 32.396 0.112 6.94 63.66 14.73
1/24/2021 11:00:00 PM 0.21 32.378 0.112 6.92 63.62 14.73
1/24/2021 11:15:00 PM 0.2 32.36 0.112 6.93 63.65 14.69
1/24/2021 11:30:00 PM 0.2 32.36 0.112 6.94 63.67 14.7
1/24/2021 11:45:00 PM 0.2 32.36 0.112 6.95 63.62 14.72
1/25/2021 12:00:00 AM 0.19 32.342 0.113 6.94 63.66 14.7
1/25/2021 12:15:00 AM 0.19 32.342 0.113 6.96 63.63 14.71
1/25/2021 12:30:00 AM 0.15 32.27 0.113 6.95 63.66 14.74
1/25/2021 12:45:00 AM 0.17 32.306 0.113 6.96 63.7 14.72
1/25/2021 1:00:00 AM 0.18 32.324 0.113 6.86 63.65 14.72
1/25/2021 1:15:00 AM 0.19 32.342 0.113 6.94 63.66 14.72
1/25/2021 1:30:00 AM 0.17 32.306 0.113 6.93 63.67 14.74
1/25/2021 1:45:00 AM 0.17 32.306 0.113 6.96 63.68 14.69
1/25/2021 2:00:00 AM 0.15 32.27 0.113 6.93 63.64 14.75
1/25/2021 2:15:00 AM 0.11 32.198 0.113 6.94 63.76 14.73
1/25/2021 2:30:00 AM 0.08 32.144 0.113 6.96 63.67 14.77
1/25/2021 2:45:00 AM 0.06 32.108 0.113 6.96 63.73 14.76
1/25/2021 3:00:00 AM 0.03 32.054 0.113 6.91 63.67 14.81
1/25/2021 3:15:00 AM 0.01 32.018 0.113 6.91 63.6 14.8
1/25/2021 3:30:00 AM 0.02 32.036 0.113 6.96 63.68 14.82
1/25/2021 3:45:00 AM 0 32 0.114 6.95 63.64 14.85
1/25/2021 4:00:00 AM 0 32 0.114 6.98 63.61 14.85
1/25/2021 4:15:00 AM 0 32 0.114 6.89 63.72 14.86
1/25/2021 4:30:00 AM 0 32 0.114 6.98 63.71 14.85
1/25/2021 4:45:00 AM 0 32 0.114 6.92 63.74 14.86
1/25/2021 5:00:00 AM -0.01 31.982 0.114 6.96 63.81 14.86
1/25/2021 5:15:00 AM 0 32 0.114 6.94 63.86 14.86
1/25/2021 5:30:00 AM -0.01 31.982 0.115 6.98 63.77 14.87
1/25/2021 5:45:00 AM -0.01 31.982 0.115 6.97 63.75 14.87
1/25/2021 6:00:00 AM -0.01 31.982 0.115 6.88 63.74 14.87
1/25/2021 6:15:00 AM -0.01 31.982 0.115 6.96 63.76 14.88
1/25/2021 6:30:00 AM -0.02 31.964 0.115 6.96 63.82 14.88
1/25/2021 6:45:00 AM 0 32 0.116 6.96 63.81 14.86
1/25/2021 7:00:00 AM -0.01 31.982 0.116 6.96 63.8 14.88
1/25/2021 7:15:00 AM -0.01 31.982 0.116 6.96 63.85 14.86
1/25/2021 7:30:00 AM 0 32 0.116 6.96 63.88 14.86
1/25/2021 7:45:00 AM 0 32 0.116 6.97 63.87 14.88
1/25/2021 8:00:00 AM 0 32 0.116 6.97 63.92 14.9
1/25/2021 8:15:00 AM -0.01 31.982 0.116 6.98 63.87 14.92
1/25/2021 8:30:00 AM 0 32 0.116 6.98 63.89 14.94
1/25/2021 8:45:00 AM 0 32 0.116 6.97 63.9 14.95
1/25/2021 9:00:00 AM 0.01 32.018 0.117 6.98 63.81 14.97
1/25/2021 9:15:00 AM 0 32 0.116 6.98 63.79 14.98
1/25/2021 9:30:00 AM 0.01 32.018 0.116 6.97 63.82 14.97
1/25/2021 9:45:00 AM 0.02 32.036 0.117 6.98 63.75 14.97
1/25/2021 10:00:00 AM 0.05 32.09 0.117 6.97 63.79 14.96
1/25/2021 10:15:00 AM 0.07 32.126 0.117 6.99 63.69 14.96
1/25/2021 10:30:00 AM 0.09 32.162 0.116 6.98 63.81 14.93
1/25/2021 10:45:00 AM 0.08 32.144 0.116 6.99 63.73 14.93
1/25/2021 11:00:00 AM 0.08 32.144 0.116 6.99 63.62 14.93
1/25/2021 11:15:00 AM 0.08 32.144 0.116 6.99 63.65 14.95
1/25/2021 11:30:00 AM 0.08 32.144 0.116 6.99 63.71 14.93
1/25/2021 11:45:00 AM 0.08 32.144 0.116 6.99 63.54 14.91
1/25/2021 12:00:00 PM 0.07 32.126 0.116 7.03 63.5 14.93
1/25/2021 12:15:00 PM 0.08 32.144 0.115 6.95 63.53 14.92
1/25/2021 12:30:00 PM 0.1 32.18 0.115 6.98 63.54 14.9
1/25/2021 12:45:00 PM 0.14 32.252 0.114 7 63.5 14.86
1/25/2021 1:00:00 PM 0.17 32.306 0.114 7 63.52 14.84
1/25/2021 1:15:00 PM 0.22 32.396 0.114 6.99 63.5 14.82
1/25/2021 1:30:00 PM 0.31 32.558 0.114 7 63.6 14.78
1/25/2021 1:45:00 PM 0.43 32.774 0.113 7.03 63.58 14.76
1/25/2021 2:00:00 PM 0.53 32.954 0.113 7.02 65.1 14.69
1/25/2021 2:15:00 PM 0.63 33.134 0.113 7.02 64.26 14.67
1/25/2021 2:30:00 PM 0.69 33.242 0.113 7 63.93 14.64
1/25/2021 2:45:00 PM 0.79 33.422 0.113 7.01 64.28 14.61
1/25/2021 3:00:00 PM 0.84 33.512 0.113 6.96 64.06 14.58
1/25/2021 3:15:00 PM 0.9 33.62 0.113 6.99 64.06 14.57
1/25/2021 3:30:00 PM 0.9 33.62 0.112 6.99 64.1 14.56
1/25/2021 3:45:00 PM 0.93 33.674 0.112 7.02 64.29 14.54
1/25/2021 4:00:00 PM 0.94 33.692 0.112 6.96 64.36 14.54
1/25/2021 4:15:00 PM 0.98 33.764 0.112 6.97 64.35 14.49
1/25/2021 4:30:00 PM 0.98 33.764 0.112 6.91 64.38 14.48
1/25/2021 4:45:00 PM 0.98 33.764 0.112 6.99 64.33 14.44
1/25/2021 5:00:00 PM 0.97 33.746 0.112 6.97 64.3 14.44
1/25/2021 5:15:00 PM 0.95 33.71 0.113 6.98 64.23 14.41
1/25/2021 5:30:00 PM 0.9 33.62 0.112 6.98 64.08 14.43
1/25/2021 5:45:00 PM 0.87 33.566 0.112 6.98 64.11 14.44
1/25/2021 6:00:00 PM 0.84 33.512 0.112 6.99 64.21 14.44
1/25/2021 6:15:00 PM 0.82 33.476 0.112 6.98 64.22 14.43
1/25/2021 6:30:00 PM 0.81 33.458 0.113 6.98 64.22 14.43
1/25/2021 6:45:00 PM 0.77 33.386 0.113 6.99 64.26 14.47
1/25/2021 7:00:00 PM 0.74 33.332 0.113 7 63.99 14.47
1/25/2021 7:15:00 PM 0.73 33.314 0.113 7 63.79 14.49
1/25/2021 7:30:00 PM 0.71 33.278 0.113 6.91 63.76 14.49
1/25/2021 7:45:00 PM 0.71 33.278 0.113 6.98 63.86 14.49
1/25/2021 8:00:00 PM 0.71 33.278 0.113 6.97 63.84 14.48
1/25/2021 8:15:00 PM 0.71 33.278 0.113 6.98 63.78 14.48
1/25/2021 8:30:00 PM 0.72 33.296 0.113 6.98 63.85 14.48
1/25/2021 8:45:00 PM 0.71 33.278 0.113 6.98 63.8 14.5
1/25/2021 9:00:00 PM 0.71 33.278 0.113 6.98 63.88 14.49
1/25/2021 9:15:00 PM 0.72 33.296 0.114 6.98 63.94 14.47
1/25/2021 9:30:00 PM 0.72 33.296 0.114 6.98 64.03 14.47
1/25/2021 9:45:00 PM 0.74 33.332 0.114 6.98 64.06 14.47
1/25/2021 10:00:00 PM 0.75 33.35 0.114 6.98 64.06 14.46
1/25/2021 10:15:00 PM 0.74 33.332 0.114 6.98 63.91 14.46
1/25/2021 10:30:00 PM 0.77 33.386 0.114 6.99 64.09 14.46
1/25/2021 10:45:00 PM 0.79 33.422 0.114 6.98 64.24 14.44
1/25/2021 11:00:00 PM 0.82 33.476 0.114 6.98 64.31 14.43
1/25/2021 11:15:00 PM 0.81 33.458 0.114 6.98 64.35 14.44
1/25/2021 11:30:00 PM 0.84 33.512 0.114 6.98 64.36 14.45
1/25/2021 11:45:00 PM 0.86 33.548 0.114 6.98 64.49 14.4
1/26/2021 12:00:00 AM 0.87 33.566 0.114 6.98 64.42 14.4
1/26/2021 12:15:00 AM 0.89 33.602 0.114 6.98 64.36 14.39
1/26/2021 12:30:00 AM 0.88 33.584 0.114 6.99 64.44 14.4
1/26/2021 12:45:00 AM 0.91 33.638 0.114 6.98 63.99 14.37
1/26/2021 1:00:00 AM 0.92 33.656 0.114 6.98 64.29 14.37
1/26/2021 1:15:00 AM 0.93 33.674 0.114 6.98 64.41 14.37
1/26/2021 1:30:00 AM 0.95 33.71 0.114 6.98 64.38 14.35
1/26/2021 1:45:00 AM 0.97 33.746 0.114 6.98 64.44 14.35
1/26/2021 2:00:00 AM 0.98 33.764 0.114 6.98 64.51 14.34
1/26/2021 2:15:00 AM 1 33.8 0.114 6.98 64.56 14.32
1/26/2021 2:30:00 AM 1 33.8 0.115 6.98 64.48 14.34
1/26/2021 2:45:00 AM 1 33.8 0.115 6.98 64.42 14.34
1/26/2021 3:00:00 AM 1.01 33.818 0.114 6.98 64.51 14.31
1/26/2021 3:15:00 AM 1.02 33.836 0.115 6.99 64.52 14.34
1/26/2021 3:30:00 AM 1.02 33.836 0.114 6.98 64.6 14.33
1/26/2021 3:45:00 AM 1.04 33.872 0.115 6.98 64.64 14.3
1/26/2021 4:00:00 AM 1.04 33.872 0.115 6.98 64.62 14.32
1/26/2021 4:15:00 AM 1.06 33.908 0.115 6.98 64.65 14.28
1/26/2021 4:30:00 AM 1.07 33.926 0.115 6.98 64.74 14.3
1/26/2021 4:45:00 AM 1.08 33.944 0.114 6.98 64.64 14.28
1/26/2021 5:00:00 AM 1.09 33.962 0.115 6.98 64.62 14.28
1/26/2021 5:15:00 AM 1.09 33.962 0.115 6.95 64.54 14.28
1/26/2021 5:30:00 AM 1.1 33.98 0.114 6.98 64.57 14.27
1/26/2021 5:45:00 AM 1.11 33.998 0.115 6.99 64.67 14.26
1/26/2021 6:00:00 AM 1.13 34.034 0.115 6.96 64.67 14.24
1/26/2021 6:15:00 AM 1.14 34.052 0.115 7 64.67 14.23
1/26/2021 6:30:00 AM 1.15 34.07 0.115 6.96 64.63 14.23
1/26/2021 6:45:00 AM 1.14 34.052 0.115 6.98 64.65 14.25
1/26/2021 7:00:00 AM 1.15 34.07 0.115 6.98 64.65 14.24
1/26/2021 7:15:00 AM 1.16 34.088 0.115 6.98 64.6 14.22
1/26/2021 7:30:00 AM 1.18 34.124 0.115 6.97 64.68 14.22
1/26/2021 7:45:00 AM 1.2 34.16 0.115 6.97 64.63 14.2
1/26/2021 8:00:00 AM 1.2 34.16 0.115 6.98 64.61 14.22
1/26/2021 8:15:00 AM 1.18 34.124 0.115 6.97 64.61 14.24
1/26/2021 8:30:00 AM 1.19 34.142 0.115 6.97 64.79 14.26
1/26/2021 8:45:00 AM 1.21 34.178 0.115 6.98 64.86 14.25
1/26/2021 9:00:00 AM 1.21 34.178 0.115 6.98 64.79 14.24
1/26/2021 9:15:00 AM 1.19 34.142 0.115 6.98 64.77 14.27
1/26/2021 9:30:00 AM 1.16 34.088 0.115 6.98 64.8 14.28
1/26/2021 9:45:00 AM 1.13 34.034 0.114 6.98 64.81 14.28
1/26/2021 10:00:00 AM 1.09 33.962 0.114 6.98 64.76 14.33
1/26/2021 10:15:00 AM 0.99 33.782 0.114 6.96 64.48 14.32
1/26/2021 10:30:00 AM 0.87 33.566 0.114 6.98 64.22 14.41
1/26/2021 10:45:00 AM 0.81 33.458 0.114 6.99 64.24 14.44
1/26/2021 11:00:00 AM 0.74 33.332 0.114 6.97 64.17 14.48
1/26/2021 11:15:00 AM 0.71 33.278 0.114 6.98 64.24 14.49
1/26/2021 11:30:00 AM 0.69 33.242 0.113 6.98 64.23 14.52
1/26/2021 11:45:00 AM 0.66 33.188 0.113 6.98 64.18 14.53
1/26/2021 12:00:00 PM 0.68 33.224 0.113 6.98 64.1 14.51
1/26/2021 12:15:00 PM 0.66 33.188 0.113 6.97 64.13 14.55
1/26/2021 12:30:00 PM 0.68 33.224 0.113 6.97 64.12 14.53
1/26/2021 12:45:00 PM 0.63 33.134 0.113 6.98 64.16 14.53
1/26/2021 1:00:00 PM 0.55 32.99 0.113 6.99 64.05 14.53
1/26/2021 1:15:00 PM 0.51 32.918 0.113 6.98 64.01 14.56
1/26/2021 1:30:00 PM 0.5 32.9 0.113 6.99 63.99 14.55
1/26/2021 1:45:00 PM 0.51 32.918 0.112 6.98 64.04 14.55
1/26/2021 2:00:00 PM 0.52 32.936 0.112 6.99 64.12 14.55
1/26/2021 2:15:00 PM 0.58 33.044 0.112 6.99 64.2 14.53
1/26/2021 2:30:00 PM 0.63 33.134 0.112 6.99 64.07 14.51
1/26/2021 2:45:00 PM 0.67 33.206 0.112 6.99 64.1 14.49
1/26/2021 3:00:00 PM 0.68 33.224 0.112 6.99 64.23 14.5
1/26/2021 3:15:00 PM 0.72 33.296 0.112 7 64.31 14.48
1/26/2021 3:30:00 PM 0.74 33.332 0.112 6.99 64.19 14.45
1/26/2021 3:45:00 PM 0.77 33.386 0.112 6.99 64.15 14.45
1/26/2021 4:00:00 PM 0.8 33.44 0.112 7 64.35 14.44
1/26/2021 4:15:00 PM 0.83 33.494 0.112 7 64.34 14.41
1/26/2021 4:30:00 PM 0.86 33.548 0.112 7 64.45 14.38
1/26/2021 4:45:00 PM 0.89 33.602 0.112 7 64.64 14.34
1/26/2021 5:00:00 PM 0.92 33.656 0.112 6.99 64.69 14.33
1/26/2021 5:15:00 PM 0.93 33.674 0.112 6.98 64.65 14.31
1/26/2021 5:30:00 PM 0.95 33.71 0.112 6.98 64.64 14.29
1/26/2021 5:45:00 PM 0.96 33.728 0.112 6.98 64.62 14.28
1/26/2021 6:00:00 PM 0.97 33.746 0.112 6.98 64.42 14.26
1/26/2021 6:15:00 PM 0.98 33.764 0.112 6.98 64.56 14.26
1/26/2021 6:30:00 PM 1.01 33.818 0.112 6.98 64.63 14.25
1/26/2021 6:45:00 PM 1.02 33.836 0.112 6.98 64.49 14.23
1/26/2021 7:00:00 PM 1.03 33.854 0.112 6.98 64.73 14.26
1/26/2021 7:15:00 PM 1.06 33.908 0.112 6.98 64.63 14.22
1/26/2021 7:30:00 PM 1.06 33.908 0.112 6.98 64.53 14.24
1/26/2021 7:45:00 PM 1.09 33.962 0.112 6.98 64.53 14.22
1/26/2021 8:00:00 PM 1.09 33.962 0.112 6.98 64.57 14.22
1/26/2021 8:15:00 PM 1.09 33.962 0.112 6.98 64.59 14.22
1/26/2021 8:30:00 PM 1.1 33.98 0.112 6.98 64.49 14.23
1/26/2021 8:45:00 PM 1.12 34.016 0.112 6.98 64.44 14.21
1/26/2021 9:00:00 PM 1.13 34.034 0.112 6.99 64.46 14.21
1/26/2021 9:15:00 PM 1.15 34.07 0.112 6.98 64.49 14.21
1/26/2021 9:30:00 PM 1.18 34.124 0.112 6.98 64.56 14.14
1/26/2021 9:45:00 PM 1.19 34.142 0.113 6.98 64.56 14.18
1/26/2021 10:00:00 PM 1.2 34.16 0.113 6.98 64.52 14.17
1/26/2021 10:15:00 PM 1.21 34.178 0.113 6.98 64.6 14.17
1/26/2021 10:30:00 PM 1.24 34.232 0.113 6.98 64.62 14.15
1/26/2021 10:45:00 PM 1.24 34.232 0.113 6.98 64.55 14.16
1/26/2021 11:00:00 PM 1.27 34.286 0.113 6.98 64.6 14.14
1/26/2021 11:15:00 PM 1.31 34.358 0.113 6.98 64.67 14.13
1/26/2021 11:30:00 PM 1.32 34.376 0.113 6.98 64.67 14.1
1/26/2021 11:45:00 PM 1.32 34.376 0.113 6.98 64.63 14.12
1/27/2021 12:00:00 AM 1.33 34.394 0.113 6.98 64.72 14.11
1/27/2021 12:15:00 AM 1.36 34.448 0.113 6.99 64.69 14.12
1/27/2021 12:30:00 AM 1.37 34.466 0.113 6.97 64.65 14.12
1/27/2021 12:45:00 AM 1.39 34.502 0.114 6.98 64.74 14.1
1/27/2021 1:00:00 AM 1.41 34.538 0.114 6.98 64.63 14.09
1/27/2021 1:15:00 AM 1.42 34.556 0.113 6.98 64.71 14.08
1/27/2021 1:30:00 AM 1.42 34.556 0.113 7 64.74 14.09
1/27/2021 1:45:00 AM 1.44 34.592 0.113 6.97 64.71 14.07
1/27/2021 2:00:00 AM 1.46 34.628 0.113 6.99 64.78 14.07
1/27/2021 2:15:00 AM 1.48 34.664 0.113 6.98 64.83 14.05
1/27/2021 2:30:00 AM 1.48 34.664 0.113 7 64.81 14.07
1/27/2021 2:45:00 AM 1.49 34.682 0.113 6.97 64.93 14.06
1/27/2021 3:00:00 AM 1.51 34.718 0.114 6.98 65 14.06
1/27/2021 3:15:00 AM 1.52 34.736 0.113 6.99 65.32 14.06
1/27/2021 3:30:00 AM 1.53 34.754 0.113 6.98 65.27 14.07
1/27/2021 3:45:00 AM 1.54 34.772 0.113 6.98 65.56 14.06
1/27/2021 4:00:00 AM 1.56 34.808 0.113 6.98 65.75 14.06
1/27/2021 4:15:00 AM 1.57 34.826 0.114 6.98 66.09 14.07
1/27/2021 4:30:00 AM 1.56 34.808 0.114 6.99 65.97 14.06
1/27/2021 4:45:00 AM 1.56 34.808 0.114 6.99 65.84 14.08
1/27/2021 5:00:00 AM 1.57 34.826 0.113 6.98 65.77 14.07
1/27/2021 5:15:00 AM 1.56 34.808 0.113 6.99 65.67 14.09
1/27/2021 5:30:00 AM 1.56 34.808 0.113 6.98 65.61 14.08
1/27/2021 5:45:00 AM 1.55 34.79 0.113 6.99 65.57 14.09
1/27/2021 6:00:00 AM 1.55 34.79 0.113 6.98 65.4 14.09
1/27/2021 6:15:00 AM 1.54 34.772 0.113 6.98 65.4 14.09
1/27/2021 6:30:00 AM 1.53 34.754 0.113 6.98 65.31 14.11
1/27/2021 6:45:00 AM 1.52 34.736 0.113 6.99 65.37 14.12
1/27/2021 7:00:00 AM 1.5 34.7 0.113 6.99 65.31 14.13
1/27/2021 7:15:00 AM 1.48 34.664 0.113 7.01 65.19 14.14
1/27/2021 7:30:00 AM 1.45 34.61 0.113 6.96 64.93 14.16
1/27/2021 7:45:00 AM 1.43 34.574 0.113 6.99 64.84 14.17
1/27/2021 8:00:00 AM 1.42 34.556 0.113 6.99 64.9 14.2
1/27/2021 8:15:00 AM 1.41 34.538 0.113 6.99 64.83 14.23
1/27/2021 8:30:00 AM 1.4 34.52 0.113 6.99 64.84 14.23
1/27/2021 8:45:00 AM 1.4 34.52 0.113 7 64.9 14.25
1/27/2021 9:00:00 AM 1.39 34.502 0.113 6.99 64.74 14.28
1/27/2021 9:15:00 AM 1.39 34.502 0.114 6.99 64.84 14.32
1/27/2021 9:30:00 AM 1.4 34.52 0.114 7 64.8 14.31
1/27/2021 9:45:00 AM 1.41 34.538 0.114 7 64.76 14.34
1/27/2021 10:00:00 AM 1.42 34.556 0.114 6.99 64.8 14.35
1/27/2021 10:15:00 AM 1.43 34.574 0.114 7.01 64.89 14.35
1/27/2021 10:30:00 AM 1.47 34.646 0.114 7 64.96 14.35
1/27/2021 10:45:00 AM 1.49 34.682 0.113 7 65 14.37
1/27/2021 11:00:00 AM 1.53 34.754 0.113 7.01 65.13 14.38
1/27/2021 11:15:00 AM 1.55 34.79 0.113 7.01 65.28 14.36
1/27/2021 11:30:00 AM 1.55 34.79 0.113 7.01 65.32 14.36
1/27/2021 11:45:00 AM 1.55 34.79 0.113 7.01 65.43 14.34
1/27/2021 12:00:00 PM 1.56 34.808 0.113 7 65.38 14.34
1/27/2021 12:15:00 PM 1.57 34.826 0.113 7.01 65.4 14.33
1/27/2021 12:30:00 PM 1.59 34.862 0.113 7.01 65.42 14.32
1/27/2021 12:45:00 PM 1.58 34.844 0.113 7.03 65.35 14.34
1/27/2021 1:00:00 PM 1.59 34.862 0.113 7.03 65.29 14.33
1/27/2021 1:15:00 PM 1.61 34.898 0.113 6.99 65.18 14.33
1/27/2021 1:30:00 PM 1.62 34.916 0.113 7.02 65.04 14.33
1/27/2021 1:45:00 PM 1.63 34.934 0.113 7.01 65.12 14.33
1/27/2021 2:00:00 PM 1.64 34.952 0.113 7.01 65.24 14.33
1/27/2021 2:15:00 PM 1.65 34.97 0.113 7.03 65.29 14.33
1/27/2021 2:30:00 PM 1.66 34.988 0.114 7.01 65.29 14.32
1/27/2021 2:45:00 PM 1.66 34.988 0.114 7.02 65.31 14.31
1/27/2021 3:00:00 PM 1.67 35.006 0.114 7.03 65.35 14.3
1/27/2021 3:15:00 PM 1.66 34.988 0.114 7.03 65.36 14.31
1/27/2021 3:30:00 PM 1.65 34.97 0.114 7.03 65.39 14.3
1/27/2021 3:45:00 PM 1.64 34.952 0.114 7.03 65.48 14.29
1/27/2021 4:00:00 PM 1.63 34.934 0.114 7.02 65.51 14.28
1/27/2021 4:15:00 PM 1.62 34.916 0.114 7.02 65.44 14.26
1/27/2021 4:30:00 PM 1.6 34.88 0.114 7.02 65.44 14.24
1/27/2021 4:45:00 PM 1.59 34.862 0.114 7.02 65.54 14.22
1/27/2021 5:00:00 PM 1.57 34.826 0.114 7.02 65.49 14.22
1/27/2021 5:15:00 PM 1.53 34.754 0.115 7 65.5 14.21
1/27/2021 5:30:00 PM 1.5 34.7 0.115 7.02 65.58 14.22
1/27/2021 5:45:00 PM 1.47 34.646 0.115 7.01 65.64 14.22
1/27/2021 6:00:00 PM 1.46 34.628 0.115 7.02 65.63 14.23
1/27/2021 6:15:00 PM 1.42 34.556 0.115 7.01 65.69 14.24
1/27/2021 6:30:00 PM 1.4 34.52 0.115 7 65.81 14.24
1/27/2021 6:45:00 PM 1.37 34.466 0.115 7.01 65.89 14.25
1/27/2021 7:00:00 PM 1.36 34.448 0.115 7.01 65.94 14.26
1/27/2021 7:15:00 PM 1.34 34.412 0.115 7 66.11 14.26
1/27/2021 7:30:00 PM 1.33 34.394 0.115 7 66.01 14.27
1/27/2021 7:45:00 PM 1.31 34.358 0.115 7 66.03 14.28
1/27/2021 8:00:00 PM 1.29 34.322 0.115 7 66 14.29
1/27/2021 8:15:00 PM 1.27 34.286 0.115 7 66.11 14.3
1/27/2021 8:30:00 PM 1.23 34.214 0.115 7.01 66.03 14.31
1/27/2021 8:45:00 PM 1.21 34.178 0.115 7.01 66.01 14.31
1/27/2021 9:00:00 PM 1.2 34.16 0.115 7 65.73 14.33
1/27/2021 9:15:00 PM 1.19 34.142 0.115 7 65.77 14.33
1/27/2021 9:30:00 PM 1.18 34.124 0.115 7 65.74 14.33
1/27/2021 9:45:00 PM 1.15 34.07 0.115 7 65.8 14.34
1/27/2021 10:00:00 PM 1.13 34.034 0.115 7 65.76 14.34
1/27/2021 10:15:00 PM 1.13 34.034 0.115 7 65.74 14.35
1/27/2021 10:30:00 PM 1.11 33.998 0.115 7 65.71 14.36
1/27/2021 10:45:00 PM 1.1 33.98 0.116 7 65.54 14.37
1/27/2021 11:00:00 PM 1.08 33.944 0.116 7 65.57 14.38
1/27/2021 11:15:00 PM 1.06 33.908 0.116 7 65.55 14.37
1/27/2021 11:30:00 PM 1.03 33.854 0.116 7 65.51 14.38
1/27/2021 11:45:00 PM 0.99 33.782 0.116 7 65.59 14.4
1/28/2021 12:00:00 AM 0.95 33.71 0.116 7 65.5 14.42
1/28/2021 12:15:00 AM 0.91 33.638 0.116 6.99 65.39 14.43
1/28/2021 12:30:00 AM 0.85 33.53 0.116 6.99 65.41 14.46
1/28/2021 12:45:00 AM 0.8 33.44 0.116 7 65.27 14.47
1/28/2021 1:00:00 AM 0.75 33.35 0.116 6.99 65.23 14.49
1/28/2021 1:15:00 AM 0.7 33.26 0.116 6.99 65.11 14.5
1/28/2021 1:30:00 AM 0.64 33.152 0.116 7 65.07 14.53
1/28/2021 1:45:00 AM 0.6 33.08 0.116 6.99 65.12 14.55
1/28/2021 2:00:00 AM 0.54 32.972 0.116 6.99 65.08 14.57
1/28/2021 2:15:00 AM 0.49 32.882 0.117 6.99 65.06 14.59
1/28/2021 2:30:00 AM 0.43 32.774 0.117 6.99 65.06 14.62
1/28/2021 2:45:00 AM 0.4 32.72 0.117 7 65.01 14.63
1/28/2021 3:00:00 AM 0.37 32.666 0.117 7 64.97 14.64
1/28/2021 3:15:00 AM 0.36 32.648 0.117 7 65 14.65
1/28/2021 3:30:00 AM 0.36 32.648 0.117 7 64.99 14.65
1/28/2021 3:45:00 AM 0.34 32.612 0.117 6.99 65.02 14.67
1/28/2021 4:00:00 AM 0.32 32.576 0.117 7 64.98 14.68
1/28/2021 4:15:00 AM 0.29 32.522 0.117 7.01 65.03 14.69
1/28/2021 4:30:00 AM 0.28 32.504 0.117 7 65.03 14.7
1/28/2021 4:45:00 AM 0.26 32.468 0.117 7.01 65.04 14.71
1/28/2021 5:00:00 AM 0.24 32.432 0.117 7.01 65.1 14.71
1/28/2021 5:15:00 AM 0.23 32.414 0.117 7.01 65.2 14.72
1/28/2021 5:30:00 AM 0.21 32.378 0.117 7.01 65.22 14.73
1/28/2021 5:45:00 AM 0.2 32.36 0.117 7.01 65.24 14.74
1/28/2021 6:00:00 AM 0.18 32.324 0.117 7.01 65.32 14.74
1/28/2021 6:15:00 AM 0.16 32.288 0.117 7.01 65.15 14.75
1/28/2021 6:30:00 AM 0.14 32.252 0.117 7.01 65.14 14.75
1/28/2021 6:45:00 AM 0.12 32.216 0.117 7.02 65.18 14.77
1/28/2021 7:00:00 AM 0.08 32.144 0.117 7.01 65.18 14.78
1/28/2021 7:15:00 AM 0.08 32.144 0.117 7.01 65.14 14.78
1/28/2021 7:30:00 AM 0.07 32.126 0.117 7.01 64.98 14.82
1/28/2021 7:45:00 AM 0.07 32.126 0.117 7.01 65 14.84
1/28/2021 8:00:00 AM 0.06 32.108 0.117 7.01 65 14.85
1/28/2021 8:15:00 AM 0.03 32.054 0.117 7.01 64.95 14.88
1/28/2021 8:30:00 AM 0.04 32.072 0.117 7.01 64.9 14.93
1/28/2021 8:45:00 AM 0.05 32.09 0.117 7.02 64.92 14.96
1/28/2021 9:00:00 AM 0.06 32.108 0.117 7.02 65.03 14.99
1/28/2021 9:15:00 AM 0.09 32.162 0.117 7.02 64.98 15
1/28/2021 9:30:00 AM 0.11 32.198 0.117 7.02 65.09 15.02
1/28/2021 9:45:00 AM 0.13 32.234 0.117 7.02 65.06 15.03
1/28/2021 10:00:00 AM 0.19 32.342 0.117 7.02 65.03 15.01
1/28/2021 10:15:00 AM 0.25 32.45 0.117 7.03 65 15
1/28/2021 10:30:00 AM 0.29 32.522 0.117 7.03 65.01 14.98
1/28/2021 10:45:00 AM 0.34 32.612 0.117 7.04 64.94 14.97
1/28/2021 11:00:00 AM 0.41 32.738 0.117 7.04 64.98 14.95
1/28/2021 11:15:00 AM 0.45 32.81 0.117 7.04 64.86 14.93
1/28/2021 11:30:00 AM 0.49 32.882 0.117 7.03 64.81 14.9
1/28/2021 11:45:00 AM 0.49 32.882 0.117 7.04 64.78 14.89
1/28/2021 12:00:00 PM 0.51 32.918 0.117 7.07 64.98 14.89
1/28/2021 12:15:00 PM 0.54 32.972 0.117 6.93 64.93 14.87
1/28/2021 12:30:00 PM 0.5 32.9 0.119 7.04 64.97 14.87
1/28/2021 12:45:00 PM 0.52 32.936 0.119 7.04 64.95 14.84
1/28/2021 1:00:00 PM 0.51 32.918 0.119 7.04 64.97 14.85
1/28/2021 1:15:00 PM 0.46 32.828 0.119 7.04 64.93 14.86
1/28/2021 1:30:00 PM 0.46 32.828 0.119 7.03 64.92 14.86
1/28/2021 1:45:00 PM 0.45 32.81 0.119 7.03 64.94 14.86
1/28/2021 2:00:00 PM 0.44 32.792 0.119 7.04 64.9 14.84
1/28/2021 2:15:00 PM 0.42 32.756 0.119 7.05 64.9 14.85
1/28/2021 2:30:00 PM 0.41 32.738 0.119 7.01 64.87 14.82
1/28/2021 2:45:00 PM 0.38 32.684 0.119 7.07 64.86 14.83
1/28/2021 3:00:00 PM 0.34 32.612 0.119 7.06 64.77 14.83
1/28/2021 3:15:00 PM 0.32 32.576 0.119 6.97 64.82 14.83
1/28/2021 3:30:00 PM 0.32 32.576 0.119 7.03 64.83 14.82
1/28/2021 3:45:00 PM 0.31 32.558 0.119 7.06 64.82 14.82
1/28/2021 4:00:00 PM 0.31 32.558 0.118 7.02 64.84 14.81
1/28/2021 4:15:00 PM 0.3 32.54 0.118 7.03 64.85 14.81
1/28/2021 4:30:00 PM 0.3 32.54 0.118 7.06 64.82 14.81
1/28/2021 4:45:00 PM 0.3 32.54 0.118 7.02 64.7 14.79
1/28/2021 5:00:00 PM 0.28 32.504 0.118 7.04 64.71 14.79
1/28/2021 5:15:00 PM 0.24 32.432 0.118 7.04 64.72 14.79
1/28/2021 5:30:00 PM 0.2 32.36 0.118 7.02 64.76 14.79
1/28/2021 5:45:00 PM 0.13 32.234 0.118 7.03 64.7 14.81
1/28/2021 6:00:00 PM 0.07 32.126 0.118 7.04 64.59 14.84
1/28/2021 6:15:00 PM 0.02 32.036 0.118 7.03 64.54 14.86
1/28/2021 6:30:00 PM 0 32 0.118 7.03 64.5 14.88
1/28/2021 6:45:00 PM -0.01 31.982 0.118 7.03 64.5 14.91
1/28/2021 7:00:00 PM -0.02 31.964 0.118 7.03 64.48 14.92
1/28/2021 7:15:00 PM -0.01 31.982 0.119 7.03 64.49 14.92
1/28/2021 7:30:00 PM -0.01 31.982 0.119 7.02 64.51 14.92
1/28/2021 7:45:00 PM -0.01 31.982 0.119 7.03 64.5 14.92
1/28/2021 8:00:00 PM -0.01 31.982 0.119 7.03 64.47 14.91
1/28/2021 8:15:00 PM -0.02 31.964 0.119 7.01 64.41 14.91
1/28/2021 8:30:00 PM -0.01 31.982 0.119 7.02 64.41 14.9
1/28/2021 8:45:00 PM -0.01 31.982 0.119 7.02 64.38 14.91
1/28/2021 9:00:00 PM 0 32 0.119 7.03 64.43 14.9
1/28/2021 9:15:00 PM 0 32 0.119 7.02 64.39 14.9
1/28/2021 9:30:00 PM -0.01 31.982 0.12 7.02 64.38 14.9
1/28/2021 9:45:00 PM 0 32 0.12 7.02 64.46 14.9
1/28/2021 10:00:00 PM -0.01 31.982 0.12 7.02 64.4 14.9
1/28/2021 10:15:00 PM -0.01 31.982 0.12 7.02 64.41 14.9
1/28/2021 10:30:00 PM -0.01 31.982 0.12 7.01 64.44 14.9
1/28/2021 10:45:00 PM -0.01 31.982 0.12 7.01 64.38 14.89
1/28/2021 11:00:00 PM 0 32 0.12 7 64.4 14.89
1/28/2021 11:15:00 PM 0 32 0.12 7 64.41 14.88
1/28/2021 11:30:00 PM -0.01 31.982 0.12 7 64.41 14.87
1/28/2021 11:45:00 PM 0 32 0.12 7.01 64.47 14.87
1/29/2021 12:00:00 AM -0.01 31.982 0.121 7.01 64.45 14.87
1/29/2021 12:15:00 AM -0.01 31.982 0.121 7.01 64.45 14.85
1/29/2021 12:30:00 AM 0 32 0.121 7.01 64.44 14.85
1/29/2021 12:45:00 AM -0.01 31.982 0.121 7.01 64.47 14.84
1/29/2021 1:00:00 AM -0.02 31.964 0.121 7 64.45 14.85
1/29/2021 1:15:00 AM -0.02 31.964 0.121 7 64.43 14.85
1/29/2021 1:30:00 AM -0.02 31.964 0.121 7 64.39 14.85
1/29/2021 1:45:00 AM -0.02 31.964 0.121 7 64.39 14.84
1/29/2021 2:00:00 AM -0.02 31.964 0.121 7 64.41 14.83
1/29/2021 2:15:00 AM -0.01 31.982 0.121 7 64.41 14.83
1/29/2021 2:30:00 AM -0.01 31.982 0.121 7 64.35 14.84
1/29/2021 2:45:00 AM -0.01 31.982 0.121 7 64.37 14.84
1/29/2021 3:00:00 AM -0.01 31.982 0.122 7 64.34 14.83
1/29/2021 3:15:00 AM -0.01 31.982 0.122 7 64.33 14.83
1/29/2021 3:30:00 AM -0.01 31.982 0.122 7.01 64.28 14.84
1/29/2021 3:45:00 AM -0.01 31.982 0.122 7.01 64.32 14.83
1/29/2021 4:00:00 AM -0.02 31.964 0.122 7 64.3 14.83
1/29/2021 4:15:00 AM -0.02 31.964 0.122 7.01 64.25 14.84
1/29/2021 4:30:00 AM -0.03 31.946 0.122 7 64.3 14.85
1/29/2021 4:45:00 AM -0.03 31.946 0.123 7 64.26 14.85
1/29/2021 5:00:00 AM -0.02 31.964 0.123 7 64.24 14.85
1/29/2021 5:15:00 AM -0.02 31.964 0.123 7 64.27 14.86
1/29/2021 5:30:00 AM -0.03 31.946 0.123 7 64.22 14.86
1/29/2021 5:45:00 AM -0.02 31.964 0.123 7 64.2 14.86
1/29/2021 6:00:00 AM -0.02 31.964 0.123 7 64.22 14.86
1/29/2021 6:15:00 AM -0.02 31.964 0.124 6.99 64.21 14.87
1/29/2021 6:30:00 AM -0.02 31.964 0.124 7.01 64.19 14.86
1/29/2021 6:45:00 AM -0.02 31.964 0.124 7 64.2 14.86
1/29/2021 7:00:00 AM -0.02 31.964 0.124 7.01 64.26 14.86
1/29/2021 7:15:00 AM -0.01 31.982 0.124 7.01 64.27 14.86
1/29/2021 7:30:00 AM -0.01 31.982 0.124 7.01 64.23 14.86
1/29/2021 7:45:00 AM -0.01 31.982 0.125 7.02 64.22 14.88
1/29/2021 8:00:00 AM 0 32 0.125 7.02 64.22 14.91
1/29/2021 8:15:00 AM 0 32 0.125 7.03 64.27 14.95
1/29/2021 8:30:00 AM 0 32 0.125 7.02 64.31 14.98
1/29/2021 8:45:00 AM -0.01 31.982 0.125 7.04 64.26 15
1/29/2021 9:00:00 AM 0 32 0.126 6.99 64.3 15.04
1/29/2021 9:15:00 AM 0.01 32.018 0.126 7.02 64.33 15.05
1/29/2021 9:30:00 AM 0.01 32.018 0.125 7.02 64.34 15.05
1/29/2021 9:45:00 AM 0.02 32.036 0.126 7.02 64.33 15.05
1/29/2021 10:00:00 AM 0.04 32.072 0.126 7.02 64.36 15.06
1/29/2021 10:15:00 AM 0.05 32.09 0.125 7.03 64.37 15.06
1/29/2021 10:30:00 AM 0.06 32.108 0.125 7.02 64.36 15.06
1/29/2021 10:45:00 AM 0.05 32.09 0.125 7.02 64.42 15.07
1/29/2021 11:00:00 AM 0.06 32.108 0.125 7.02 64.3 15.06
1/29/2021 11:15:00 AM 0.04 32.072 0.125 7.02 64.33 15.07
1/29/2021 11:30:00 AM 0.04 32.072 0.125 7.03 64.27 15.07
1/29/2021 11:45:00 AM 0.05 32.09 0.124 7.04 64.26 15.06
1/29/2021 12:00:00 PM 0.05 32.09 0.124 7.04 64.24 15.07
1/29/2021 12:15:00 PM 0.07 32.126 0.124 7.05 64.31 15.05
1/29/2021 12:30:00 PM 0.06 32.108 0.123 7.04 64.23 15.05
1/29/2021 12:45:00 PM 0.05 32.09 0.123 7.05 64.22 15.05
1/29/2021 1:00:00 PM 0.05 32.09 0.122 7.07 64.21 15.05
1/29/2021 1:15:00 PM 0.04 32.072 0.122 7.02 64.19 15.04
1/29/2021 1:30:00 PM 0.04 32.072 0.122 7.04 64.18 15.04
1/29/2021 1:45:00 PM 0.03 32.054 0.121 7.04 64.2 15.04
1/29/2021 2:00:00 PM 0.02 32.036 0.121 7.04 64.16 15.04
1/29/2021 2:15:00 PM 0.01 32.018 0.121 7.04 64.2 15.04
1/29/2021 2:30:00 PM 0.03 32.054 0.12 7.03 64.16 15.04
1/29/2021 2:45:00 PM 0.02 32.036 0.12 7.03 64.18 15.04
1/29/2021 3:00:00 PM 0 32 0.12 7.04 64.19 15.04
1/29/2021 3:15:00 PM 0 32 0.12 7.05 64.21 15.04
1/29/2021 3:30:00 PM 0 32 0.12 7.03 64.19 15.04
1/29/2021 3:45:00 PM 0 32 0.12 7.02 64.17 15.04
1/29/2021 4:00:00 PM 0.01 32.018 0.12 7.04 64.17 15.04
1/29/2021 4:15:00 PM 0 32 0.12 7.05 64.14 15.05
1/29/2021 4:30:00 PM -0.01 31.982 0.12 7.04 64.16 15.03
1/29/2021 4:45:00 PM -0.02 31.964 0.12 7.04 64.22 15.01
1/29/2021 5:00:00 PM -0.02 31.964 0.12 7.04 64.2 14.99
1/29/2021 5:15:00 PM -0.03 31.946 0.12 7.04 64.18 14.97
1/29/2021 5:30:00 PM -0.02 31.964 0.12 7.04 64.17 14.95
1/29/2021 5:45:00 PM -0.02 31.964 0.12 7.04 64.19 14.94
1/29/2021 6:00:00 PM -0.02 31.964 0.12 7.04 64.14 14.93
1/29/2021 6:15:00 PM -0.03 31.946 0.12 7.05 64.11 14.92
1/29/2021 6:30:00 PM -0.02 31.964 0.12 7.05 64.11 14.92
1/29/2021 6:45:00 PM -0.01 31.982 0.121 7.04 64.16 14.91
1/29/2021 7:00:00 PM -0.01 31.982 0.121 7.05 64.2 14.9
1/29/2021 7:15:00 PM -0.01 31.982 0.121 7.05 64.14 14.91
1/29/2021 7:30:00 PM -0.01 31.982 0.121 7.05 64.1 14.9
1/29/2021 7:45:00 PM -0.02 31.964 0.121 7.05 64.15 14.91
1/29/2021 8:00:00 PM -0.02 31.964 0.121 7.05 64.19 14.91
1/29/2021 8:15:00 PM -0.01 31.982 0.121 7.06 64.17 14.91
1/29/2021 8:30:00 PM -0.01 31.982 0.121 7.04 64.18 14.9
1/29/2021 8:45:00 PM 0 32 0.121 7.05 64.15 14.9
1/29/2021 9:00:00 PM -0.01 31.982 0.121 7.05 64.17 14.89
1/29/2021 9:15:00 PM 0 32 0.121 7.05 64.2 14.88
1/29/2021 9:30:00 PM 0 32 0.121 7.05 64.16 14.88
1/29/2021 9:45:00 PM 0 32 0.121 7.05 64.18 14.89
1/29/2021 10:00:00 PM 0 32 0.121 7.05 64.17 14.88
1/29/2021 10:15:00 PM 0 32 0.121 7.05 64.12 14.88
1/29/2021 10:30:00 PM 0 32 0.121 7.05 64.06 14.88
1/29/2021 10:45:00 PM 0 32 0.121 7.05 64.1 14.88
1/29/2021 11:00:00 PM 0 32 0.121 7.05 64.12 14.88
1/29/2021 11:15:00 PM 0 32 0.121 7.05 64.13 14.88
1/29/2021 11:30:00 PM 0.01 32.018 0.121 7.05 64.17 14.88
1/29/2021 11:45:00 PM 0 32 0.121 7.05 64.19 14.87
1/30/2021 12:00:00 AM 0 32 0.121 7.05 64.21 14.88
1/30/2021 12:15:00 AM 0 32 0.121 7.05 64.17 14.87
1/30/2021 12:30:00 AM 0 32 0.121 7.05 64.11 14.87
1/30/2021 12:45:00 AM 0 32 0.121 7.05 64.11 14.87
1/30/2021 1:00:00 AM 0.01 32.018 0.121 7.05 64.15 14.86
1/30/2021 1:15:00 AM 0 32 0.121 7.05 64.16 14.86
1/30/2021 1:30:00 AM 0 32 0.121 7.03 64.14 14.87
1/30/2021 1:45:00 AM 0 32 0.121 7.05 64.11 14.87
1/30/2021 2:00:00 AM 0 32 0.121 7.05 64.17 14.87
1/30/2021 2:15:00 AM -0.01 31.982 0.121 7.04 64.15 14.87
1/30/2021 2:30:00 AM 0 32 0.122 7.04 64.11 14.87
1/30/2021 2:45:00 AM 0 32 0.122 7.04 64.14 14.87
1/30/2021 3:00:00 AM 0 32 0.122 7.04 64.16 14.87
1/30/2021 3:15:00 AM 0 32 0.122 7.04 64.12 14.87
1/30/2021 3:30:00 AM 0 32 0.122 7.03 64.15 14.87
1/30/2021 3:45:00 AM 0 32 0.122 7.04 64.16 14.87
1/30/2021 4:00:00 AM 0 32 0.122 7.04 64.15 14.88
1/30/2021 4:15:00 AM 0 32 0.122 7.04 64.13 14.87
1/30/2021 4:30:00 AM -0.01 31.982 0.122 7.03 64.14 14.88
1/30/2021 4:45:00 AM 0 32 0.122 7.04 64.14 14.88
1/30/2021 5:00:00 AM -0.01 31.982 0.122 7.04 64.15 14.88
1/30/2021 5:15:00 AM -0.01 31.982 0.122 7.04 64.11 14.88
1/30/2021 5:30:00 AM -0.01 31.982 0.123 7.03 64.07 14.88
1/30/2021 5:45:00 AM -0.02 31.964 0.123 7.04 64.07 14.89
1/30/2021 6:00:00 AM -0.01 31.982 0.123 7.04 64.09 14.89
1/30/2021 6:15:00 AM -0.01 31.982 0.123 7.04 64.11 14.89
1/30/2021 6:30:00 AM -0.01 31.982 0.123 7.04 64.1 14.89
1/30/2021 6:45:00 AM -0.01 31.982 0.123 7.03 64.04 14.89
1/30/2021 7:00:00 AM -0.01 31.982 0.123 7.04 63.93 14.9
1/30/2021 7:15:00 AM -0.01 31.982 0.123 7.05 64 14.9
1/30/2021 7:30:00 AM -0.02 31.964 0.123 7.04 64.06 14.92
1/30/2021 7:45:00 AM -0.02 31.964 0.123 7.04 64.07 14.94
1/30/2021 8:00:00 AM -0.02 31.964 0.124 7.04 64.08 14.97
1/30/2021 8:15:00 AM -0.02 31.964 0.124 7.04 64.09 14.99
1/30/2021 8:30:00 AM -0.01 31.982 0.124 7.04 64.07 15.02
1/30/2021 8:45:00 AM -0.01 31.982 0.124 7.05 64.07 15.04
1/30/2021 9:00:00 AM -0.01 31.982 0.123 7.04 64.06 15.07
1/30/2021 9:15:00 AM 0 32 0.123 7.05 64.03 15.08
1/30/2021 9:30:00 AM 0.01 32.018 0.123 7.04 64.09 15.1
1/30/2021 9:45:00 AM 0.03 32.054 0.123 7.05 64.13 15.1
1/30/2021 10:00:00 AM 0.05 32.09 0.123 7.05 64.11 15.12
1/30/2021 10:15:00 AM 0.06 32.108 0.123 7.04 64.19 15.12
1/30/2021 10:30:00 AM 0.08 32.144 0.123 7.05 64.15 15.13
1/30/2021 10:45:00 AM 0.09 32.162 0.123 7.05 64.12 15.12
1/30/2021 11:00:00 AM 0.1 32.18 0.123 7.05 64.14 15.12
1/30/2021 11:15:00 AM 0.11 32.198 0.123 7.05 64.18 15.12
1/30/2021 11:30:00 AM 0.11 32.198 0.123 7.05 64.15 15.12
1/30/2021 11:45:00 AM 0.11 32.198 0.123 7.05 64.18 15.11
1/30/2021 12:00:00 PM 0.12 32.216 0.123 7.05 64.18 15.11
1/30/2021 12:15:00 PM 0.11 32.198 0.122 7.05 64.15 15.1
1/30/2021 12:30:00 PM 0.09 32.162 0.123 7.05 64.08 15.1
1/30/2021 12:45:00 PM 0.08 32.144 0.123 7.04 64.02 15.1
1/30/2021 1:00:00 PM 0.07 32.126 0.123 7.04 63.98 15.1
1/30/2021 1:15:00 PM 0.07 32.126 0.124 7.04 64.08 15.1
1/30/2021 1:30:00 PM 0.07 32.126 0.124 7.06 64.07 15.09
1/30/2021 1:45:00 PM 0.06 32.108 0.124 6.99 64.01 15.1
1/30/2021 2:00:00 PM 0.04 32.072 0.124 7.04 64.02 15.09
1/30/2021 2:15:00 PM 0.04 32.072 0.124 7.04 64.06 15.08
1/30/2021 2:30:00 PM 0.03 32.054 0.124 7.04 63.98 15.08
1/30/2021 2:45:00 PM 0.02 32.036 0.124 7.03 63.84 15.07
1/30/2021 3:00:00 PM 0.01 32.018 0.124 7.04 63.83 15.05
1/30/2021 3:15:00 PM 0.01 32.018 0.123 7.04 63.81 15.05
1/30/2021 3:30:00 PM 0 32 0.122 7.04 63.91 15.05
1/30/2021 3:45:00 PM 0 32 0.122 7.06 63.87 15.03
1/30/2021 4:00:00 PM 0 32 0.122 7.05 63.85 15.03
1/30/2021 4:15:00 PM 0 32 0.121 7.04 63.87 15.02
1/30/2021 4:30:00 PM 0 32 0.121 7.05 63.9 15
1/30/2021 4:45:00 PM 0 32 0.121 7.05 63.9 14.98
1/30/2021 5:00:00 PM 0 32 0.121 7.05 63.95 14.97
1/30/2021 5:15:00 PM 0 32 0.121 7.05 63.97 14.95
1/30/2021 5:30:00 PM 0 32 0.121 7.06 63.99 14.93
1/30/2021 5:45:00 PM -0.01 31.982 0.121 7.06 63.99 14.91
1/30/2021 6:00:00 PM -0.01 31.982 0.122 7.06 63.99 14.9
1/30/2021 6:15:00 PM -0.01 31.982 0.122 7.06 63.99 14.9
1/30/2021 6:30:00 PM -0.01 31.982 0.122 7.05 64.01 14.9
1/30/2021 6:45:00 PM -0.02 31.964 0.122 7.05 63.97 14.9
1/30/2021 7:00:00 PM -0.01 31.982 0.122 7.06 63.95 14.91
1/30/2021 7:15:00 PM -0.02 31.964 0.122 7.03 63.95 14.92
1/30/2021 7:30:00 PM -0.02 31.964 0.122 7.05 63.96 14.93
1/30/2021 7:45:00 PM -0.02 31.964 0.123 7.04 64.01 14.92
1/30/2021 8:00:00 PM -0.03 31.946 0.123 7.04 64 14.94
1/30/2021 8:15:00 PM -0.03 31.946 0.123 7.05 63.99 14.94
1/30/2021 8:30:00 PM -0.03 31.946 0.123 7.04 64.01 14.94
1/30/2021 8:45:00 PM -0.03 31.946 0.123 7.06 64.02 14.95
1/30/2021 9:00:00 PM -0.03 31.946 0.123 7.04 64.01 14.94
1/30/2021 9:15:00 PM -0.03 31.946 0.123 7.04 64.02 14.94
1/30/2021 9:30:00 PM -0.03 31.946 0.124 7.04 64.02 14.95
1/30/2021 9:45:00 PM -0.03 31.946 0.124 7.05 64.06 14.94
1/30/2021 10:00:00 PM -0.03 31.946 0.124 7.05 64.05 14.94
1/30/2021 10:15:00 PM -0.03 31.946 0.124 7.06 64.09 14.94
1/30/2021 10:30:00 PM -0.03 31.946 0.124 7.05 64.11 14.95
1/30/2021 10:45:00 PM -0.03 31.946 0.125 7.05 64.12 14.94
1/30/2021 11:00:00 PM -0.03 31.946 0.125 7.07 64.1 14.94
1/30/2021 11:15:00 PM -0.03 31.946 0.125 7.02 64.18 14.94
1/30/2021 11:30:00 PM -0.03 31.946 0.125 7.05 64.14 14.93
1/30/2021 11:45:00 PM -0.03 31.946 0.125 7.04 64.11 14.93
1/31/2021 12:00:00 AM -0.03 31.946 0.125 7.07 64.15 14.94
1/31/2021 12:15:00 AM -0.03 31.946 0.125 7.04 64.14 14.94
1/31/2021 12:30:00 AM -0.03 31.946 0.125 7.05 64.17 14.93
1/31/2021 12:45:00 AM -0.03 31.946 0.125 7.05 64.12 14.92
1/31/2021 1:00:00 AM -0.03 31.946 0.126 7.04 64.13 14.92
1/31/2021 1:15:00 AM -0.03 31.946 0.126 7.04 64.1 14.92
1/31/2021 1:30:00 AM -0.03 31.946 0.126 7.05 64.07 14.92
1/31/2021 1:45:00 AM -0.03 31.946 0.126 7.04 64.16 14.91
1/31/2021 2:00:00 AM -0.02 31.964 0.126 7.05 64.12 14.91
1/31/2021 2:15:00 AM -0.02 31.964 0.126 7.06 64.05 14.91
1/31/2021 2:30:00 AM -0.01 31.982 0.126 7.04 64.11 14.9
1/31/2021 2:45:00 AM -0.02 31.964 0.126 7.06 64.1 14.89
1/31/2021 3:00:00 AM -0.01 31.982 0.126 7.01 64.14 14.88
1/31/2021 3:15:00 AM 0 32 0.127 7.07 64.19 14.88
1/31/2021 3:30:00 AM 0 32 0.127 7.01 64.19 14.87
1/31/2021 3:45:00 AM 0 32 0.127 7.06 64.17 14.87
1/31/2021 4:00:00 AM 0 32 0.127 7.04 64.11 14.87
1/31/2021 4:15:00 AM 0 32 0.127 7.06 64.14 14.87
1/31/2021 4:30:00 AM -0.01 31.982 0.127 7.06 64.16 14.87
1/31/2021 4:45:00 AM -0.01 31.982 0.127 7.05 64.16 14.87
1/31/2021 5:00:00 AM -0.01 31.982 0.127 7.06 64.14 14.87
1/31/2021 5:15:00 AM -0.01 31.982 0.127 7.08 64.17 14.88
1/31/2021 5:30:00 AM -0.01 31.982 0.127 7.07 64.27 14.88
1/31/2021 5:45:00 AM -0.01 31.982 0.127 7.06 64.21 14.87
1/31/2021 6:00:00 AM -0.01 31.982 0.127 7.05 64.25 14.86
1/31/2021 6:15:00 AM -0.01 31.982 0.127 7.06 64.26 14.87
1/31/2021 6:30:00 AM -0.01 31.982 0.127 7.05 64.34 14.87
1/31/2021 6:45:00 AM -0.01 31.982 0.127 7.07 64.33 14.86
1/31/2021 7:00:00 AM -0.01 31.982 0.127 7.05 64.35 14.86
1/31/2021 7:15:00 AM -0.01 31.982 0.127 7.07 64.29 14.86
1/31/2021 7:30:00 AM -0.01 31.982 0.127 7.01 64.3 14.86
1/31/2021 7:45:00 AM -0.01 31.982 0.127 7.06 64.3 14.88
1/31/2021 8:00:00 AM -0.01 31.982 0.127 7.04 64.27 14.9
1/31/2021 8:15:00 AM 0 32 0.127 7.04 64.28 14.93
1/31/2021 8:30:00 AM 0 32 0.127 7.04 64.31 14.95
1/31/2021 8:45:00 AM 0 32 0.127 7.04 64.31 14.98
1/31/2021 9:00:00 AM 0 32 0.127 7.05 64.31 15.01
1/31/2021 9:15:00 AM 0.02 32.036 0.127 7.03 64.32 15.04
1/31/2021 9:30:00 AM 0.02 32.036 0.127 7.04 64.28 15.05
1/31/2021 9:45:00 AM 0.02 32.036 0.127 7.04 64.3 15.07
1/31/2021 10:00:00 AM 0.01 32.018 0.126 7.04 64.24 15.07
1/31/2021 10:15:00 AM 0.01 32.018 0.126 7.04 64.24 15.07
1/31/2021 10:30:00 AM 0.02 32.036 0.126 7.04 64.25 15.07
1/31/2021 10:45:00 AM 0.02 32.036 0.126 7.05 64.17 15.07
1/31/2021 11:00:00 AM 0.02 32.036 0.126 7.05 64.18 15.07
1/31/2021 11:15:00 AM 0.02 32.036 0.126 7.05 64.19 15.08
1/31/2021 11:30:00 AM 0.02 32.036 0.126 7.06 64.21 15.09
1/31/2021 11:45:00 AM 0.02 32.036 0.125 7.06 64.11 15.08
1/31/2021 12:00:00 PM 0.02 32.036 0.125 7.06 64.2 15.08
1/31/2021 12:15:00 PM 0.02 32.036 0.125 7.07 64.11 15.09
1/31/2021 12:30:00 PM 0.02 32.036 0.125 7.07 64 15.09
1/31/2021 12:45:00 PM 0.02 32.036 0.124 7.07 63.96 15.09
1/31/2021 1:00:00 PM 0.03 32.054 0.124 7.07 63.92 15.08
1/31/2021 1:15:00 PM 0.04 32.072 0.124 7.07 63.88 15.08
1/31/2021 1:30:00 PM 0.04 32.072 0.124 7.09 63.91 15.07
1/31/2021 1:45:00 PM 0.03 32.054 0.124 7.07 63.81 15.06
1/31/2021 2:00:00 PM 0.02 32.036 0.124 7.07 63.81 15.05
1/31/2021 2:15:00 PM 0.03 32.054 0.123 7.07 63.75 15.05
1/31/2021 2:30:00 PM 0.03 32.054 0.123 7.06 63.83 15.03
1/31/2021 2:45:00 PM 0.02 32.036 0.123 7.08 63.78 15.02
1/31/2021 3:00:00 PM 0.01 32.018 0.123 7.07 63.78 15.01
1/31/2021 3:15:00 PM 0.02 32.036 0.123 7.08 63.7 15.01
1/31/2021 3:30:00 PM 0.02 32.036 0.123 7.08 63.69 14.99
1/31/2021 3:45:00 PM 0.02 32.036 0.123 7.08 63.72 14.97
1/31/2021 4:00:00 PM 0.02 32.036 0.123 7.08 63.72 14.95
1/31/2021 4:15:00 PM 0.02 32.036 0.122 7.08 63.77 14.95
1/31/2021 4:30:00 PM 0.02 32.036 0.122 7.08 63.76 14.93
1/31/2021 4:45:00 PM 0.01 32.018 0.122 7.08 63.82 14.92
1/31/2021 5:00:00 PM 0.02 32.036 0.122 7.09 63.83 14.88
1/31/2021 5:15:00 PM 0.02 32.036 0.122 7.09 63.87 14.87
1/31/2021 5:30:00 PM 0.01 32.018 0.122 7.08 63.89 14.84
1/31/2021 5:45:00 PM 0.01 32.018 0.122 7.08 63.87 14.83
1/31/2021 6:00:00 PM 0.01 32.018 0.122 7.08 63.9 14.82
1/31/2021 6:15:00 PM 0.01 32.018 0.122 7.08 63.89 14.81
1/31/2021 6:30:00 PM 0.01 32.018 0.122 7.07 63.84 14.81
1/31/2021 6:45:00 PM 0.01 32.018 0.122 7.07 63.83 14.81
1/31/2021 7:00:00 PM 0.01 32.018 0.122 7.08 63.78 14.81
1/31/2021 7:15:00 PM 0 32 0.122 7.08 63.84 14.8
1/31/2021 7:30:00 PM -0.01 31.982 0.122 7.08 63.84 14.81
1/31/2021 7:45:00 PM -0.01 31.982 0.122 7.08 63.86 14.81
1/31/2021 8:00:00 PM -0.01 31.982 0.122 7.08 63.87 14.81
1/31/2021 8:15:00 PM -0.01 31.982 0.122 7.08 63.87 14.81
1/31/2021 8:30:00 PM -0.01 31.982 0.122 7.07 63.94 14.82
1/31/2021 8:45:00 PM -0.01 31.982 0.122 7.08 63.91 14.81
1/31/2021 9:00:00 PM -0.01 31.982 0.122 7.08 63.86 14.81
1/31/2021 9:15:00 PM 0 32 0.122 7.08 63.81 14.81
1/31/2021 9:30:00 PM -0.01 31.982 0.122 7.08 63.86 14.81
1/31/2021 9:45:00 PM -0.01 31.982 0.122 7.08 63.86 14.81
1/31/2021 10:00:00 PM -0.01 31.982 0.122 7.08 63.88 14.8
1/31/2021 10:15:00 PM 0 32 0.122 7.08 63.92 14.81
1/31/2021 10:30:00 PM 0 32 0.122 7.1 63.89 14.8
1/31/2021 10:45:00 PM -0.01 31.982 0.122 7.07 63.97 14.8
1/31/2021 11:00:00 PM -0.02 31.964 0.122 7.08 63.98 14.8
1/31/2021 11:15:00 PM -0.01 31.982 0.122 7.08 63.93 14.79
1/31/2021 11:30:00 PM -0.02 31.964 0.122 7.08 63.8 14.8
1/31/2021 11:45:00 PM -0.02 31.964 0.122 7.09 63.81 14.8
2/1/2021 12:00:00 AM -0.02 31.964 0.122 7.08 63.9 14.8
2/1/2021 12:15:00 AM -0.01 31.982 0.122 7.09 63.93 14.8
2/1/2021 12:30:00 AM -0.01 31.982 0.122 7.08 63.97 14.8
2/1/2021 12:45:00 AM -0.01 31.982 0.122 7.09 64.17 14.79
2/1/2021 1:00:00 AM -0.02 31.964 0.122 7.08 64.09 14.79
2/1/2021 1:15:00 AM -0.01 31.982 0.122 7.08 64.09 14.79
2/1/2021 1:30:00 AM -0.01 31.982 0.122 7.08 64.16 14.79
2/1/2021 1:45:00 AM -0.01 31.982 0.122 7.08 64.12 14.79
2/1/2021 2:00:00 AM -0.01 31.982 0.122 7.08 64.11 14.78
2/1/2021 2:15:00 AM -0.01 31.982 0.122 7.08 64.1 14.79
2/1/2021 2:30:00 AM -0.01 31.982 0.122 7.08 64.13 14.78
2/1/2021 2:45:00 AM -0.01 31.982 0.122 7.08 64.05 14.79
2/1/2021 3:00:00 AM -0.02 31.964 0.122 7.08 63.99 14.78
2/1/2021 3:15:00 AM -0.02 31.964 0.122 7.08 64.14 14.78
2/1/2021 3:30:00 AM -0.02 31.964 0.122 7.08 64.13 14.78
2/1/2021 3:45:00 AM -0.02 31.964 0.122 7.08 64.27 14.78
2/1/2021 4:00:00 AM -0.02 31.964 0.122 7.08 64.2 14.78
2/1/2021 4:15:00 AM -0.02 31.964 0.122 7.08 64.24 14.77
2/1/2021 4:30:00 AM -0.02 31.964 0.122 7.08 64.26 14.77
2/1/2021 4:45:00 AM -0.03 31.946 0.122 7.08 64.26 14.78
2/1/2021 5:00:00 AM -0.02 31.964 0.122 7.08 64.17 14.77
2/1/2021 5:15:00 AM -0.02 31.964 0.122 7.08 64 14.78
2/1/2021 5:30:00 AM -0.02 31.964 0.122 7.08 63.92 14.77
2/1/2021 5:45:00 AM -0.02 31.964 0.122 7.08 63.96 14.77
2/1/2021 6:00:00 AM -0.02 31.964 0.122 7.07 63.92 14.77
2/1/2021 6:15:00 AM -0.02 31.964 0.122 7.08 63.92 14.78
2/1/2021 6:30:00 AM -0.03 31.946 0.122 7.08 63.93 14.77
2/1/2021 6:45:00 AM -0.03 31.946 0.122 7.07 63.97 14.78
2/1/2021 7:00:00 AM -0.03 31.946 0.122 7.07 63.95 14.78
2/1/2021 7:15:00 AM -0.03 31.946 0.122 7.07 63.94 14.78
2/1/2021 7:30:00 AM -0.03 31.946 0.122 7.07 63.85 14.78
2/1/2021 7:45:00 AM -0.02 31.964 0.122 7.09 63.87 14.79
2/1/2021 8:00:00 AM -0.03 31.946 0.122 7.07 63.89 14.79
2/1/2021 8:15:00 AM -0.03 31.946 0.122 7.07 63.91 14.81
2/1/2021 8:30:00 AM -0.02 31.964 0.122 7.12 63.92 14.82
2/1/2021 8:45:00 AM -0.02 31.964 0.122 7.05 63.97 14.82
2/1/2021 9:00:00 AM -0.02 31.964 0.122 7.08 63.95 14.84
2/1/2021 9:15:00 AM -0.02 31.964 0.122 7.08 63.97 14.84
2/1/2021 9:30:00 AM -0.01 31.982 0.122 7.09 63.98 14.85
2/1/2021 9:45:00 AM -0.02 31.964 0.122 7.09 63.89 14.86
2/1/2021 10:00:00 AM -0.02 31.964 0.122 7.09 63.89 14.87
2/1/2021 10:15:00 AM -0.01 31.982 0.122 7.09 63.85 14.87
2/1/2021 10:30:00 AM -0.01 31.982 0.122 7.09 63.86 14.87
2/1/2021 10:45:00 AM -0.01 31.982 0.122 7.09 63.89 14.88
2/1/2021 11:00:00 AM -0.01 31.982 0.121 7.09 63.93 14.88
2/1/2021 11:15:00 AM -0.01 31.982 0.121 7.09 63.94 14.88
2/1/2021 11:30:00 AM -0.01 31.982 0.121 7.1 63.88 14.88
2/1/2021 11:45:00 AM 0 32 0.121 7.1 63.9 14.87
2/1/2021 12:00:00 PM 0 32 0.121 7.1 63.89 14.87
2/1/2021 12:15:00 PM 0 32 0.121 7.1 63.92 14.86
2/1/2021 12:30:00 PM 0 32 0.121 7.1 63.89 14.87
2/1/2021 12:45:00 PM -0.01 31.982 0.12 7.1 63.89 14.87
2/1/2021 1:00:00 PM -0.01 31.982 0.12 7.1 63.87 14.87
2/1/2021 1:15:00 PM 0 32 0.12 7.1 63.83 14.87
2/1/2021 1:30:00 PM -0.01 31.982 0.12 7.09 63.86 14.85
2/1/2021 1:45:00 PM 0 32 0.12 7.08 63.95 14.85
2/1/2021 2:00:00 PM -0.01 31.982 0.12 7.09 64.01 14.85
2/1/2021 2:15:00 PM -0.01 31.982 0.12 7.08 64.05 14.85
2/1/2021 2:30:00 PM 0 32 0.12 7.09 64.07 14.84
2/1/2021 2:45:00 PM -0.01 31.982 0.12 7.1 64.01 14.84
2/1/2021 3:00:00 PM 0 32 0.119 7.09 64.06 14.84
2/1/2021 3:15:00 PM 0 32 0.119 7.09 64.09 14.83
2/1/2021 3:30:00 PM 0 32 0.119 7.09 64.16 14.82
2/1/2021 3:45:00 PM 0 32 0.119 7.09 64.12 14.82
2/1/2021 4:00:00 PM 0 32 0.119 7.09 64.13 14.81
2/1/2021 4:15:00 PM -0.01 31.982 0.119 7.08 64.14 14.8
2/1/2021 4:30:00 PM -0.02 31.964 0.119 7.08 64.1 14.79
2/1/2021 4:45:00 PM -0.02 31.964 0.119 7.08 64.09 14.77
2/1/2021 5:00:00 PM -0.02 31.964 0.119 7.08 64.09 14.76
2/1/2021 5:15:00 PM -0.02 31.964 0.118 7.07 64.15 14.74
2/1/2021 5:30:00 PM -0.02 31.964 0.118 7.07 64.16 14.73
2/1/2021 5:45:00 PM -0.02 31.964 0.118 7.07 64.15 14.73
2/1/2021 6:00:00 PM -0.02 31.964 0.118 7.06 64.22 14.73
2/1/2021 6:15:00 PM -0.02 31.964 0.118 7.07 64.24 14.72
2/1/2021 6:30:00 PM -0.03 31.946 0.118 7.06 64.26 14.72
2/1/2021 6:45:00 PM -0.03 31.946 0.118 7.06 64.28 14.73
2/1/2021 7:00:00 PM -0.03 31.946 0.118 7.06 64.34 14.73
2/1/2021 7:15:00 PM -0.03 31.946 0.118 7.06 64.38 14.72
2/1/2021 7:30:00 PM -0.03 31.946 0.118 7.06 64.34 14.73
2/1/2021 7:45:00 PM -0.03 31.946 0.118 7.06 64.35 14.72
2/1/2021 8:00:00 PM -0.03 31.946 0.118 7.05 64.35 14.72
2/1/2021 8:15:00 PM -0.03 31.946 0.118 7.05 64.36 14.72
2/1/2021 8:30:00 PM -0.03 31.946 0.117 7.05 64.39 14.72
2/1/2021 8:45:00 PM -0.03 31.946 0.117 7.06 64.48 14.72
2/1/2021 9:00:00 PM -0.03 31.946 0.117 7.05 64.54 14.71
2/1/2021 9:15:00 PM -0.03 31.946 0.117 7.05 64.52 14.71
2/1/2021 9:30:00 PM -0.04 31.928 0.117 7.06 64.53 14.72
2/1/2021 9:45:00 PM -0.04 31.928 0.117 7.05 64.46 14.72
2/1/2021 10:00:00 PM -0.04 31.928 0.117 7.05 64.55 14.71
2/1/2021 10:15:00 PM -0.03 31.946 0.117 7.04 64.6 14.71
2/1/2021 10:30:00 PM -0.04 31.928 0.117 7.04 64.61 14.7
2/1/2021 10:45:00 PM -0.03 31.946 0.118 7.04 64.57 14.71
2/1/2021 11:00:00 PM -0.04 31.928 0.118 7.03 64.62 14.69
2/1/2021 11:15:00 PM -0.03 31.946 0.118 7.03 64.54 14.69
2/1/2021 11:30:00 PM -0.03 31.946 0.118 7.03 64.53 14.68
2/1/2021 11:45:00 PM -0.02 31.964 0.118 7.03 64.53 14.67
2/2/2021 12:00:00 AM -0.03 31.946 0.118 7.03 64.52 14.67
2/2/2021 12:15:00 AM -0.02 31.964 0.118 7.03 64.51 14.66
2/2/2021 12:30:00 AM -0.03 31.946 0.118 7.03 64.54 14.65
2/2/2021 12:45:00 AM -0.03 31.946 0.118 7.03 64.56 14.64
2/2/2021 1:00:00 AM -0.03 31.946 0.118 7.02 64.56 14.63
2/2/2021 1:15:00 AM -0.03 31.946 0.118 7.03 64.51 14.64
2/2/2021 1:30:00 AM -0.03 31.946 0.118 7.03 64.51 14.63
2/2/2021 1:45:00 AM -0.03 31.946 0.118 7.03 64.45 14.63
2/2/2021 2:00:00 AM -0.02 31.964 0.118 7.03 64.44 14.62
2/2/2021 2:15:00 AM -0.02 31.964 0.118 7.02 64.43 14.63
2/2/2021 2:30:00 AM -0.02 31.964 0.118 7.02 64.45 14.62
2/2/2021 2:45:00 AM -0.02 31.964 0.119 7.01 64.44 14.63
2/2/2021 3:00:00 AM -0.03 31.946 0.119 7.02 64.5 14.62
2/2/2021 3:15:00 AM -0.03 31.946 0.119 7.02 64.46 14.61
2/2/2021 3:30:00 AM -0.03 31.946 0.119 7.02 64.49 14.62
2/2/2021 3:45:00 AM -0.03 31.946 0.119 7.01 64.48 14.62
2/2/2021 4:00:00 AM -0.03 31.946 0.119 7.01 64.53 14.61
2/2/2021 4:15:00 AM -0.03 31.946 0.119 7.01 64.54 14.61
2/2/2021 4:30:00 AM -0.03 31.946 0.118 7.01 64.5 14.62
2/2/2021 4:45:00 AM -0.04 31.928 0.118 7.01 64.56 14.61
2/2/2021 5:00:00 AM -0.03 31.946 0.118 7.01 64.42 14.61
2/2/2021 5:15:00 AM -0.03 31.946 0.118 7.01 64.33 14.6
2/2/2021 5:30:00 AM -0.03 31.946 0.118 7 64.32 14.6
2/2/2021 5:45:00 AM -0.04 31.928 0.118 7 64.31 14.61
2/2/2021 6:00:00 AM -0.05 31.91 0.118 6.98 64.18 14.62
2/2/2021 6:15:00 AM -0.05 31.91 0.118 6.99 64.21 14.61
2/2/2021 6:30:00 AM -0.04 31.928 0.118 7 64.36 14.6
2/2/2021 6:45:00 AM -0.05 31.91 0.118 7.02 64.36 14.6
2/2/2021 7:00:00 AM -0.04 31.928 0.118 7.02 64.33 14.59
2/2/2021 7:15:00 AM -0.05 31.91 0.118 7.03 63.94 14.6
2/2/2021 7:30:00 AM -0.04 31.928 0.118 7.02 64.08 14.6
2/2/2021 7:45:00 AM -0.04 31.928 0.117 7.02 63.69 14.59
2/2/2021 8:00:00 AM -0.04 31.928 0.117 7.02 63.76 14.61
2/2/2021 8:15:00 AM -0.03 31.946 0.117 7.02 63.82 14.64
2/2/2021 8:30:00 AM -0.03 31.946 0.117 7.02 63.79 14.64
2/2/2021 8:45:00 AM -0.02 31.964 0.117 7.02 63.78 14.65
2/2/2021 9:00:00 AM -0.02 31.964 0.117 7.02 63.8 14.67
2/2/2021 9:15:00 AM -0.03 31.946 0.117 7.02 63.8 14.69
2/2/2021 9:30:00 AM -0.03 31.946 0.117 7.03 63.92 14.7
2/2/2021 9:45:00 AM -0.02 31.964 0.116 7.03 63.94 14.7
2/2/2021 10:00:00 AM -0.01 31.982 0.116 7.03 63.93 14.7
2/2/2021 10:15:00 AM -0.02 31.964 0.116 7.04 63.93 14.72
2/2/2021 10:30:00 AM -0.01 31.982 0.116 7.05 63.94 14.72
2/2/2021 10:45:00 AM -0.01 31.982 0.116 7.05 63.94 14.73
2/2/2021 11:00:00 AM -0.01 31.982 0.116 7.04 63.9 14.73
2/2/2021 11:15:00 AM -0.02 31.964 0.116 7.05 63.82 14.73
2/2/2021 11:30:00 AM -0.01 31.982 0.115 7.04 63.8 14.74
2/2/2021 11:45:00 AM -0.01 31.982 0.115 7.05 63.72 14.74
2/2/2021 12:00:00 PM -0.01 31.982 0.115 7.05 63.72 14.74
2/2/2021 12:15:00 PM -0.02 31.964 0.115 7.06 63.67 14.74
2/2/2021 12:30:00 PM -0.01 31.982 0.115 7.06 63.67 14.74
2/2/2021 12:45:00 PM -0.01 31.982 0.115 7.06 63.65 14.74
2/2/2021 1:00:00 PM -0.01 31.982 0.115 7.06 63.51 14.74
2/2/2021 1:15:00 PM -0.01 31.982 0.114 7.07 63.51 14.73
2/2/2021 1:30:00 PM -0.01 31.982 0.114 7.07 63.54 14.73
2/2/2021 1:45:00 PM -0.01 31.982 0.114 7.07 63.57 14.73
2/2/2021 2:00:00 PM -0.01 31.982 0.114 7.07 63.66 14.73
2/2/2021 2:15:00 PM -0.01 31.982 0.114 7.07 63.63 14.73
2/2/2021 2:30:00 PM -0.02 31.964 0.114 7.07 63.42 14.73
2/2/2021 2:45:00 PM -0.02 31.964 0.114 7.08 63.4 14.72
2/2/2021 3:00:00 PM -0.02 31.964 0.114 7.07 63.47 14.72
2/2/2021 3:15:00 PM -0.02 31.964 0.113 7.1 63.24 14.72
2/2/2021 3:30:00 PM -0.02 31.964 0.114 7.02 63.25 14.72
2/2/2021 3:45:00 PM -0.02 31.964 0.114 7.08 63.19 14.72
2/2/2021 4:00:00 PM -0.02 31.964 0.113 7.08 63.23 14.73
2/2/2021 4:15:00 PM -0.03 31.946 0.113 7.08 63.29 14.72
2/2/2021 4:30:00 PM -0.03 31.946 0.114 7.08 63.25 14.71
2/2/2021 4:45:00 PM -0.03 31.946 0.114 7.07 63.16 14.7
2/2/2021 5:00:00 PM -0.03 31.946 0.114 7.08 63.23 14.68
2/2/2021 5:15:00 PM -0.04 31.928 0.113 7.09 63.22 14.66
2/2/2021 5:30:00 PM -0.03 31.946 0.113 7.02 63.24 14.64
2/2/2021 5:45:00 PM -0.04 31.928 0.114 7.07 63.24 14.63
2/2/2021 6:00:00 PM -0.04 31.928 0.115 7.05 63.2 14.63
2/2/2021 6:15:00 PM -0.04 31.928 0.114 7.08 63.2 14.62
2/2/2021 6:30:00 PM -0.03 31.946 0.114 7.07 63.15 14.61
2/2/2021 6:45:00 PM -0.03 31.946 0.114 7.04 63.19 14.62
2/2/2021 7:00:00 PM -0.03 31.946 0.114 7.07 63.24 14.62
2/2/2021 7:15:00 PM -0.03 31.946 0.113 6.99 63.24 14.61
2/2/2021 7:30:00 PM -0.04 31.928 0.113 7.02 63.2 14.61
2/2/2021 7:45:00 PM -0.03 31.946 0.113 7.04 63.21 14.61
2/2/2021 8:00:00 PM -0.03 31.946 0.114 7.05 63.16 14.61
2/2/2021 8:15:00 PM -0.04 31.928 0.114 7.06 63.3 14.61
2/2/2021 8:30:00 PM -0.04 31.928 0.114 6.99 63.13 14.6
2/2/2021 8:45:00 PM -0.03 31.946 0.114 7.04 63.2 14.6
2/2/2021 9:00:00 PM -0.04 31.928 0.114 7.04 63.2 14.6
2/2/2021 9:15:00 PM -0.03 31.946 0.114 7.04 63.24 14.61
2/2/2021 9:30:00 PM -0.04 31.928 0.114 7.03 63.23 14.6
2/2/2021 9:45:00 PM -0.03 31.946 0.114 7.04 63.17 14.6
2/2/2021 10:00:00 PM -0.04 31.928 0.114 7.04 63.23 14.61
2/2/2021 10:15:00 PM -0.04 31.928 0.115 7.04 63.2 14.6
2/2/2021 10:30:00 PM -0.03 31.946 0.115 7.04 63.2 14.6
2/2/2021 10:45:00 PM -0.04 31.928 0.115 7.04 63.15 14.6
2/2/2021 11:00:00 PM -0.03 31.946 0.115 7.04 63.27 14.6
2/2/2021 11:15:00 PM -0.03 31.946 0.115 7.04 63.17 14.6
2/2/2021 11:30:00 PM -0.03 31.946 0.115 7.04 63.13 14.6
2/2/2021 11:45:00 PM -0.03 31.946 0.115 7.05 63.14 14.6
2/3/2021 12:00:00 AM -0.03 31.946 0.115 7.05 63.13 14.6
2/3/2021 12:15:00 AM -0.02 31.964 0.115 7.06 63.15 14.59
2/3/2021 12:30:00 AM -0.03 31.946 0.115 7.05 63.1 14.59
2/3/2021 12:45:00 AM -0.03 31.946 0.115 7.05 63.17 14.59
2/3/2021 1:00:00 AM -0.02 31.964 0.116 7.05 63.19 14.6
2/3/2021 1:15:00 AM -0.03 31.946 0.116 7.05 63.18 14.59
2/3/2021 1:30:00 AM -0.02 31.964 0.116 7.05 63.23 14.59
2/3/2021 1:45:00 AM -0.03 31.946 0.116 7.05 63.27 14.59
2/3/2021 2:00:00 AM -0.02 31.964 0.116 7.05 63.42 14.58
2/3/2021 2:15:00 AM -0.03 31.946 0.116 7.05 63.52 14.58
2/3/2021 2:30:00 AM -0.02 31.964 0.116 7.05 63.52 14.59
2/3/2021 2:45:00 AM -0.02 31.964 0.116 7.05 63.49 14.58
2/3/2021 3:00:00 AM -0.02 31.964 0.116 7.05 63.47 14.58
2/3/2021 3:15:00 AM -0.02 31.964 0.116 7.06 63.51 14.58
2/3/2021 3:30:00 AM -0.02 31.964 0.116 7.06 63.48 14.57
2/3/2021 3:45:00 AM -0.03 31.946 0.116 7.06 63.43 14.58
2/3/2021 4:00:00 AM -0.02 31.964 0.116 7.06 63.38 14.58
2/3/2021 4:15:00 AM -0.02 31.964 0.116 7.06 63.39 14.58
2/3/2021 4:30:00 AM -0.02 31.964 0.116 7.06 63.45 14.58
2/3/2021 4:45:00 AM -0.02 31.964 0.116 7.06 63.47 14.58
2/3/2021 5:00:00 AM -0.02 31.964 0.116 7.06 63.54 14.58
2/3/2021 5:15:00 AM -0.02 31.964 0.116 7.06 63.61 14.58
2/3/2021 5:30:00 AM -0.02 31.964 0.116 7.06 63.61 14.58
2/3/2021 5:45:00 AM -0.02 31.964 0.116 7.06 63.61 14.59
2/3/2021 6:00:00 AM -0.02 31.964 0.116 7.06 63.54 14.59
2/3/2021 6:15:00 AM -0.02 31.964 0.116 7.06 63.65 14.58
2/3/2021 6:30:00 AM -0.02 31.964 0.116 7.06 63.6 14.59
2/3/2021 6:45:00 AM -0.02 31.964 0.116 7.06 63.59 14.59
2/3/2021 7:00:00 AM -0.02 31.964 0.116 7.06 63.57 14.59
2/3/2021 7:15:00 AM -0.02 31.964 0.116 7.07 63.54 14.59
2/3/2021 7:30:00 AM -0.02 31.964 0.116 7.06 63.41 14.6
2/3/2021 7:45:00 AM -0.02 31.964 0.116 7.09 63.44 14.61
2/3/2021 8:00:00 AM -0.01 31.982 0.116 7.03 63.39 14.63
2/3/2021 8:15:00 AM -0.01 31.982 0.116 7.06 63.39 14.66
2/3/2021 8:30:00 AM -0.01 31.982 0.116 7.07 63.38 14.68
2/3/2021 8:45:00 AM 0 32 0.116 7.08 63.38 14.69
2/3/2021 9:00:00 AM 0.01 32.018 0.116 7.09 63.36 14.7
2/3/2021 9:15:00 AM 0.01 32.018 0.116 7.1 63.19 14.72
2/3/2021 9:30:00 AM 0.01 32.018 0.116 7.03 63.08 14.73
2/3/2021 9:45:00 AM 0.02 32.036 0.116 7.09 63.12 14.74
2/3/2021 10:00:00 AM 0.02 32.036 0.116 7.1 62.95 14.73
2/3/2021 10:15:00 AM 0.02 32.036 0.115 7.1 62.93 14.74
2/3/2021 10:30:00 AM 0.03 32.054 0.115 7.1 63.23 14.73
2/3/2021 10:45:00 AM 0.03 32.054 0.115 7.11 63.3 14.73
2/3/2021 11:00:00 AM 0.03 32.054 0.115 7.11 63.33 14.72
2/3/2021 11:15:00 AM 0.03 32.054 0.115 7.11 63.35 14.73
2/3/2021 11:30:00 AM 0.05 32.09 0.115 7.12 63.37 14.72
2/3/2021 11:45:00 AM 0.05 32.09 0.115 7.12 63.43 14.72
2/3/2021 12:00:00 PM 0.05 32.09 0.115 7.12 63.33 14.72
2/3/2021 12:15:00 PM 0.06 32.108 0.115 7.12 63.37 14.71
2/3/2021 12:30:00 PM 0.05 32.09 0.115 7.12 63.11 14.7
2/3/2021 12:45:00 PM 0.05 32.09 0.115 7.12 62.89 14.7
2/3/2021 1:00:00 PM 0.05 32.09 0.115 7.13 62.79 14.7
2/3/2021 1:15:00 PM 0.05 32.09 0.115 7.13 62.71 14.69
2/3/2021 1:30:00 PM 0.04 32.072 0.115 7.13 62.83 14.69
2/3/2021 1:45:00 PM 0.04 32.072 0.115 7.13 63.06 14.7
2/3/2021 2:00:00 PM 0.06 32.108 0.115 7.13 62.86 14.7
2/3/2021 2:15:00 PM 0.06 32.108 0.115 7.13 62.87 14.7
2/3/2021 2:30:00 PM 0.04 32.072 0.115 7.13 63.01 14.7
2/3/2021 2:45:00 PM 0.05 32.09 0.115 7.13 63.06 14.69
2/3/2021 3:00:00 PM 0.04 32.072 0.115 7.12 63 14.7
2/3/2021 3:15:00 PM 0.04 32.072 0.115 7.12 63.05 14.7
2/3/2021 3:30:00 PM 0.04 32.072 0.115 7.12 63.02 14.71
2/3/2021 3:45:00 PM 0.04 32.072 0.115 7.13 63.09 14.71
2/3/2021 4:00:00 PM 0.04 32.072 0.115 7.13 63.16 14.71
2/3/2021 4:15:00 PM 0.04 32.072 0.115 7.13 63.14 14.71
2/3/2021 4:30:00 PM 0.04 32.072 0.115 7.13 63.21 14.71
2/3/2021 4:45:00 PM 0.04 32.072 0.115 7.13 63.25 14.7
2/3/2021 5:00:00 PM 0.03 32.054 0.115 7.13 63.35 14.68
2/3/2021 5:15:00 PM 0.03 32.054 0.115 7.12 63.3 14.67
2/3/2021 5:30:00 PM 0.04 32.072 0.115 7.12 63.3 14.65
2/3/2021 5:45:00 PM 0.04 32.072 0.115 7.12 63.23 14.65
2/3/2021 6:00:00 PM 0.04 32.072 0.116 7.11 63.22 14.63
2/3/2021 6:15:00 PM 0.04 32.072 0.116 7.1 63.26 14.64
2/3/2021 6:30:00 PM 0.04 32.072 0.116 7.1 63.27 14.63
2/3/2021 6:45:00 PM 0.04 32.072 0.116 7.09 63.24 14.63
2/3/2021 7:00:00 PM 0.05 32.09 0.116 7.09 63.17 14.64
2/3/2021 7:15:00 PM 0.05 32.09 0.116 7.09 63.16 14.63
2/3/2021 7:30:00 PM 0.05 32.09 0.116 7.09 62.84 14.62
2/3/2021 7:45:00 PM 0.05 32.09 0.116 7.09 62.93 14.62
2/3/2021 8:00:00 PM 0.06 32.108 0.116 7.09 62.78 14.62
2/3/2021 8:15:00 PM 0.06 32.108 0.116 7.09 62.97 14.62
2/3/2021 8:30:00 PM 0.06 32.108 0.116 7.09 62.98 14.62
2/3/2021 8:45:00 PM 0.05 32.09 0.116 7.09 63.08 14.62
2/3/2021 9:00:00 PM 0.05 32.09 0.116 7.08 63.22 14.62
2/3/2021 9:15:00 PM 0.06 32.108 0.116 7.09 62.98 14.61
2/3/2021 9:30:00 PM 0.06 32.108 0.116 7.09 63 14.62
2/3/2021 9:45:00 PM 0.05 32.09 0.116 7.09 63.08 14.62
2/3/2021 10:00:00 PM 0.05 32.09 0.117 7.09 63.01 14.62
2/3/2021 10:15:00 PM 0.05 32.09 0.117 7.1 62.95 14.62
2/3/2021 10:30:00 PM 0.05 32.09 0.117 7.1 63.02 14.62
2/3/2021 10:45:00 PM 0.04 32.072 0.117 7.1 63.07 14.63
2/3/2021 11:00:00 PM 0.03 32.054 0.117 7.09 63.06 14.64
2/3/2021 11:15:00 PM 0.03 32.054 0.117 7.09 63.19 14.65
2/3/2021 11:30:00 PM 0.04 32.072 0.117 7.1 63.09 14.65
2/3/2021 11:45:00 PM 0.04 32.072 0.117 7.11 63.24 14.65
2/4/2021 12:00:00 AM 0.04 32.072 0.117 7.1 63.24 14.66
2/4/2021 12:15:00 AM 0.04 32.072 0.118 7.1 63.32 14.65
2/4/2021 12:30:00 AM 0.04 32.072 0.118 7.11 63.33 14.65
2/4/2021 12:45:00 AM 0.04 32.072 0.118 7.11 63.29 14.65
2/4/2021 1:00:00 AM 0.03 32.054 0.118 7.12 63.32 14.65
2/4/2021 1:15:00 AM 0.03 32.054 0.118 7.12 63.29 14.66
2/4/2021 1:30:00 AM 0.02 32.036 0.118 7.12 63.29 14.66
2/4/2021 1:45:00 AM 0.02 32.036 0.118 7.11 63.31 14.65
2/4/2021 2:00:00 AM 0.02 32.036 0.118 7.12 63.31 14.65
2/4/2021 2:15:00 AM 0.02 32.036 0.118 7.12 63.23 14.67
2/4/2021 2:30:00 AM 0.02 32.036 0.118 7.12 63.27 14.68
2/4/2021 2:45:00 AM 0.01 32.018 0.118 7.12 63.35 14.68
2/4/2021 3:00:00 AM 0.02 32.036 0.118 7.11 63.36 14.69
2/4/2021 3:15:00 AM 0.02 32.036 0.118 7.11 63.36 14.69
2/4/2021 3:30:00 AM 0.03 32.054 0.118 7.11 63.35 14.68
2/4/2021 3:45:00 AM 0.03 32.054 0.118 7.13 63.35 14.68
2/4/2021 4:00:00 AM 0.03 32.054 0.119 7.07 63.36 14.68
2/4/2021 4:15:00 AM 0.02 32.036 0.119 7.11 63.33 14.67
2/4/2021 4:30:00 AM 0.01 32.018 0.119 7.1 63.28 14.69
2/4/2021 4:45:00 AM 0.01 32.018 0.119 7.12 63.26 14.69
2/4/2021 5:00:00 AM 0 32 0.119 7.11 63.21 14.69
2/4/2021 5:15:00 AM -0.01 31.982 0.119 7.12 63.28 14.71
2/4/2021 5:30:00 AM -0.01 31.982 0.119 7.12 63.28 14.72
2/4/2021 5:45:00 AM 0 32 0.119 7.11 63.3 14.72
2/4/2021 6:00:00 AM 0 32 0.119 7.11 63.31 14.73
2/4/2021 6:15:00 AM 0 32 0.119 7.12 63.28 14.72
2/4/2021 6:30:00 AM 0.01 32.018 0.119 7.1 63.3 14.72
2/4/2021 6:45:00 AM 0.02 32.036 0.119 7.11 63.27 14.72
2/4/2021 7:00:00 AM 0.02 32.036 0.119 7.11 63.17 14.72
2/4/2021 7:15:00 AM 0.02 32.036 0.119 7.11 63.22 14.74
2/4/2021 7:30:00 AM 0.03 32.054 0.119 7.11 63.23 14.73
2/4/2021 7:45:00 AM 0.03 32.054 0.119 7.11 63.24 14.76
2/4/2021 8:00:00 AM 0.04 32.072 0.119 7.12 63.27 14.77
2/4/2021 8:15:00 AM 0.05 32.09 0.119 7.11 63.26 14.79
2/4/2021 8:30:00 AM 0.07 32.126 0.119 7.12 63.33 14.82
2/4/2021 8:45:00 AM 0.07 32.126 0.119 7.12 63.38 14.82
2/4/2021 9:00:00 AM 0.08 32.144 0.119 7.12 63.38 14.83
2/4/2021 9:15:00 AM 0.11 32.198 0.119 7.12 63.4 14.84
2/4/2021 9:30:00 AM 0.12 32.216 0.118 7.13 63.45 14.84
2/4/2021 9:45:00 AM 0.14 32.252 0.118 7.13 63.5 14.84
2/4/2021 10:00:00 AM 0.17 32.306 0.119 7.13 63.51 14.85
2/4/2021 10:15:00 AM 0.2 32.36 0.119 7.13 63.54 14.84
2/4/2021 10:30:00 AM 0.22 32.396 0.119 7.13 63.47 14.84
2/4/2021 10:45:00 AM 0.23 32.414 0.118 7.14 63.38 14.85
2/4/2021 11:00:00 AM 0.24 32.432 0.118 7.14 63.35 14.84
2/4/2021 11:15:00 AM 0.25 32.45 0.118 7.13 63.47 14.86
2/4/2021 11:30:00 AM 0.28 32.504 0.118 7.13 63.55 14.85
2/4/2021 11:45:00 AM 0.3 32.54 0.119 7.12 63.61 14.83
2/4/2021 12:00:00 PM 0.32 32.576 0.119 7.13 63.67 14.81
2/4/2021 12:15:00 PM 0.35 32.63 0.118 7.12 63.64 14.8
2/4/2021 12:30:00 PM 0.37 32.666 0.118 7.13 63.59 14.78
2/4/2021 12:45:00 PM 0.38 32.684 0.118 7.13 63.54 14.76
2/4/2021 1:00:00 PM 0.41 32.738 0.118 7.13 63.59 14.74
2/4/2021 1:15:00 PM 0.43 32.774 0.118 7.13 63.6 14.71
2/4/2021 1:30:00 PM 0.46 32.828 0.118 7.13 63.64 14.7
2/4/2021 1:45:00 PM 0.47 32.846 0.118 7.14 63.64 14.69
2/4/2021 2:00:00 PM 0.5 32.9 0.117 7.13 63.56 14.66
2/4/2021 2:15:00 PM 0.51 32.918 0.117 7.17 63.54 14.65
2/4/2021 2:30:00 PM 0.52 32.936 0.117 7.12 63.53 14.64
2/4/2021 2:45:00 PM 0.55 32.99 0.117 7.14 63.55 14.61
2/4/2021 3:00:00 PM 0.56 33.008 0.117 7.14 63.55 14.59
2/4/2021 3:15:00 PM 0.57 33.026 0.117 7.13 63.61 14.57
2/4/2021 3:30:00 PM 0.59 33.062 0.117 7.15 63.68 14.55
2/4/2021 3:45:00 PM 0.6 33.08 0.117 7.13 63.64 14.54
2/4/2021 4:00:00 PM 0.63 33.134 0.117 7.13 63.67 14.51
2/4/2021 4:15:00 PM 0.64 33.152 0.116 7.12 63.78 14.49
2/4/2021 4:30:00 PM 0.66 33.188 0.116 7.13 63.78 14.48
2/4/2021 4:45:00 PM 0.66 33.188 0.116 7.13 63.88 14.47
2/4/2021 5:00:00 PM 0.66 33.188 0.116 7.13 63.76 14.46
2/4/2021 5:15:00 PM 0.63 33.134 0.116 7.13 63.71 14.46
2/4/2021 5:30:00 PM 0.61 33.098 0.117 7.12 63.65 14.45
2/4/2021 5:45:00 PM 0.57 33.026 0.116 7.11 63.7 14.45
2/4/2021 6:00:00 PM 0.52 32.936 0.116 7.11 63.68 14.46
2/4/2021 6:15:00 PM 0.46 32.828 0.117 7.1 63.64 14.49
2/4/2021 6:30:00 PM 0.4 32.72 0.117 7.09 63.71 14.52
2/4/2021 6:45:00 PM 0.35 32.63 0.117 7.1 63.64 14.55
2/4/2021 7:00:00 PM 0.29 32.522 0.117 7.09 63.67 14.57
2/4/2021 7:15:00 PM 0.24 32.432 0.117 7.08 63.66 14.6
2/4/2021 7:30:00 PM 0.2 32.36 0.117 7.08 63.67 14.61
2/4/2021 7:45:00 PM 0.16 32.288 0.117 7.09 63.67 14.64
2/4/2021 8:00:00 PM 0.12 32.216 0.118 7.08 63.64 14.64
2/4/2021 8:15:00 PM 0.1 32.18 0.118 7.08 63.58 14.67
2/4/2021 8:30:00 PM 0.07 32.126 0.118 7.07 63.66 14.67
2/4/2021 8:45:00 PM 0.06 32.108 0.118 7.08 63.57 14.68
2/4/2021 9:00:00 PM 0.05 32.09 0.118 7.08 63.61 14.69
2/4/2021 9:15:00 PM 0.04 32.072 0.118 7.08 63.64 14.69
2/4/2021 9:30:00 PM 0.03 32.054 0.118 7.08 63.62 14.69
2/4/2021 9:45:00 PM 0.02 32.036 0.118 7.08 63.68 14.69
2/4/2021 10:00:00 PM 0.01 32.018 0.118 7.08 63.74 14.7
2/4/2021 10:15:00 PM 0.01 32.018 0.118 7.08 63.69 14.69
2/4/2021 10:30:00 PM 0.01 32.018 0.118 7.08 63.62 14.69
2/4/2021 10:45:00 PM 0.01 32.018 0.118 7.09 63.68 14.7
2/4/2021 11:00:00 PM 0.01 32.018 0.118 7.09 63.74 14.69
2/4/2021 11:15:00 PM 0.01 32.018 0.118 7.09 63.71 14.69
2/4/2021 11:30:00 PM 0.02 32.036 0.118 7.09 63.68 14.68
2/4/2021 11:45:00 PM 0.03 32.054 0.118 7.09 63.65 14.68
2/5/2021 12:00:00 AM 0.04 32.072 0.118 7.1 63.7 14.67
2/5/2021 12:15:00 AM 0.05 32.09 0.118 7.11 63.7 14.66
2/5/2021 12:30:00 AM 0.06 32.108 0.118 7.06 63.72 14.64
2/5/2021 12:45:00 AM 0.07 32.126 0.119 7.09 63.73 14.64
2/5/2021 1:00:00 AM 0.08 32.144 0.119 7.09 63.76 14.63
2/5/2021 1:15:00 AM 0.1 32.18 0.119 7.12 63.77 14.62
2/5/2021 1:30:00 AM 0.12 32.216 0.119 7.01 63.74 14.61
2/5/2021 1:45:00 AM 0.13 32.234 0.119 7.1 63.77 14.59
2/5/2021 2:00:00 AM 0.16 32.288 0.119 7.05 63.81 14.59
2/5/2021 2:15:00 AM 0.18 32.324 0.119 7.1 63.91 14.58
2/5/2021 2:30:00 AM 0.21 32.378 0.119 7.12 63.84 14.56
2/5/2021 2:45:00 AM 0.23 32.414 0.119 7.05 63.8 14.54
2/5/2021 3:00:00 AM 0.25 32.45 0.119 7.11 63.96 14.53
2/5/2021 3:15:00 AM 0.27 32.486 0.118 7.1 63.97 14.52
2/5/2021 3:30:00 AM 0.27 32.486 0.119 7.11 63.98 14.5
2/5/2021 3:45:00 AM 0.28 32.504 0.118 7.1 63.93 14.48
2/5/2021 4:00:00 AM 0.29 32.522 0.118 7.13 63.89 14.47
2/5/2021 4:15:00 AM 0.3 32.54 0.118 7.03 63.98 14.47
2/5/2021 4:30:00 AM 0.31 32.558 0.118 7.1 63.97 14.46
2/5/2021 4:45:00 AM 0.33 32.594 0.118 7.11 63.9 14.44
2/5/2021 5:00:00 AM 0.35 32.63 0.118 7.1 63.97 14.44
2/5/2021 5:15:00 AM 0.36 32.648 0.118 7.1 63.92 14.43
2/5/2021 5:30:00 AM 0.38 32.684 0.118 7.1 63.92 14.42
2/5/2021 5:45:00 AM 0.39 32.702 0.118 7.12 63.91 14.41
2/5/2021 6:00:00 AM 0.4 32.72 0.118 7.11 63.82 14.4
2/5/2021 6:15:00 AM 0.41 32.738 0.118 7.09 63.83 14.39
2/5/2021 6:30:00 AM 0.43 32.774 0.118 7.1 63.84 14.37
2/5/2021 6:45:00 AM 0.43 32.774 0.118 7.1 63.87 14.37
2/5/2021 7:00:00 AM 0.43 32.774 0.119 7.1 63.82 14.37
2/5/2021 7:15:00 AM 0.43 32.774 0.119 7.11 63.89 14.37
2/5/2021 7:30:00 AM 0.45 32.81 0.119 7.11 63.94 14.36
2/5/2021 7:45:00 AM 0.47 32.846 0.119 7.1 63.92 14.37
2/5/2021 8:00:00 AM 0.49 32.882 0.119 7.11 63.64 14.38
2/5/2021 8:15:00 AM 0.51 32.918 0.119 7.11 63.59 14.41
2/5/2021 8:30:00 AM 0.55 32.99 0.119 7.13 63.63 14.42
2/5/2021 8:45:00 AM 0.57 33.026 0.119 7.12 63.66 14.45
2/5/2021 9:00:00 AM 0.61 33.098 0.119 7.12 63.73 14.46
2/5/2021 9:15:00 AM 0.66 33.188 0.119 7.13 63.83 14.47
2/5/2021 9:30:00 AM 0.73